<?xml version='1.0' encoding='UTF-8'?><gpx version="1.1" creator="JPX - https://github.com/jenetics/jpx" xmlns="http://www.topografix.com/GPX/1/1"><trk><trkseg><trkpt lat="44.9887013" lon="8.2527462"><ele>212.00000000000003</ele><time>2026-03-26T14:02:34.048Z</time></trkpt><trkpt lat="44.988625" lon="8.2527442"><ele>212.0</ele><time>2026-03-26T14:02:37.048Z</time></trkpt><trkpt lat="44.9885548" lon="8.2527348"><ele>212.0</ele><time>2026-03-26T14:02:57.047Z</time></trkpt><trkpt lat="44.9884566" lon="8.2527321"><ele>212.0</ele><time>2026-03-26T14:02:59.048Z</time></trkpt><trkpt lat="44.9883358" lon="8.2527336"><ele>212.00000000000003</ele><time>2026-03-26T14:03:01.048Z</time></trkpt><trkpt lat="44.9882643" lon="8.2527316"><ele>212.0</ele><time>2026-03-26T14:03:02.048Z</time></trkpt><trkpt lat="44.9881928" lon="8.2527313"><ele>212.2</ele><time>2026-03-26T14:03:03.048Z</time></trkpt><trkpt lat="44.9881206" lon="8.2527347"><ele>212.39999999999998</ele><time>2026-03-26T14:03:04.047Z</time></trkpt><trkpt lat="44.9880427" lon="8.2527386"><ele>212.60000000000002</ele><time>2026-03-26T14:03:05.048Z</time></trkpt><trkpt lat="44.9879007" lon="8.2527324"><ele>212.8</ele><time>2026-03-26T14:03:07.048Z</time></trkpt><trkpt lat="44.9878182" lon="8.2527204"><ele>213.0</ele><time>2026-03-26T14:03:08.048Z</time></trkpt><trkpt lat="44.9877347" lon="8.2527005"><ele>213.0</ele><time>2026-03-26T14:03:09.048Z</time></trkpt><trkpt lat="44.9876424" lon="8.2526591"><ele>213.0</ele><time>2026-03-26T14:03:10.048Z</time></trkpt><trkpt lat="44.9875383" lon="8.2526143"><ele>213.0</ele><time>2026-03-26T14:03:11.048Z</time></trkpt><trkpt lat="44.987425" lon="8.2525648"><ele>213.0</ele><time>2026-03-26T14:03:12.048Z</time></trkpt><trkpt lat="44.9873073" lon="8.2525187"><ele>213.0</ele><time>2026-03-26T14:03:13.048Z</time></trkpt><trkpt lat="44.9871929" lon="8.2524745"><ele>212.4</ele><time>2026-03-26T14:03:14.048Z</time></trkpt><trkpt lat="44.9870851" lon="8.2524324"><ele>211.8</ele><time>2026-03-26T14:03:15.048Z</time></trkpt><trkpt lat="44.986991" lon="8.2524"><ele>211.2</ele><time>2026-03-26T14:03:16.048Z</time></trkpt><trkpt lat="44.9869042" lon="8.2523622"><ele>210.6</ele><time>2026-03-26T14:03:17.048Z</time></trkpt><trkpt lat="44.9868197" lon="8.2523148"><ele>210.0</ele><time>2026-03-26T14:03:18.048Z</time></trkpt><trkpt lat="44.9867367" lon="8.2522582"><ele>208.4</ele><time>2026-03-26T14:03:19.048Z</time></trkpt><trkpt lat="44.9866509" lon="8.2522004"><ele>206.8</ele><time>2026-03-26T14:03:20.048Z</time></trkpt><trkpt lat="44.9865636" lon="8.2521276"><ele>205.2</ele><time>2026-03-26T14:03:21.048Z</time></trkpt><trkpt lat="44.9864779" lon="8.2520398"><ele>203.6</ele><time>2026-03-26T14:03:22.048Z</time></trkpt><trkpt lat="44.9863994" lon="8.2519504"><ele>202.0</ele><time>2026-03-26T14:03:23.048Z</time></trkpt><trkpt lat="44.9863181" lon="8.2518578"><ele>202.0</ele><time>2026-03-26T14:03:24.048Z</time></trkpt><trkpt lat="44.9862308" lon="8.2517622"><ele>202.0</ele><time>2026-03-26T14:03:25.048Z</time></trkpt><trkpt lat="44.9861547" lon="8.2516888"><ele>202.0</ele><time>2026-03-26T14:03:26.048Z</time></trkpt><trkpt lat="44.9860744" lon="8.2516286"><ele>202.0</ele><time>2026-03-26T14:03:27.048Z</time></trkpt><trkpt lat="44.9859897" lon="8.2515849"><ele>202.0</ele><time>2026-03-26T14:03:28.047Z</time></trkpt><trkpt lat="44.9859052" lon="8.2515636"><ele>203.0</ele><time>2026-03-26T14:03:29.047Z</time></trkpt><trkpt lat="44.9858158" lon="8.2515552"><ele>204.0</ele><time>2026-03-26T14:03:30.047Z</time></trkpt><trkpt lat="44.9857197" lon="8.2515597"><ele>205.0</ele><time>2026-03-26T14:03:31.048Z</time></trkpt><trkpt lat="44.9856204" lon="8.2515641"><ele>206.0</ele><time>2026-03-26T14:03:32.048Z</time></trkpt><trkpt lat="44.9855239" lon="8.2515665"><ele>207.0</ele><time>2026-03-26T14:03:33.048Z</time></trkpt><trkpt lat="44.985441" lon="8.2515647"><ele>207.0</ele><time>2026-03-26T14:03:34.048Z</time></trkpt><trkpt lat="44.9853548" lon="8.2515533"><ele>207.0</ele><time>2026-03-26T14:03:35.048Z</time></trkpt><trkpt lat="44.985268" lon="8.2515212"><ele>207.0</ele><time>2026-03-26T14:03:36.048Z</time></trkpt><trkpt lat="44.9851759" lon="8.2514735"><ele>207.0</ele><time>2026-03-26T14:03:37.048Z</time></trkpt><trkpt lat="44.985089" lon="8.251418"><ele>207.0</ele><time>2026-03-26T14:03:38.047Z</time></trkpt><trkpt lat="44.9850024" lon="8.2513495"><ele>205.5</ele><time>2026-03-26T14:03:39.048Z</time></trkpt><trkpt lat="44.9849277" lon="8.2512903"><ele>204.0</ele><time>2026-03-26T14:03:40.047Z</time></trkpt><trkpt lat="44.9848568" lon="8.2512335"><ele>202.5</ele><time>2026-03-26T14:03:41.048Z</time></trkpt><trkpt lat="44.9847785" lon="8.2511786"><ele>201.0</ele><time>2026-03-26T14:03:42.048Z</time></trkpt><trkpt lat="44.9847088" lon="8.2511314"><ele>199.5</ele><time>2026-03-26T14:03:43.047Z</time></trkpt><trkpt lat="44.9846296" lon="8.2510853"><ele>198.0</ele><time>2026-03-26T14:03:44.048Z</time></trkpt><trkpt lat="44.9845349" lon="8.2510411"><ele>198.0</ele><time>2026-03-26T14:03:45.048Z</time></trkpt><trkpt lat="44.9844345" lon="8.2510075"><ele>198.0</ele><time>2026-03-26T14:03:46.048Z</time></trkpt><trkpt lat="44.9843349" lon="8.2509874"><ele>198.0</ele><time>2026-03-26T14:03:47.048Z</time></trkpt><trkpt lat="44.9842373" lon="8.2509799"><ele>198.0</ele><time>2026-03-26T14:03:48.047Z</time></trkpt><trkpt lat="44.9841372" lon="8.2509827"><ele>198.0</ele><time>2026-03-26T14:03:49.048Z</time></trkpt><trkpt lat="44.9840363" lon="8.2509924"><ele>197.8</ele><time>2026-03-26T14:03:50.048Z</time></trkpt><trkpt lat="44.983936" lon="8.251002"><ele>197.60000000000002</ele><time>2026-03-26T14:03:51.048Z</time></trkpt><trkpt lat="44.9838415" lon="8.2510164"><ele>197.39999999999998</ele><time>2026-03-26T14:03:52.048Z</time></trkpt><trkpt lat="44.9837419" lon="8.2510362"><ele>197.2</ele><time>2026-03-26T14:03:53.048Z</time></trkpt><trkpt lat="44.9836401" lon="8.2510567"><ele>197.0</ele><time>2026-03-26T14:03:54.048Z</time></trkpt><trkpt lat="44.9835295" lon="8.2510859"><ele>197.0</ele><time>2026-03-26T14:03:55.049Z</time></trkpt><trkpt lat="44.9834118" lon="8.2511196"><ele>197.0</ele><time>2026-03-26T14:03:56.047Z</time></trkpt><trkpt lat="44.9832989" lon="8.251153"><ele>197.0</ele><time>2026-03-26T14:03:57.048Z</time></trkpt><trkpt lat="44.9832006" lon="8.2511853"><ele>197.0</ele><time>2026-03-26T14:03:58.048Z</time></trkpt><trkpt lat="44.9831135" lon="8.2512062"><ele>197.0</ele><time>2026-03-26T14:03:59.047Z</time></trkpt><trkpt lat="44.983031" lon="8.2512273"><ele>196.39999999999998</ele><time>2026-03-26T14:04:00.049Z</time></trkpt><trkpt lat="44.9829465" lon="8.2512718"><ele>195.79999999999998</ele><time>2026-03-26T14:04:01.048Z</time></trkpt><trkpt lat="44.9828728" lon="8.2513383"><ele>195.2</ele><time>2026-03-26T14:04:02.048Z</time></trkpt><trkpt lat="44.9827922" lon="8.2514371"><ele>194.6</ele><time>2026-03-26T14:04:03.049Z</time></trkpt><trkpt lat="44.9827022" lon="8.2515424"><ele>194.0</ele><time>2026-03-26T14:04:04.047Z</time></trkpt><trkpt lat="44.9826164" lon="8.2516345"><ele>194.0</ele><time>2026-03-26T14:04:05.048Z</time></trkpt><trkpt lat="44.982533" lon="8.2517198"><ele>194.0</ele><time>2026-03-26T14:04:06.048Z</time></trkpt><trkpt lat="44.9824549" lon="8.2517873"><ele>194.0</ele><time>2026-03-26T14:04:07.048Z</time></trkpt><trkpt lat="44.9823894" lon="8.2518317"><ele>194.0</ele><time>2026-03-26T14:04:08.048Z</time></trkpt><trkpt lat="44.9822835" lon="8.2518757"><ele>194.0</ele><time>2026-03-26T14:04:10.048Z</time></trkpt><trkpt lat="44.9822056" lon="8.2519333"><ele>194.79999999999998</ele><time>2026-03-26T14:04:13.048Z</time></trkpt><trkpt lat="44.9821757" lon="8.2520889"><ele>195.6</ele><time>2026-03-26T14:04:15.048Z</time></trkpt><trkpt lat="44.9821585" lon="8.2522054"><ele>196.4</ele><time>2026-03-26T14:04:16.048Z</time></trkpt><trkpt lat="44.982131" lon="8.2523407"><ele>197.2</ele><time>2026-03-26T14:04:17.048Z</time></trkpt><trkpt lat="44.9820902" lon="8.2524877"><ele>198.0</ele><time>2026-03-26T14:04:18.048Z</time></trkpt><trkpt lat="44.9820513" lon="8.2526381"><ele>196.2</ele><time>2026-03-26T14:04:19.048Z</time></trkpt><trkpt lat="44.9820182" lon="8.2527761"><ele>194.4</ele><time>2026-03-26T14:04:20.048Z</time></trkpt><trkpt lat="44.9819878" lon="8.2529214"><ele>192.6</ele><time>2026-03-26T14:04:21.048Z</time></trkpt><trkpt lat="44.9819573" lon="8.2530669"><ele>190.79999999999998</ele><time>2026-03-26T14:04:22.048Z</time></trkpt><trkpt lat="44.98193" lon="8.2532034"><ele>189.0</ele><time>2026-03-26T14:04:23.048Z</time></trkpt><trkpt lat="44.9819079" lon="8.2533334"><ele>188.83333333333334</ele><time>2026-03-26T14:04:24.048Z</time></trkpt><trkpt lat="44.9818875" lon="8.2534517"><ele>188.66666666666666</ele><time>2026-03-26T14:04:25.048Z</time></trkpt><trkpt lat="44.9818656" lon="8.2535565"><ele>188.5</ele><time>2026-03-26T14:04:26.048Z</time></trkpt><trkpt lat="44.9818337" lon="8.2536483"><ele>188.33333333333331</ele><time>2026-03-26T14:04:27.049Z</time></trkpt><trkpt lat="44.9817718" lon="8.2537218"><ele>188.16666666666666</ele><time>2026-03-26T14:04:28.048Z</time></trkpt><trkpt lat="44.981688" lon="8.2537812"><ele>188.0</ele><time>2026-03-26T14:04:29.048Z</time></trkpt><trkpt lat="44.9815933" lon="8.2538251"><ele>188.0</ele><time>2026-03-26T14:04:30.048Z</time></trkpt><trkpt lat="44.9814854" lon="8.2538657"><ele>188.0</ele><time>2026-03-26T14:04:31.048Z</time></trkpt><trkpt lat="44.9813694" lon="8.2539027"><ele>188.0</ele><time>2026-03-26T14:04:32.048Z</time></trkpt><trkpt lat="44.9812525" lon="8.2539381"><ele>188.0</ele><time>2026-03-26T14:04:33.048Z</time></trkpt><trkpt lat="44.9811335" lon="8.2539733"><ele>187.25</ele><time>2026-03-26T14:04:34.048Z</time></trkpt><trkpt lat="44.9810135" lon="8.2540078"><ele>186.5</ele><time>2026-03-26T14:04:35.048Z</time></trkpt><trkpt lat="44.980885" lon="8.2540439"><ele>185.75</ele><time>2026-03-26T14:04:36.048Z</time></trkpt><trkpt lat="44.9807581" lon="8.2540732"><ele>185.0</ele><time>2026-03-26T14:04:37.048Z</time></trkpt><trkpt lat="44.9806334" lon="8.2541031"><ele>182.5</ele><time>2026-03-26T14:04:38.048Z</time></trkpt><trkpt lat="44.9805132" lon="8.2541327"><ele>180.0</ele><time>2026-03-26T14:04:39.048Z</time></trkpt><trkpt lat="44.9803936" lon="8.2541643"><ele>177.5</ele><time>2026-03-26T14:04:40.047Z</time></trkpt><trkpt lat="44.9802774" lon="8.2541959"><ele>175.0</ele><time>2026-03-26T14:04:41.048Z</time></trkpt><trkpt lat="44.9801517" lon="8.2542312"><ele>175.0</ele><time>2026-03-26T14:04:42.048Z</time></trkpt><trkpt lat="44.9800273" lon="8.2542666"><ele>175.0</ele><time>2026-03-26T14:04:43.048Z</time></trkpt><trkpt lat="44.9799097" lon="8.2543056"><ele>175.0</ele><time>2026-03-26T14:04:44.048Z</time></trkpt><trkpt lat="44.9797992" lon="8.2543467"><ele>175.0</ele><time>2026-03-26T14:04:45.048Z</time></trkpt><trkpt lat="44.9796993" lon="8.2543914"><ele>172.4</ele><time>2026-03-26T14:04:46.048Z</time></trkpt><trkpt lat="44.9796088" lon="8.2544366"><ele>169.8</ele><time>2026-03-26T14:04:47.048Z</time></trkpt><trkpt lat="44.9795229" lon="8.2544837"><ele>167.2</ele><time>2026-03-26T14:04:48.048Z</time></trkpt><trkpt lat="44.9794365" lon="8.2545287"><ele>164.6</ele><time>2026-03-26T14:04:49.048Z</time></trkpt><trkpt lat="44.9793504" lon="8.2545725"><ele>162.0</ele><time>2026-03-26T14:04:50.047Z</time></trkpt><trkpt lat="44.9792627" lon="8.2546112"><ele>160.5</ele><time>2026-03-26T14:04:51.048Z</time></trkpt><trkpt lat="44.9791733" lon="8.2546399"><ele>159.0</ele><time>2026-03-26T14:04:52.048Z</time></trkpt><trkpt lat="44.9790826" lon="8.2546466"><ele>157.5</ele><time>2026-03-26T14:04:53.048Z</time></trkpt><trkpt lat="44.9790011" lon="8.2546299"><ele>156.0</ele><time>2026-03-26T14:04:54.047Z</time></trkpt><trkpt lat="44.978926" lon="8.2545952"><ele>154.5</ele><time>2026-03-26T14:04:55.048Z</time></trkpt><trkpt lat="44.9788638" lon="8.2545405"><ele>153.0</ele><time>2026-03-26T14:04:56.047Z</time></trkpt><trkpt lat="44.9788185" lon="8.2544735"><ele>153.0</ele><time>2026-03-26T14:04:57.048Z</time></trkpt><trkpt lat="44.9787795" lon="8.2543944"><ele>153.0</ele><time>2026-03-26T14:04:58.048Z</time></trkpt><trkpt lat="44.978745" lon="8.2542962"><ele>153.0</ele><time>2026-03-26T14:04:59.048Z</time></trkpt><trkpt lat="44.9787205" lon="8.2541838"><ele>153.0</ele><time>2026-03-26T14:05:00.048Z</time></trkpt><trkpt lat="44.978701" lon="8.2540769"><ele>153.0</ele><time>2026-03-26T14:05:01.048Z</time></trkpt><trkpt lat="44.978684" lon="8.2539865"><ele>153.0</ele><time>2026-03-26T14:05:02.048Z</time></trkpt><trkpt lat="44.9786675" lon="8.2538493"><ele>153.0</ele><time>2026-03-26T14:05:04.048Z</time></trkpt><trkpt lat="44.978687" lon="8.2540125"><ele>153.0</ele><time>2026-03-26T14:05:12.047Z</time></trkpt><trkpt lat="44.9787061" lon="8.2541094"><ele>153.0</ele><time>2026-03-26T14:05:13.048Z</time></trkpt><trkpt lat="44.9787262" lon="8.254206"><ele>153.0</ele><time>2026-03-26T14:05:14.048Z</time></trkpt><trkpt lat="44.9787519" lon="8.2543074"><ele>153.0</ele><time>2026-03-26T14:05:15.048Z</time></trkpt><trkpt lat="44.978772" lon="8.2543957"><ele>153.0</ele><time>2026-03-26T14:05:16.048Z</time></trkpt><trkpt lat="44.9788116" lon="8.2545562"><ele>153.0</ele><time>2026-03-26T14:05:18.047Z</time></trkpt><trkpt lat="44.978881" lon="8.2547117"><ele>153.0</ele><time>2026-03-26T14:05:20.048Z</time></trkpt><trkpt lat="44.9789325" lon="8.2547938"><ele>153.0</ele><time>2026-03-26T14:05:21.047Z</time></trkpt><trkpt lat="44.9789932" lon="8.2548743"><ele>153.0</ele><time>2026-03-26T14:05:22.047Z</time></trkpt><trkpt lat="44.9790598" lon="8.254956"><ele>153.0</ele><time>2026-03-26T14:05:23.048Z</time></trkpt><trkpt lat="44.9791311" lon="8.255039"><ele>153.83333333333334</ele><time>2026-03-26T14:05:24.048Z</time></trkpt><trkpt lat="44.979195" lon="8.2551126"><ele>154.66666666666666</ele><time>2026-03-26T14:05:25.048Z</time></trkpt><trkpt lat="44.9792538" lon="8.2551831"><ele>155.5</ele><time>2026-03-26T14:05:26.048Z</time></trkpt><trkpt lat="44.9793219" lon="8.2552543"><ele>156.33333333333331</ele><time>2026-03-26T14:05:27.048Z</time></trkpt><trkpt lat="44.9793963" lon="8.2553235"><ele>157.16666666666666</ele><time>2026-03-26T14:05:28.047Z</time></trkpt><trkpt lat="44.9794774" lon="8.2553914"><ele>158.0</ele><time>2026-03-26T14:05:29.048Z</time></trkpt><trkpt lat="44.9795606" lon="8.2554588"><ele>158.0</ele><time>2026-03-26T14:05:30.048Z</time></trkpt><trkpt lat="44.9796468" lon="8.2555296"><ele>158.0</ele><time>2026-03-26T14:05:31.048Z</time></trkpt><trkpt lat="44.9797265" lon="8.2555972"><ele>158.0</ele><time>2026-03-26T14:05:32.048Z</time></trkpt><trkpt lat="44.9798008" lon="8.2556594"><ele>158.0</ele><time>2026-03-26T14:05:33.048Z</time></trkpt><trkpt lat="44.9798686" lon="8.2557159"><ele>158.0</ele><time>2026-03-26T14:05:34.048Z</time></trkpt><trkpt lat="44.979944" lon="8.2557753"><ele>158.0</ele><time>2026-03-26T14:05:35.048Z</time></trkpt><trkpt lat="44.9800211" lon="8.2558309"><ele>158.20000000000002</ele><time>2026-03-26T14:05:36.048Z</time></trkpt><trkpt lat="44.9801045" lon="8.2558877"><ele>158.4</ele><time>2026-03-26T14:05:37.048Z</time></trkpt><trkpt lat="44.9801822" lon="8.2559441"><ele>158.60000000000002</ele><time>2026-03-26T14:05:38.047Z</time></trkpt><trkpt lat="44.9802616" lon="8.2560038"><ele>158.8</ele><time>2026-03-26T14:05:39.047Z</time></trkpt><trkpt lat="44.9803489" lon="8.2560642"><ele>159.0</ele><time>2026-03-26T14:05:40.048Z</time></trkpt><trkpt lat="44.9804405" lon="8.2561215"><ele>159.0</ele><time>2026-03-26T14:05:41.047Z</time></trkpt><trkpt lat="44.9805228" lon="8.2561781"><ele>159.0</ele><time>2026-03-26T14:05:42.047Z</time></trkpt><trkpt lat="44.980592" lon="8.2562315"><ele>159.0</ele><time>2026-03-26T14:05:43.048Z</time></trkpt><trkpt lat="44.9806469" lon="8.2562759"><ele>159.0</ele><time>2026-03-26T14:05:44.048Z</time></trkpt><trkpt lat="44.9807416" lon="8.2563825"><ele>159.0</ele><time>2026-03-26T14:05:46.049Z</time></trkpt><trkpt lat="44.9808444" lon="8.2564884"><ele>158.16666666666666</ele><time>2026-03-26T14:05:48.048Z</time></trkpt><trkpt lat="44.9808992" lon="8.2565324"><ele>157.33333333333334</ele><time>2026-03-26T14:05:49.048Z</time></trkpt><trkpt lat="44.9810155" lon="8.2565945"><ele>156.5</ele><time>2026-03-26T14:05:51.047Z</time></trkpt><trkpt lat="44.9810814" lon="8.2566137"><ele>155.66666666666669</ele><time>2026-03-26T14:05:52.047Z</time></trkpt><trkpt lat="44.9811558" lon="8.2566315"><ele>154.83333333333334</ele><time>2026-03-26T14:05:53.049Z</time></trkpt><trkpt lat="44.9812388" lon="8.2566475"><ele>154.0</ele><time>2026-03-26T14:05:54.049Z</time></trkpt><trkpt lat="44.9813231" lon="8.2566606"><ele>154.0</ele><time>2026-03-26T14:05:55.048Z</time></trkpt><trkpt lat="44.9814045" lon="8.2566745"><ele>154.0</ele><time>2026-03-26T14:05:56.048Z</time></trkpt><trkpt lat="44.9814849" lon="8.2566878"><ele>154.0</ele><time>2026-03-26T14:05:57.047Z</time></trkpt><trkpt lat="44.9815647" lon="8.2567052"><ele>154.0</ele><time>2026-03-26T14:05:58.048Z</time></trkpt><trkpt lat="44.981646" lon="8.2567227"><ele>154.0</ele><time>2026-03-26T14:05:59.047Z</time></trkpt><trkpt lat="44.9817317" lon="8.2567405"><ele>154.0</ele><time>2026-03-26T14:06:00.048Z</time></trkpt><trkpt lat="44.9818194" lon="8.2567621"><ele>154.33333333333334</ele><time>2026-03-26T14:06:01.047Z</time></trkpt><trkpt lat="44.9818991" lon="8.256777"><ele>154.66666666666669</ele><time>2026-03-26T14:06:02.049Z</time></trkpt><trkpt lat="44.9819676" lon="8.2567919"><ele>155.0</ele><time>2026-03-26T14:06:03.048Z</time></trkpt><trkpt lat="44.9820837" lon="8.2568112"><ele>155.33333333333334</ele><time>2026-03-26T14:06:05.047Z</time></trkpt><trkpt lat="44.9821706" lon="8.2567988"><ele>155.66666666666666</ele><time>2026-03-26T14:06:07.048Z</time></trkpt><trkpt lat="44.9822396" lon="8.2567544"><ele>156.0</ele><time>2026-03-26T14:06:09.047Z</time></trkpt><trkpt lat="44.9823056" lon="8.2568017"><ele>156.0</ele><time>2026-03-26T14:06:12.048Z</time></trkpt><trkpt lat="44.9823069" lon="8.2569035"><ele>156.0</ele><time>2026-03-26T14:06:14.048Z</time></trkpt><trkpt lat="44.9822795" lon="8.2570742"><ele>156.0</ele><time>2026-03-26T14:06:16.048Z</time></trkpt><trkpt lat="44.9822621" lon="8.2571723"><ele>156.0</ele><time>2026-03-26T14:06:17.047Z</time></trkpt><trkpt lat="44.9822532" lon="8.2572678"><ele>156.0</ele><time>2026-03-26T14:06:18.048Z</time></trkpt><trkpt lat="44.9822498" lon="8.2574045"><ele>156.0</ele><time>2026-03-26T14:06:20.048Z</time></trkpt><trkpt lat="44.9822309" lon="8.257527"><ele>155.83333333333334</ele><time>2026-03-26T14:06:22.048Z</time></trkpt><trkpt lat="44.9821965" lon="8.2576725"><ele>155.66666666666666</ele><time>2026-03-26T14:06:24.048Z</time></trkpt><trkpt lat="44.9821866" lon="8.257769"><ele>155.5</ele><time>2026-03-26T14:06:25.048Z</time></trkpt><trkpt lat="44.9821887" lon="8.2578657"><ele>155.33333333333331</ele><time>2026-03-26T14:06:26.048Z</time></trkpt><trkpt lat="44.9821973" lon="8.2579612"><ele>155.16666666666666</ele><time>2026-03-26T14:06:27.048Z</time></trkpt><trkpt lat="44.9822106" lon="8.2580537"><ele>155.0</ele><time>2026-03-26T14:06:28.048Z</time></trkpt><trkpt lat="44.9822209" lon="8.2581504"><ele>155.0</ele><time>2026-03-26T14:06:29.049Z</time></trkpt><trkpt lat="44.9822318" lon="8.2582598"><ele>155.0</ele><time>2026-03-26T14:06:30.048Z</time></trkpt><trkpt lat="44.9822416" lon="8.2583917"><ele>155.0</ele><time>2026-03-26T14:06:31.048Z</time></trkpt><trkpt lat="44.9822557" lon="8.2585555"><ele>155.0</ele><time>2026-03-26T14:06:32.048Z</time></trkpt><trkpt lat="44.982269" lon="8.2586908"><ele>155.0</ele><time>2026-03-26T14:06:33.048Z</time></trkpt><trkpt lat="44.9822823" lon="8.2588113"><ele>155.0</ele><time>2026-03-26T14:06:34.048Z</time></trkpt><trkpt lat="44.9822915" lon="8.2589139"><ele>155.0</ele><time>2026-03-26T14:06:35.048Z</time></trkpt><trkpt lat="44.9823054" lon="8.2590471"><ele>155.0</ele><time>2026-03-26T14:06:37.048Z</time></trkpt><trkpt lat="44.9823038" lon="8.2591675"><ele>155.0</ele><time>2026-03-26T14:06:40.048Z</time></trkpt><trkpt lat="44.9822586" lon="8.2592592"><ele>155.0</ele><time>2026-03-26T14:06:42.048Z</time></trkpt><trkpt lat="44.9822009" lon="8.2593138"><ele>155.0</ele><time>2026-03-26T14:06:43.048Z</time></trkpt><trkpt lat="44.9821372" lon="8.2594014"><ele>154.6</ele><time>2026-03-26T14:06:44.048Z</time></trkpt><trkpt lat="44.9820834" lon="8.2595143"><ele>154.2</ele><time>2026-03-26T14:06:45.048Z</time></trkpt><trkpt lat="44.9820345" lon="8.2596509"><ele>153.8</ele><time>2026-03-26T14:06:46.047Z</time></trkpt><trkpt lat="44.9819933" lon="8.259794"><ele>153.4</ele><time>2026-03-26T14:06:47.048Z</time></trkpt><trkpt lat="44.9819365" lon="8.2599345"><ele>153.0</ele><time>2026-03-26T14:06:48.048Z</time></trkpt><trkpt lat="44.9818575" lon="8.2600625"><ele>153.6</ele><time>2026-03-26T14:06:49.048Z</time></trkpt><trkpt lat="44.9817839" lon="8.2601818"><ele>154.20000000000002</ele><time>2026-03-26T14:06:50.048Z</time></trkpt><trkpt lat="44.9817265" lon="8.2602809"><ele>154.8</ele><time>2026-03-26T14:06:51.048Z</time></trkpt><trkpt lat="44.9816861" lon="8.2603665"><ele>155.4</ele><time>2026-03-26T14:06:52.048Z</time></trkpt><trkpt lat="44.9816507" lon="8.260473"><ele>156.0</ele><time>2026-03-26T14:06:54.048Z</time></trkpt><trkpt lat="44.9816097" lon="8.2606152"><ele>156.5</ele><time>2026-03-26T14:06:56.048Z</time></trkpt><trkpt lat="44.9815611" lon="8.2606927"><ele>157.0</ele><time>2026-03-26T14:06:57.048Z</time></trkpt><trkpt lat="44.9814932" lon="8.2607625"><ele>157.5</ele><time>2026-03-26T14:06:58.048Z</time></trkpt><trkpt lat="44.9814182" lon="8.2607947"><ele>158.0</ele><time>2026-03-26T14:06:59.048Z</time></trkpt><trkpt lat="44.9813343" lon="8.2607838"><ele>158.5</ele><time>2026-03-26T14:07:00.049Z</time></trkpt><trkpt lat="44.9812405" lon="8.2607267"><ele>159.0</ele><time>2026-03-26T14:07:01.048Z</time></trkpt><trkpt lat="44.9811201" lon="8.2606516"><ele>158.0</ele><time>2026-03-26T14:07:02.048Z</time></trkpt><trkpt lat="44.9809767" lon="8.2605737"><ele>157.0</ele><time>2026-03-26T14:07:03.047Z</time></trkpt><trkpt lat="44.9808165" lon="8.2604916"><ele>156.0</ele><time>2026-03-26T14:07:04.047Z</time></trkpt><trkpt lat="44.9806506" lon="8.2603986"><ele>154.0</ele><time>2026-03-26T14:07:05.048Z</time></trkpt><trkpt lat="44.9804944" lon="8.2603027"><ele>152.0</ele><time>2026-03-26T14:07:06.048Z</time></trkpt><trkpt lat="44.9803511" lon="8.2602033"><ele>150.0</ele><time>2026-03-26T14:07:07.048Z</time></trkpt><trkpt lat="44.9802258" lon="8.2600904"><ele>150.0</ele><time>2026-03-26T14:07:08.047Z</time></trkpt><trkpt lat="44.9801219" lon="8.2599653"><ele>150.0</ele><time>2026-03-26T14:07:09.047Z</time></trkpt><trkpt lat="44.9800301" lon="8.2598446"><ele>150.0</ele><time>2026-03-26T14:07:10.047Z</time></trkpt><trkpt lat="44.9799457" lon="8.259741"><ele>150.0</ele><time>2026-03-26T14:07:11.048Z</time></trkpt><trkpt lat="44.9798781" lon="8.2596587"><ele>150.2</ele><time>2026-03-26T14:07:12.047Z</time></trkpt><trkpt lat="44.9798186" lon="8.2595914"><ele>150.4</ele><time>2026-03-26T14:07:13.048Z</time></trkpt><trkpt lat="44.9797245" lon="8.2595487"><ele>150.6</ele><time>2026-03-26T14:07:15.047Z</time></trkpt><trkpt lat="44.9796872" lon="8.2596437"><ele>150.8</ele><time>2026-03-26T14:07:17.048Z</time></trkpt><trkpt lat="44.9796765" lon="8.2599053"><ele>151.0</ele><time>2026-03-26T14:07:19.048Z</time></trkpt><trkpt lat="44.9796661" lon="8.2601162"><ele>151.25</ele><time>2026-03-26T14:07:20.047Z</time></trkpt><trkpt lat="44.9796581" lon="8.2603353"><ele>151.5</ele><time>2026-03-26T14:07:21.048Z</time></trkpt><trkpt lat="44.9796486" lon="8.2605424"><ele>151.75</ele><time>2026-03-26T14:07:22.048Z</time></trkpt><trkpt lat="44.9796392" lon="8.260733"><ele>152.0</ele><time>2026-03-26T14:07:23.048Z</time></trkpt><trkpt lat="44.979623" lon="8.2609188"><ele>152.0</ele><time>2026-03-26T14:07:24.048Z</time></trkpt><trkpt lat="44.9795926" lon="8.261072"><ele>152.0</ele><time>2026-03-26T14:07:25.047Z</time></trkpt><trkpt lat="44.9795599" lon="8.2611778"><ele>152.0</ele><time>2026-03-26T14:07:26.048Z</time></trkpt><trkpt lat="44.9795106" lon="8.2613064"><ele>152.0</ele><time>2026-03-26T14:07:28.047Z</time></trkpt><trkpt lat="44.979487" lon="8.2614631"><ele>152.0</ele><time>2026-03-26T14:07:30.048Z</time></trkpt><trkpt lat="44.9794742" lon="8.2615632"><ele>152.5</ele><time>2026-03-26T14:07:31.048Z</time></trkpt><trkpt lat="44.9794574" lon="8.2616782"><ele>153.0</ele><time>2026-03-26T14:07:32.048Z</time></trkpt><trkpt lat="44.9794374" lon="8.2617885"><ele>153.5</ele><time>2026-03-26T14:07:33.048Z</time></trkpt><trkpt lat="44.9794144" lon="8.2619076"><ele>154.0</ele><time>2026-03-26T14:07:34.048Z</time></trkpt><trkpt lat="44.9793917" lon="8.2620361"><ele>154.5</ele><time>2026-03-26T14:07:35.048Z</time></trkpt><trkpt lat="44.9793718" lon="8.2621587"><ele>155.0</ele><time>2026-03-26T14:07:36.048Z</time></trkpt><trkpt lat="44.9793522" lon="8.2622913"><ele>155.0</ele><time>2026-03-26T14:07:37.048Z</time></trkpt><trkpt lat="44.9793296" lon="8.262434"><ele>155.0</ele><time>2026-03-26T14:07:38.048Z</time></trkpt><trkpt lat="44.9793088" lon="8.2625817"><ele>155.0</ele><time>2026-03-26T14:07:39.048Z</time></trkpt><trkpt lat="44.9792893" lon="8.2627228"><ele>155.0</ele><time>2026-03-26T14:07:40.048Z</time></trkpt><trkpt lat="44.9792749" lon="8.2628646"><ele>155.0</ele><time>2026-03-26T14:07:41.048Z</time></trkpt><trkpt lat="44.9792562" lon="8.2630104"><ele>155.0</ele><time>2026-03-26T14:07:42.048Z</time></trkpt><trkpt lat="44.9792316" lon="8.2631664"><ele>155.0</ele><time>2026-03-26T14:07:43.048Z</time></trkpt><trkpt lat="44.9792049" lon="8.2633267"><ele>155.0</ele><time>2026-03-26T14:07:44.048Z</time></trkpt><trkpt lat="44.9791763" lon="8.2634937"><ele>155.0</ele><time>2026-03-26T14:07:45.048Z</time></trkpt><trkpt lat="44.9791502" lon="8.2636711"><ele>155.25</ele><time>2026-03-26T14:07:46.048Z</time></trkpt><trkpt lat="44.9791306" lon="8.2638487"><ele>155.5</ele><time>2026-03-26T14:07:47.048Z</time></trkpt><trkpt lat="44.979119" lon="8.2640268"><ele>155.75</ele><time>2026-03-26T14:07:48.048Z</time></trkpt><trkpt lat="44.9791083" lon="8.2641973"><ele>156.0</ele><time>2026-03-26T14:07:49.048Z</time></trkpt><trkpt lat="44.9790984" lon="8.2643681"><ele>156.25</ele><time>2026-03-26T14:07:50.048Z</time></trkpt><trkpt lat="44.9790904" lon="8.264538"><ele>156.5</ele><time>2026-03-26T14:07:51.048Z</time></trkpt><trkpt lat="44.9790813" lon="8.2647008"><ele>156.75</ele><time>2026-03-26T14:07:52.048Z</time></trkpt><trkpt lat="44.9790691" lon="8.2648607"><ele>157.0</ele><time>2026-03-26T14:07:53.047Z</time></trkpt><trkpt lat="44.9790529" lon="8.2650179"><ele>157.25</ele><time>2026-03-26T14:07:54.048Z</time></trkpt><trkpt lat="44.9790356" lon="8.2651747"><ele>157.5</ele><time>2026-03-26T14:07:55.047Z</time></trkpt><trkpt lat="44.9790141" lon="8.2653388"><ele>157.75</ele><time>2026-03-26T14:07:56.048Z</time></trkpt><trkpt lat="44.9789892" lon="8.2655134"><ele>158.0</ele><time>2026-03-26T14:07:57.048Z</time></trkpt><trkpt lat="44.978959" lon="8.2656981"><ele>158.0</ele><time>2026-03-26T14:07:58.047Z</time></trkpt><trkpt lat="44.9789272" lon="8.2658892"><ele>158.0</ele><time>2026-03-26T14:07:59.048Z</time></trkpt><trkpt lat="44.9788993" lon="8.2660497"><ele>158.0</ele><time>2026-03-26T14:08:00.048Z</time></trkpt><trkpt lat="44.9788735" lon="8.2661969"><ele>158.0</ele><time>2026-03-26T14:08:01.048Z</time></trkpt><trkpt lat="44.9788479" lon="8.2663399"><ele>158.0</ele><time>2026-03-26T14:08:02.047Z</time></trkpt><trkpt lat="44.9788215" lon="8.2664764"><ele>158.0</ele><time>2026-03-26T14:08:03.048Z</time></trkpt><trkpt lat="44.978795" lon="8.2666098"><ele>158.0</ele><time>2026-03-26T14:08:04.048Z</time></trkpt><trkpt lat="44.9787702" lon="8.2667409"><ele>158.0</ele><time>2026-03-26T14:08:05.048Z</time></trkpt><trkpt lat="44.9787517" lon="8.2668587"><ele>158.0</ele><time>2026-03-26T14:08:06.048Z</time></trkpt><trkpt lat="44.9787419" lon="8.2669716"><ele>158.0</ele><time>2026-03-26T14:08:07.048Z</time></trkpt><trkpt lat="44.9787416" lon="8.2670947"><ele>158.0</ele><time>2026-03-26T14:08:08.048Z</time></trkpt><trkpt lat="44.9787468" lon="8.267231"><ele>158.0</ele><time>2026-03-26T14:08:09.048Z</time></trkpt><trkpt lat="44.9787509" lon="8.2673716"><ele>158.0</ele><time>2026-03-26T14:08:10.048Z</time></trkpt><trkpt lat="44.9787581" lon="8.2675176"><ele>158.0</ele><time>2026-03-26T14:08:11.047Z</time></trkpt><trkpt lat="44.9787662" lon="8.2676586"><ele>158.20000000000002</ele><time>2026-03-26T14:08:12.048Z</time></trkpt><trkpt lat="44.978776" lon="8.2677941"><ele>158.4</ele><time>2026-03-26T14:08:13.048Z</time></trkpt><trkpt lat="44.9787904" lon="8.2679411"><ele>158.60000000000002</ele><time>2026-03-26T14:08:14.048Z</time></trkpt><trkpt lat="44.9788058" lon="8.2680804"><ele>158.8</ele><time>2026-03-26T14:08:15.048Z</time></trkpt><trkpt lat="44.9788215" lon="8.2682272"><ele>159.0</ele><time>2026-03-26T14:08:16.048Z</time></trkpt><trkpt lat="44.9788342" lon="8.2683803"><ele>159.6</ele><time>2026-03-26T14:08:17.048Z</time></trkpt><trkpt lat="44.9788469" lon="8.2685306"><ele>160.2</ele><time>2026-03-26T14:08:18.049Z</time></trkpt><trkpt lat="44.978864" lon="8.2686798"><ele>160.79999999999998</ele><time>2026-03-26T14:08:19.048Z</time></trkpt><trkpt lat="44.9788843" lon="8.2688217"><ele>161.4</ele><time>2026-03-26T14:08:20.048Z</time></trkpt><trkpt lat="44.978907" lon="8.2689494"><ele>162.0</ele><time>2026-03-26T14:08:21.048Z</time></trkpt><trkpt lat="44.9789287" lon="8.2690725"><ele>162.66666666666666</ele><time>2026-03-26T14:08:22.048Z</time></trkpt><trkpt lat="44.9789476" lon="8.2691874"><ele>163.33333333333334</ele><time>2026-03-26T14:08:23.048Z</time></trkpt><trkpt lat="44.9789584" lon="8.2692824"><ele>164.0</ele><time>2026-03-26T14:08:24.048Z</time></trkpt><trkpt lat="44.9789673" lon="8.2693792"><ele>164.66666666666669</ele><time>2026-03-26T14:08:25.048Z</time></trkpt><trkpt lat="44.9789704" lon="8.2694974"><ele>165.33333333333334</ele><time>2026-03-26T14:08:26.047Z</time></trkpt><trkpt lat="44.9789695" lon="8.2696284"><ele>166.0</ele><time>2026-03-26T14:08:27.048Z</time></trkpt><trkpt lat="44.9789654" lon="8.2697613"><ele>166.42857142857142</ele><time>2026-03-26T14:08:28.048Z</time></trkpt><trkpt lat="44.978957" lon="8.269868"><ele>166.85714285714286</ele><time>2026-03-26T14:08:29.048Z</time></trkpt><trkpt lat="44.9789468" lon="8.2699786"><ele>167.28571428571428</ele><time>2026-03-26T14:08:30.048Z</time></trkpt><trkpt lat="44.9789338" lon="8.2700687"><ele>167.71428571428572</ele><time>2026-03-26T14:08:31.048Z</time></trkpt><trkpt lat="44.9789163" lon="8.2701584"><ele>168.14285714285714</ele><time>2026-03-26T14:08:32.048Z</time></trkpt><trkpt lat="44.9788943" lon="8.2702522"><ele>168.57142857142858</ele><time>2026-03-26T14:08:33.049Z</time></trkpt><trkpt lat="44.978873" lon="8.270357"><ele>169.0</ele><time>2026-03-26T14:08:34.048Z</time></trkpt><trkpt lat="44.9788503" lon="8.2704631"><ele>169.0</ele><time>2026-03-26T14:08:35.048Z</time></trkpt><trkpt lat="44.9788225" lon="8.2705671"><ele>169.0</ele><time>2026-03-26T14:08:36.048Z</time></trkpt><trkpt lat="44.978784" lon="8.2706643"><ele>169.0</ele><time>2026-03-26T14:08:37.048Z</time></trkpt><trkpt lat="44.9787168" lon="8.2708171"><ele>169.0</ele><time>2026-03-26T14:08:39.048Z</time></trkpt><trkpt lat="44.9786647" lon="8.2709242"><ele>169.0</ele><time>2026-03-26T14:08:41.048Z</time></trkpt><trkpt lat="44.9786185" lon="8.2710084"><ele>169.33333333333334</ele><time>2026-03-26T14:08:43.047Z</time></trkpt><trkpt lat="44.9785748" lon="8.2710885"><ele>169.66666666666669</ele><time>2026-03-26T14:08:45.048Z</time></trkpt><trkpt lat="44.9785273" lon="8.2711893"><ele>170.0</ele><time>2026-03-26T14:08:47.048Z</time></trkpt><trkpt lat="44.9784828" lon="8.2712852"><ele>170.33333333333334</ele><time>2026-03-26T14:08:50.048Z</time></trkpt><trkpt lat="44.9784451" lon="8.2713574"><ele>170.66666666666666</ele><time>2026-03-26T14:09:38.048Z</time></trkpt><trkpt lat="44.9785057" lon="8.2712398"><ele>171.0</ele><time>2026-03-26T14:12:41.048Z</time></trkpt><trkpt lat="44.9785072" lon="8.2711384"><ele>171.0</ele><time>2026-03-26T14:14:20.048Z</time></trkpt><trkpt lat="44.9785534" lon="8.2710433"><ele>171.0</ele><time>2026-03-26T14:14:34.048Z</time></trkpt><trkpt lat="44.9786149" lon="8.2709591"><ele>171.0</ele><time>2026-03-26T14:14:37.048Z</time></trkpt><trkpt lat="44.9786741" lon="8.2708656"><ele>171.0</ele><time>2026-03-26T14:14:40.048Z</time></trkpt><trkpt lat="44.9787207" lon="8.2707823"><ele>171.0</ele><time>2026-03-26T14:14:43.048Z</time></trkpt><trkpt lat="44.978781" lon="8.2706447"><ele>171.0</ele><time>2026-03-26T14:14:46.048Z</time></trkpt><trkpt lat="44.9788109" lon="8.2705662"><ele>170.7142857142857</ele><time>2026-03-26T14:14:47.048Z</time></trkpt><trkpt lat="44.9788327" lon="8.2704818"><ele>170.42857142857142</ele><time>2026-03-26T14:14:48.048Z</time></trkpt><trkpt lat="44.9788534" lon="8.2703905"><ele>170.14285714285714</ele><time>2026-03-26T14:14:49.048Z</time></trkpt><trkpt lat="44.9788745" lon="8.2702948"><ele>169.85714285714283</ele><time>2026-03-26T14:14:50.048Z</time></trkpt><trkpt lat="44.9788951" lon="8.2701997"><ele>169.57142857142856</ele><time>2026-03-26T14:14:51.048Z</time></trkpt><trkpt lat="44.9789122" lon="8.2701056"><ele>169.28571428571428</ele><time>2026-03-26T14:14:52.048Z</time></trkpt><trkpt lat="44.9789281" lon="8.2700011"><ele>169.0</ele><time>2026-03-26T14:14:53.048Z</time></trkpt><trkpt lat="44.9789419" lon="8.2698995"><ele>169.0</ele><time>2026-03-26T14:14:54.047Z</time></trkpt><trkpt lat="44.9789539" lon="8.2697819"><ele>169.0</ele><time>2026-03-26T14:14:55.048Z</time></trkpt><trkpt lat="44.9789607" lon="8.2696624"><ele>169.0</ele><time>2026-03-26T14:14:56.048Z</time></trkpt><trkpt lat="44.9789624" lon="8.2695582"><ele>169.0</ele><time>2026-03-26T14:14:57.048Z</time></trkpt><trkpt lat="44.9789612" lon="8.2694492"><ele>169.0</ele><time>2026-03-26T14:14:58.048Z</time></trkpt><trkpt lat="44.9789547" lon="8.2693408"><ele>169.0</ele><time>2026-03-26T14:14:59.049Z</time></trkpt><trkpt lat="44.9789458" lon="8.2692296"><ele>168.5</ele><time>2026-03-26T14:15:00.047Z</time></trkpt><trkpt lat="44.9789356" lon="8.2691304"><ele>168.0</ele><time>2026-03-26T14:15:01.048Z</time></trkpt><trkpt lat="44.9789155" lon="8.2690221"><ele>167.5</ele><time>2026-03-26T14:15:02.048Z</time></trkpt><trkpt lat="44.978894" lon="8.2689077"><ele>167.0</ele><time>2026-03-26T14:15:03.048Z</time></trkpt><trkpt lat="44.9788728" lon="8.2687846"><ele>166.5</ele><time>2026-03-26T14:15:04.048Z</time></trkpt><trkpt lat="44.9788532" lon="8.2686497"><ele>166.0</ele><time>2026-03-26T14:15:05.048Z</time></trkpt><trkpt lat="44.978834" lon="8.2684981"><ele>165.20000000000002</ele><time>2026-03-26T14:15:06.048Z</time></trkpt><trkpt lat="44.9788172" lon="8.2683341"><ele>164.4</ele><time>2026-03-26T14:15:07.048Z</time></trkpt><trkpt lat="44.9788031" lon="8.2681737"><ele>163.6</ele><time>2026-03-26T14:15:08.049Z</time></trkpt><trkpt lat="44.97879" lon="8.268027"><ele>162.8</ele><time>2026-03-26T14:15:09.048Z</time></trkpt><trkpt lat="44.9787789" lon="8.2679008"><ele>162.0</ele><time>2026-03-26T14:15:10.048Z</time></trkpt><trkpt lat="44.978768" lon="8.2677914"><ele>161.5</ele><time>2026-03-26T14:15:11.048Z</time></trkpt><trkpt lat="44.9787559" lon="8.2676699"><ele>161.0</ele><time>2026-03-26T14:15:12.048Z</time></trkpt><trkpt lat="44.9787482" lon="8.2675372"><ele>160.5</ele><time>2026-03-26T14:15:13.048Z</time></trkpt><trkpt lat="44.9787415" lon="8.2674054"><ele>160.0</ele><time>2026-03-26T14:15:14.048Z</time></trkpt><trkpt lat="44.9787349" lon="8.2672977"><ele>159.5</ele><time>2026-03-26T14:15:15.048Z</time></trkpt><trkpt lat="44.9787279" lon="8.2671796"><ele>159.0</ele><time>2026-03-26T14:15:16.048Z</time></trkpt><trkpt lat="44.9787246" lon="8.2670518"><ele>158.8</ele><time>2026-03-26T14:15:17.048Z</time></trkpt><trkpt lat="44.9787288" lon="8.2669315"><ele>158.60000000000002</ele><time>2026-03-26T14:15:18.047Z</time></trkpt><trkpt lat="44.9787446" lon="8.266805"><ele>158.4</ele><time>2026-03-26T14:15:19.048Z</time></trkpt><trkpt lat="44.9787725" lon="8.2666713"><ele>158.20000000000002</ele><time>2026-03-26T14:15:20.048Z</time></trkpt><trkpt lat="44.9788032" lon="8.2665331"><ele>158.0</ele><time>2026-03-26T14:15:21.048Z</time></trkpt><trkpt lat="44.9788321" lon="8.2663926"><ele>158.0</ele><time>2026-03-26T14:15:22.048Z</time></trkpt><trkpt lat="44.9788607" lon="8.266242"><ele>158.0</ele><time>2026-03-26T14:15:23.048Z</time></trkpt><trkpt lat="44.9788874" lon="8.2660848"><ele>158.0</ele><time>2026-03-26T14:15:24.048Z</time></trkpt><trkpt lat="44.9789162" lon="8.2659204"><ele>158.0</ele><time>2026-03-26T14:15:25.047Z</time></trkpt><trkpt lat="44.9789438" lon="8.2657536"><ele>158.0</ele><time>2026-03-26T14:15:26.048Z</time></trkpt><trkpt lat="44.9789708" lon="8.2655981"><ele>158.0</ele><time>2026-03-26T14:15:27.048Z</time></trkpt><trkpt lat="44.9789929" lon="8.2654449"><ele>158.0</ele><time>2026-03-26T14:15:28.048Z</time></trkpt><trkpt lat="44.9790145" lon="8.2652886"><ele>158.0</ele><time>2026-03-26T14:15:29.048Z</time></trkpt><trkpt lat="44.9790339" lon="8.265135"><ele>158.0</ele><time>2026-03-26T14:15:30.048Z</time></trkpt><trkpt lat="44.9790487" lon="8.2649878"><ele>158.0</ele><time>2026-03-26T14:15:31.049Z</time></trkpt><trkpt lat="44.9790604" lon="8.2648394"><ele>158.0</ele><time>2026-03-26T14:15:32.048Z</time></trkpt><trkpt lat="44.9790726" lon="8.2646855"><ele>158.0</ele><time>2026-03-26T14:15:33.049Z</time></trkpt><trkpt lat="44.9790819" lon="8.2645271"><ele>158.0</ele><time>2026-03-26T14:15:34.048Z</time></trkpt><trkpt lat="44.9790896" lon="8.2643643"><ele>158.0</ele><time>2026-03-26T14:15:35.047Z</time></trkpt><trkpt lat="44.9790966" lon="8.2641968"><ele>157.8</ele><time>2026-03-26T14:15:36.048Z</time></trkpt><trkpt lat="44.9791054" lon="8.2640509"><ele>157.60000000000002</ele><time>2026-03-26T14:15:37.048Z</time></trkpt><trkpt lat="44.9791193" lon="8.2638946"><ele>157.39999999999998</ele><time>2026-03-26T14:15:38.047Z</time></trkpt><trkpt lat="44.9791325" lon="8.2637345"><ele>157.2</ele><time>2026-03-26T14:15:39.048Z</time></trkpt><trkpt lat="44.9791516" lon="8.2635937"><ele>157.0</ele><time>2026-03-26T14:15:40.047Z</time></trkpt><trkpt lat="44.9791778" lon="8.2634415"><ele>156.5</ele><time>2026-03-26T14:15:41.048Z</time></trkpt><trkpt lat="44.9792043" lon="8.2632836"><ele>156.0</ele><time>2026-03-26T14:15:42.048Z</time></trkpt><trkpt lat="44.9792301" lon="8.263127"><ele>155.5</ele><time>2026-03-26T14:15:43.048Z</time></trkpt><trkpt lat="44.9792517" lon="8.2629639"><ele>155.0</ele><time>2026-03-26T14:15:44.047Z</time></trkpt><trkpt lat="44.9792701" lon="8.2628008"><ele>155.0</ele><time>2026-03-26T14:15:45.047Z</time></trkpt><trkpt lat="44.9792873" lon="8.2626465"><ele>155.0</ele><time>2026-03-26T14:15:46.048Z</time></trkpt><trkpt lat="44.9793097" lon="8.2624969"><ele>155.0</ele><time>2026-03-26T14:15:47.048Z</time></trkpt><trkpt lat="44.9793335" lon="8.2623461"><ele>155.0</ele><time>2026-03-26T14:15:48.048Z</time></trkpt><trkpt lat="44.9793551" lon="8.2621978"><ele>155.0</ele><time>2026-03-26T14:15:49.049Z</time></trkpt><trkpt lat="44.9793766" lon="8.2620628"><ele>155.0</ele><time>2026-03-26T14:15:50.048Z</time></trkpt><trkpt lat="44.9793945" lon="8.2619417"><ele>155.0</ele><time>2026-03-26T14:15:51.048Z</time></trkpt><trkpt lat="44.9794145" lon="8.2618332"><ele>155.0</ele><time>2026-03-26T14:15:52.048Z</time></trkpt><trkpt lat="44.9794367" lon="8.2617343"><ele>155.0</ele><time>2026-03-26T14:15:53.048Z</time></trkpt><trkpt lat="44.9794533" lon="8.2616275"><ele>155.0</ele><time>2026-03-26T14:15:54.047Z</time></trkpt><trkpt lat="44.97947" lon="8.2615378"><ele>155.0</ele><time>2026-03-26T14:15:55.048Z</time></trkpt><trkpt lat="44.9794919" lon="8.2614166"><ele>154.4</ele><time>2026-03-26T14:15:57.048Z</time></trkpt><trkpt lat="44.9794262" lon="8.2613245"><ele>153.8</ele><time>2026-03-26T14:16:38.048Z</time></trkpt><trkpt lat="44.9793572" lon="8.2612892"><ele>153.2</ele><time>2026-03-26T14:16:39.048Z</time></trkpt><trkpt lat="44.9792661" lon="8.2612243"><ele>152.6</ele><time>2026-03-26T14:16:40.048Z</time></trkpt><trkpt lat="44.9791731" lon="8.2611275"><ele>152.0</ele><time>2026-03-26T14:16:41.048Z</time></trkpt><trkpt lat="44.9790729" lon="8.2610046"><ele>153.0</ele><time>2026-03-26T14:16:42.048Z</time></trkpt><trkpt lat="44.9789731" lon="8.2608615"><ele>154.0</ele><time>2026-03-26T14:16:43.048Z</time></trkpt><trkpt lat="44.9788802" lon="8.2607061"><ele>155.0</ele><time>2026-03-26T14:16:44.048Z</time></trkpt><trkpt lat="44.9787997" lon="8.2605417"><ele>156.0</ele><time>2026-03-26T14:16:45.048Z</time></trkpt><trkpt lat="44.9787323" lon="8.2603736"><ele>156.0</ele><time>2026-03-26T14:16:46.048Z</time></trkpt><trkpt lat="44.9786704" lon="8.26021"><ele>156.0</ele><time>2026-03-26T14:16:47.049Z</time></trkpt><trkpt lat="44.9786084" lon="8.260066"><ele>156.0</ele><time>2026-03-26T14:16:48.048Z</time></trkpt><trkpt lat="44.9785414" lon="8.2599587"><ele>156.0</ele><time>2026-03-26T14:16:49.047Z</time></trkpt><trkpt lat="44.9784574" lon="8.2598669"><ele>156.0</ele><time>2026-03-26T14:16:50.048Z</time></trkpt><trkpt lat="44.9783543" lon="8.2597912"><ele>156.0</ele><time>2026-03-26T14:16:51.048Z</time></trkpt><trkpt lat="44.9782367" lon="8.259725"><ele>156.0</ele><time>2026-03-26T14:16:52.047Z</time></trkpt><trkpt lat="44.9781181" lon="8.2596672"><ele>156.0</ele><time>2026-03-26T14:16:53.048Z</time></trkpt><trkpt lat="44.9780048" lon="8.2596197"><ele>157.6</ele><time>2026-03-26T14:16:54.048Z</time></trkpt><trkpt lat="44.9779079" lon="8.2595982"><ele>159.2</ele><time>2026-03-26T14:16:55.047Z</time></trkpt><trkpt lat="44.9778178" lon="8.2595972"><ele>160.79999999999998</ele><time>2026-03-26T14:16:56.048Z</time></trkpt><trkpt lat="44.9777251" lon="8.2596138"><ele>162.39999999999998</ele><time>2026-03-26T14:16:57.048Z</time></trkpt><trkpt lat="44.9776299" lon="8.2596321"><ele>164.0</ele><time>2026-03-26T14:16:58.049Z</time></trkpt><trkpt lat="44.9775256" lon="8.2596456"><ele>166.5</ele><time>2026-03-26T14:16:59.048Z</time></trkpt><trkpt lat="44.9774123" lon="8.2596572"><ele>169.0</ele><time>2026-03-26T14:17:00.047Z</time></trkpt><trkpt lat="44.9772949" lon="8.2596649"><ele>171.5</ele><time>2026-03-26T14:17:01.048Z</time></trkpt><trkpt lat="44.9771747" lon="8.2596697"><ele>174.0</ele><time>2026-03-26T14:17:02.048Z</time></trkpt><trkpt lat="44.9770399" lon="8.2596633"><ele>174.0</ele><time>2026-03-26T14:17:03.048Z</time></trkpt><trkpt lat="44.9769534" lon="8.2596669"><ele>174.0</ele><time>2026-03-26T14:17:04.048Z</time></trkpt><trkpt lat="44.9768426" lon="8.2596496"><ele>174.0</ele><time>2026-03-26T14:17:05.048Z</time></trkpt><trkpt lat="44.9767386" lon="8.2596403"><ele>174.0</ele><time>2026-03-26T14:17:06.048Z</time></trkpt><trkpt lat="44.9766293" lon="8.2596083"><ele>174.0</ele><time>2026-03-26T14:17:07.048Z</time></trkpt><trkpt lat="44.9765156" lon="8.2595889"><ele>175.6</ele><time>2026-03-26T14:17:08.048Z</time></trkpt><trkpt lat="44.9764016" lon="8.2595679"><ele>177.2</ele><time>2026-03-26T14:17:09.048Z</time></trkpt><trkpt lat="44.9762871" lon="8.2595431"><ele>178.79999999999998</ele><time>2026-03-26T14:17:10.048Z</time></trkpt><trkpt lat="44.9761809" lon="8.2595437"><ele>180.39999999999998</ele><time>2026-03-26T14:17:11.048Z</time></trkpt><trkpt lat="44.9760863" lon="8.2595826"><ele>182.0</ele><time>2026-03-26T14:17:12.048Z</time></trkpt><trkpt lat="44.9759915" lon="8.2596586"><ele>182.0</ele><time>2026-03-26T14:17:13.047Z</time></trkpt><trkpt lat="44.9758866" lon="8.2597452"><ele>182.0</ele><time>2026-03-26T14:17:14.048Z</time></trkpt><trkpt lat="44.9757665" lon="8.2598193"><ele>182.0</ele><time>2026-03-26T14:17:15.048Z</time></trkpt><trkpt lat="44.9756255" lon="8.2598998"><ele>182.0</ele><time>2026-03-26T14:17:16.048Z</time></trkpt><trkpt lat="44.9754758" lon="8.2599846"><ele>184.66666666666666</ele><time>2026-03-26T14:17:17.048Z</time></trkpt><trkpt lat="44.975315" lon="8.2600739"><ele>187.33333333333334</ele><time>2026-03-26T14:17:18.048Z</time></trkpt><trkpt lat="44.9751564" lon="8.2601588"><ele>190.0</ele><time>2026-03-26T14:17:19.048Z</time></trkpt><trkpt lat="44.9750151" lon="8.2602344"><ele>192.0</ele><time>2026-03-26T14:17:20.048Z</time></trkpt><trkpt lat="44.9748911" lon="8.2603001"><ele>194.0</ele><time>2026-03-26T14:17:21.048Z</time></trkpt><trkpt lat="44.9747849" lon="8.2603627"><ele>196.0</ele><time>2026-03-26T14:17:22.048Z</time></trkpt><trkpt lat="44.9746932" lon="8.2604163"><ele>198.0</ele><time>2026-03-26T14:17:23.048Z</time></trkpt><trkpt lat="44.9746152" lon="8.2604664"><ele>200.0</ele><time>2026-03-26T14:17:24.048Z</time></trkpt><trkpt lat="44.9745469" lon="8.2605112"><ele>200.00000000000003</ele><time>2026-03-26T14:17:25.048Z</time></trkpt><trkpt lat="44.9744795" lon="8.260558"><ele>200.0</ele><time>2026-03-26T14:17:26.048Z</time></trkpt><trkpt lat="44.9744107" lon="8.2606075"><ele>200.0</ele><time>2026-03-26T14:17:27.048Z</time></trkpt><trkpt lat="44.9743435" lon="8.2606582"><ele>200.0</ele><time>2026-03-26T14:17:28.048Z</time></trkpt><trkpt lat="44.974278" lon="8.2607021"><ele>200.0</ele><time>2026-03-26T14:17:29.048Z</time></trkpt><trkpt lat="44.9742118" lon="8.260749"><ele>200.00000000000003</ele><time>2026-03-26T14:17:30.047Z</time></trkpt><trkpt lat="44.9741464" lon="8.2607958"><ele>200.0</ele><time>2026-03-26T14:17:31.048Z</time></trkpt><trkpt lat="44.9740799" lon="8.2608435"><ele>202.0</ele><time>2026-03-26T14:17:32.048Z</time></trkpt><trkpt lat="44.974012" lon="8.2608832"><ele>204.0</ele><time>2026-03-26T14:17:33.048Z</time></trkpt><trkpt lat="44.9739333" lon="8.2609035"><ele>206.0</ele><time>2026-03-26T14:17:34.048Z</time></trkpt><trkpt lat="44.9738394" lon="8.2609077"><ele>208.0</ele><time>2026-03-26T14:17:35.048Z</time></trkpt><trkpt lat="44.9737384" lon="8.2609105"><ele>210.0</ele><time>2026-03-26T14:17:36.048Z</time></trkpt><trkpt lat="44.9736259" lon="8.2609189"><ele>210.0</ele><time>2026-03-26T14:17:37.048Z</time></trkpt><trkpt lat="44.9735181" lon="8.2609302"><ele>210.0</ele><time>2026-03-26T14:17:38.048Z</time></trkpt><trkpt lat="44.9734104" lon="8.2609425"><ele>210.0</ele><time>2026-03-26T14:17:39.048Z</time></trkpt><trkpt lat="44.9732981" lon="8.2609483"><ele>210.0</ele><time>2026-03-26T14:17:40.048Z</time></trkpt><trkpt lat="44.9731867" lon="8.2609542"><ele>210.0</ele><time>2026-03-26T14:17:41.047Z</time></trkpt><trkpt lat="44.9730859" lon="8.2609726"><ele>211.16666666666666</ele><time>2026-03-26T14:17:42.048Z</time></trkpt><trkpt lat="44.9730049" lon="8.2610096"><ele>212.33333333333331</ele><time>2026-03-26T14:17:43.048Z</time></trkpt><trkpt lat="44.9729393" lon="8.2610703"><ele>213.5</ele><time>2026-03-26T14:17:44.048Z</time></trkpt><trkpt lat="44.9728935" lon="8.2611421"><ele>214.66666666666666</ele><time>2026-03-26T14:17:45.048Z</time></trkpt><trkpt lat="44.9728474" lon="8.2612277"><ele>215.83333333333331</ele><time>2026-03-26T14:17:47.049Z</time></trkpt><trkpt lat="44.9728739" lon="8.261347"><ele>217.0</ele><time>2026-03-26T14:17:52.048Z</time></trkpt><trkpt lat="44.9729446" lon="8.2614317"><ele>219.25</ele><time>2026-03-26T14:17:53.048Z</time></trkpt><trkpt lat="44.973038" lon="8.2615336"><ele>221.5</ele><time>2026-03-26T14:17:54.048Z</time></trkpt><trkpt lat="44.9731352" lon="8.2616731"><ele>223.75</ele><time>2026-03-26T14:17:55.048Z</time></trkpt><trkpt lat="44.9732311" lon="8.2618538"><ele>226.0</ele><time>2026-03-26T14:17:56.048Z</time></trkpt><trkpt lat="44.9733139" lon="8.2620676"><ele>222.66666666666666</ele><time>2026-03-26T14:17:57.048Z</time></trkpt><trkpt lat="44.973397" lon="8.2622951"><ele>219.33333333333331</ele><time>2026-03-26T14:17:58.048Z</time></trkpt><trkpt lat="44.9734759" lon="8.2625075"><ele>216.0</ele><time>2026-03-26T14:17:59.048Z</time></trkpt><trkpt lat="44.9735522" lon="8.2627178"><ele>216.0</ele><time>2026-03-26T14:18:00.047Z</time></trkpt><trkpt lat="44.9736214" lon="8.2629306"><ele>216.0</ele><time>2026-03-26T14:18:01.047Z</time></trkpt><trkpt lat="44.9736886" lon="8.2631407"><ele>216.0</ele><time>2026-03-26T14:18:02.048Z</time></trkpt><trkpt lat="44.9737515" lon="8.2633518"><ele>219.0</ele><time>2026-03-26T14:18:03.048Z</time></trkpt><trkpt lat="44.9738114" lon="8.2635683"><ele>222.0</ele><time>2026-03-26T14:18:04.048Z</time></trkpt><trkpt lat="44.9738739" lon="8.2637827"><ele>225.0</ele><time>2026-03-26T14:18:05.048Z</time></trkpt><trkpt lat="44.9739321" lon="8.2639836"><ele>227.0</ele><time>2026-03-26T14:18:06.047Z</time></trkpt><trkpt lat="44.9739796" lon="8.2641965"><ele>229.0</ele><time>2026-03-26T14:18:07.048Z</time></trkpt><trkpt lat="44.973999" lon="8.2643985"><ele>231.0</ele><time>2026-03-26T14:18:08.047Z</time></trkpt><trkpt lat="44.9739937" lon="8.2646068"><ele>232.33333333333331</ele><time>2026-03-26T14:18:09.048Z</time></trkpt><trkpt lat="44.9739628" lon="8.2648272"><ele>233.66666666666666</ele><time>2026-03-26T14:18:10.048Z</time></trkpt><trkpt lat="44.973917" lon="8.2650497"><ele>235.0</ele><time>2026-03-26T14:18:11.048Z</time></trkpt><trkpt lat="44.9738568" lon="8.2652674"><ele>235.0</ele><time>2026-03-26T14:18:12.048Z</time></trkpt><trkpt lat="44.9737895" lon="8.2654613"><ele>235.0</ele><time>2026-03-26T14:18:13.048Z</time></trkpt><trkpt lat="44.9737136" lon="8.2656376"><ele>235.0</ele><time>2026-03-26T14:18:14.049Z</time></trkpt><trkpt lat="44.9736291" lon="8.2657904"><ele>235.0</ele><time>2026-03-26T14:18:15.048Z</time></trkpt><trkpt lat="44.9735509" lon="8.2659032"><ele>234.49999999999997</ele><time>2026-03-26T14:18:16.048Z</time></trkpt><trkpt lat="44.9734873" lon="8.2659897"><ele>234.0</ele><time>2026-03-26T14:18:17.048Z</time></trkpt><trkpt lat="44.9734442" lon="8.2660785"><ele>233.5</ele><time>2026-03-26T14:18:18.048Z</time></trkpt><trkpt lat="44.9734302" lon="8.2661768"><ele>233.0</ele><time>2026-03-26T14:18:19.048Z</time></trkpt><trkpt lat="44.9734475" lon="8.2662894"><ele>232.49999999999997</ele><time>2026-03-26T14:18:20.048Z</time></trkpt><trkpt lat="44.9734975" lon="8.2664137"><ele>232.0</ele><time>2026-03-26T14:18:21.048Z</time></trkpt><trkpt lat="44.9735704" lon="8.266548"><ele>230.5</ele><time>2026-03-26T14:18:22.047Z</time></trkpt><trkpt lat="44.9736519" lon="8.266697"><ele>229.0</ele><time>2026-03-26T14:18:23.048Z</time></trkpt><trkpt lat="44.9737355" lon="8.2668682"><ele>227.5</ele><time>2026-03-26T14:18:24.047Z</time></trkpt><trkpt lat="44.9738061" lon="8.2670681"><ele>226.0</ele><time>2026-03-26T14:18:25.048Z</time></trkpt><trkpt lat="44.9738524" lon="8.2673045"><ele>224.0</ele><time>2026-03-26T14:18:26.048Z</time></trkpt><trkpt lat="44.9738797" lon="8.2675616"><ele>222.0</ele><time>2026-03-26T14:18:27.048Z</time></trkpt><trkpt lat="44.9739085" lon="8.2678273"><ele>220.0</ele><time>2026-03-26T14:18:28.047Z</time></trkpt><trkpt lat="44.9739464" lon="8.2680941"><ele>219.66666666666666</ele><time>2026-03-26T14:18:29.048Z</time></trkpt><trkpt lat="44.9739886" lon="8.2683492"><ele>219.33333333333331</ele><time>2026-03-26T14:18:30.047Z</time></trkpt><trkpt lat="44.9740312" lon="8.2686004"><ele>219.0</ele><time>2026-03-26T14:18:31.047Z</time></trkpt><trkpt lat="44.9740743" lon="8.2688476"><ele>219.33333333333331</ele><time>2026-03-26T14:18:32.047Z</time></trkpt><trkpt lat="44.9741216" lon="8.2690897"><ele>219.66666666666666</ele><time>2026-03-26T14:18:33.048Z</time></trkpt><trkpt lat="44.9741722" lon="8.2693293"><ele>220.0</ele><time>2026-03-26T14:18:34.048Z</time></trkpt><trkpt lat="44.9742264" lon="8.2695783"><ele>218.0</ele><time>2026-03-26T14:18:35.048Z</time></trkpt><trkpt lat="44.9743057" lon="8.2697731"><ele>216.0</ele><time>2026-03-26T14:18:36.048Z</time></trkpt><trkpt lat="44.9743848" lon="8.269995"><ele>214.0</ele><time>2026-03-26T14:18:37.049Z</time></trkpt><trkpt lat="44.9744677" lon="8.2702045"><ele>214.0</ele><time>2026-03-26T14:18:38.048Z</time></trkpt><trkpt lat="44.9745505" lon="8.2704039"><ele>214.0</ele><time>2026-03-26T14:18:39.048Z</time></trkpt><trkpt lat="44.9746314" lon="8.2705962"><ele>214.0</ele><time>2026-03-26T14:18:40.048Z</time></trkpt><trkpt lat="44.9747056" lon="8.2707688"><ele>216.5</ele><time>2026-03-26T14:18:41.047Z</time></trkpt><trkpt lat="44.9747786" lon="8.2709428"><ele>219.0</ele><time>2026-03-26T14:18:42.048Z</time></trkpt><trkpt lat="44.9748521" lon="8.2711224"><ele>221.5</ele><time>2026-03-26T14:18:43.049Z</time></trkpt><trkpt lat="44.9749259" lon="8.2712974"><ele>224.0</ele><time>2026-03-26T14:18:44.048Z</time></trkpt><trkpt lat="44.975002" lon="8.2714696"><ele>222.66666666666669</ele><time>2026-03-26T14:18:45.048Z</time></trkpt><trkpt lat="44.9750768" lon="8.2716459"><ele>221.33333333333331</ele><time>2026-03-26T14:18:46.048Z</time></trkpt><trkpt lat="44.9751568" lon="8.2718275"><ele>220.0</ele><time>2026-03-26T14:18:47.048Z</time></trkpt><trkpt lat="44.9752506" lon="8.2720104"><ele>220.0</ele><time>2026-03-26T14:18:48.047Z</time></trkpt><trkpt lat="44.9753589" lon="8.2721948"><ele>220.0</ele><time>2026-03-26T14:18:49.047Z</time></trkpt><trkpt lat="44.9754786" lon="8.2723773"><ele>220.0</ele><time>2026-03-26T14:18:50.048Z</time></trkpt><trkpt lat="44.9756097" lon="8.2725496"><ele>222.33333333333331</ele><time>2026-03-26T14:18:51.048Z</time></trkpt><trkpt lat="44.9757501" lon="8.2727135"><ele>224.66666666666669</ele><time>2026-03-26T14:18:52.048Z</time></trkpt><trkpt lat="44.9759017" lon="8.2728719"><ele>227.0</ele><time>2026-03-26T14:18:53.048Z</time></trkpt><trkpt lat="44.9760616" lon="8.2730348"><ele>225.66666666666669</ele><time>2026-03-26T14:18:54.048Z</time></trkpt><trkpt lat="44.9762112" lon="8.2731778"><ele>224.33333333333331</ele><time>2026-03-26T14:18:55.048Z</time></trkpt><trkpt lat="44.9763471" lon="8.2733081"><ele>223.0</ele><time>2026-03-26T14:18:56.049Z</time></trkpt><trkpt lat="44.9764594" lon="8.2734339"><ele>223.0</ele><time>2026-03-26T14:18:57.048Z</time></trkpt><trkpt lat="44.976547" lon="8.2735663"><ele>223.0</ele><time>2026-03-26T14:18:58.048Z</time></trkpt><trkpt lat="44.9766038" lon="8.2737163"><ele>223.0</ele><time>2026-03-26T14:18:59.048Z</time></trkpt><trkpt lat="44.9766342" lon="8.2738962"><ele>223.0</ele><time>2026-03-26T14:19:00.048Z</time></trkpt><trkpt lat="44.9766447" lon="8.2741057"><ele>224.33333333333331</ele><time>2026-03-26T14:19:01.048Z</time></trkpt><trkpt lat="44.976657" lon="8.2743306"><ele>225.66666666666669</ele><time>2026-03-26T14:19:02.048Z</time></trkpt><trkpt lat="44.9766786" lon="8.2745527"><ele>227.0</ele><time>2026-03-26T14:19:03.048Z</time></trkpt><trkpt lat="44.9767056" lon="8.2747618"><ele>222.25</ele><time>2026-03-26T14:19:04.048Z</time></trkpt><trkpt lat="44.9767377" lon="8.274958"><ele>217.5</ele><time>2026-03-26T14:19:05.048Z</time></trkpt><trkpt lat="44.9767694" lon="8.2751472"><ele>212.75</ele><time>2026-03-26T14:19:06.048Z</time></trkpt><trkpt lat="44.9768009" lon="8.2753521"><ele>208.0</ele><time>2026-03-26T14:19:07.048Z</time></trkpt><trkpt lat="44.9768329" lon="8.2755651"><ele>210.66666666666666</ele><time>2026-03-26T14:19:08.048Z</time></trkpt><trkpt lat="44.9768634" lon="8.2757816"><ele>213.33333333333331</ele><time>2026-03-26T14:19:09.048Z</time></trkpt><trkpt lat="44.9768793" lon="8.2759988"><ele>216.0</ele><time>2026-03-26T14:19:10.048Z</time></trkpt><trkpt lat="44.9768715" lon="8.2762147"><ele>216.0</ele><time>2026-03-26T14:19:11.048Z</time></trkpt><trkpt lat="44.9768349" lon="8.2764293"><ele>216.0</ele><time>2026-03-26T14:19:12.048Z</time></trkpt><trkpt lat="44.9767759" lon="8.2766548"><ele>216.0</ele><time>2026-03-26T14:19:13.047Z</time></trkpt><trkpt lat="44.9767148" lon="8.2768792"><ele>219.0</ele><time>2026-03-26T14:19:14.047Z</time></trkpt><trkpt lat="44.9766626" lon="8.2771072"><ele>222.0</ele><time>2026-03-26T14:19:15.048Z</time></trkpt><trkpt lat="44.9766174" lon="8.277334"><ele>225.0</ele><time>2026-03-26T14:19:16.048Z</time></trkpt><trkpt lat="44.9765889" lon="8.2775496"><ele>225.33333333333331</ele><time>2026-03-26T14:19:17.048Z</time></trkpt><trkpt lat="44.9765801" lon="8.2777596"><ele>225.66666666666666</ele><time>2026-03-26T14:19:18.048Z</time></trkpt><trkpt lat="44.9765813" lon="8.2779736"><ele>226.0</ele><time>2026-03-26T14:19:19.048Z</time></trkpt><trkpt lat="44.9765867" lon="8.2781915"><ele>226.66666666666666</ele><time>2026-03-26T14:19:20.047Z</time></trkpt><trkpt lat="44.9765927" lon="8.2784264"><ele>227.33333333333331</ele><time>2026-03-26T14:19:21.048Z</time></trkpt><trkpt lat="44.976603" lon="8.2786731"><ele>228.0</ele><time>2026-03-26T14:19:22.048Z</time></trkpt><trkpt lat="44.9766102" lon="8.2789324"><ele>227.66666666666669</ele><time>2026-03-26T14:19:23.048Z</time></trkpt><trkpt lat="44.9765982" lon="8.2792037"><ele>227.33333333333334</ele><time>2026-03-26T14:19:24.048Z</time></trkpt><trkpt lat="44.9765662" lon="8.2794841"><ele>227.0</ele><time>2026-03-26T14:19:25.048Z</time></trkpt><trkpt lat="44.9765254" lon="8.2797705"><ele>226.0</ele><time>2026-03-26T14:19:26.048Z</time></trkpt><trkpt lat="44.9764853" lon="8.2800554"><ele>225.0</ele><time>2026-03-26T14:19:27.048Z</time></trkpt><trkpt lat="44.976449" lon="8.2803215"><ele>224.0</ele><time>2026-03-26T14:19:28.048Z</time></trkpt><trkpt lat="44.9764132" lon="8.2805832"><ele>222.66666666666669</ele><time>2026-03-26T14:19:29.048Z</time></trkpt><trkpt lat="44.9763789" lon="8.2808446"><ele>221.33333333333331</ele><time>2026-03-26T14:19:30.048Z</time></trkpt><trkpt lat="44.9763461" lon="8.2810896"><ele>220.0</ele><time>2026-03-26T14:19:31.048Z</time></trkpt><trkpt lat="44.9763142" lon="8.2813171"><ele>220.4</ele><time>2026-03-26T14:19:32.048Z</time></trkpt><trkpt lat="44.9762834" lon="8.2815214"><ele>220.8</ele><time>2026-03-26T14:19:33.048Z</time></trkpt><trkpt lat="44.9762564" lon="8.2816865"><ele>221.2</ele><time>2026-03-26T14:19:34.048Z</time></trkpt><trkpt lat="44.9762334" lon="8.2818118"><ele>221.6</ele><time>2026-03-26T14:19:35.048Z</time></trkpt><trkpt lat="44.9762136" lon="8.2819191"><ele>222.0</ele><time>2026-03-26T14:19:36.048Z</time></trkpt><trkpt lat="44.976202" lon="8.2820514"><ele>222.0</ele><time>2026-03-26T14:19:38.047Z</time></trkpt><trkpt lat="44.9762826" lon="8.2821425"><ele>222.0</ele><time>2026-03-26T14:19:42.047Z</time></trkpt><trkpt lat="44.9763715" lon="8.2821517"><ele>222.0</ele><time>2026-03-26T14:19:43.048Z</time></trkpt><trkpt lat="44.9764765" lon="8.2821532"><ele>222.0</ele><time>2026-03-26T14:19:44.048Z</time></trkpt><trkpt lat="44.9766008" lon="8.2821574"><ele>222.0</ele><time>2026-03-26T14:19:45.048Z</time></trkpt><trkpt lat="44.9767328" lon="8.2821568"><ele>222.75</ele><time>2026-03-26T14:19:46.048Z</time></trkpt><trkpt lat="44.9768731" lon="8.2821528"><ele>223.5</ele><time>2026-03-26T14:19:47.048Z</time></trkpt><trkpt lat="44.9770169" lon="8.2821525"><ele>224.25</ele><time>2026-03-26T14:19:48.047Z</time></trkpt><trkpt lat="44.9771416" lon="8.2821557"><ele>225.0</ele><time>2026-03-26T14:19:49.048Z</time></trkpt><trkpt lat="44.9772657" lon="8.2821573"><ele>225.0</ele><time>2026-03-26T14:19:50.048Z</time></trkpt><trkpt lat="44.9773803" lon="8.2821617"><ele>225.0</ele><time>2026-03-26T14:19:51.048Z</time></trkpt><trkpt lat="44.9774764" lon="8.2821698"><ele>225.0</ele><time>2026-03-26T14:19:52.048Z</time></trkpt><trkpt lat="44.9775445" lon="8.2821788"><ele>225.0</ele><time>2026-03-26T14:19:53.048Z</time></trkpt><trkpt lat="44.9776343" lon="8.2821739"><ele>225.0</ele><time>2026-03-26T14:19:55.048Z</time></trkpt><trkpt lat="44.9775388" lon="8.2821339"><ele>225.0</ele><time>2026-03-26T14:19:59.048Z</time></trkpt><trkpt lat="44.9774513" lon="8.2821398"><ele>225.0</ele><time>2026-03-26T14:20:00.048Z</time></trkpt><trkpt lat="44.977352" lon="8.2821364"><ele>225.0</ele><time>2026-03-26T14:20:01.048Z</time></trkpt><trkpt lat="44.9772414" lon="8.2821344"><ele>225.0</ele><time>2026-03-26T14:20:02.048Z</time></trkpt><trkpt lat="44.9771452" lon="8.2821328"><ele>225.0</ele><time>2026-03-26T14:20:03.048Z</time></trkpt><trkpt lat="44.9770548" lon="8.2821307"><ele>225.0</ele><time>2026-03-26T14:20:04.048Z</time></trkpt><trkpt lat="44.9769677" lon="8.2821297"><ele>225.0</ele><time>2026-03-26T14:20:05.048Z</time></trkpt><trkpt lat="44.976897" lon="8.2821277"><ele>225.0</ele><time>2026-03-26T14:20:06.048Z</time></trkpt><trkpt lat="44.9768005" lon="8.2821235"><ele>225.0</ele><time>2026-03-26T14:20:08.048Z</time></trkpt><trkpt lat="44.9767963" lon="8.282213"><ele>225.0</ele><time>2026-03-26T14:20:11.048Z</time></trkpt><trkpt lat="44.9769277" lon="8.2822488"><ele>224.6</ele><time>2026-03-26T14:20:13.047Z</time></trkpt><trkpt lat="44.9770082" lon="8.2822824"><ele>224.2</ele><time>2026-03-26T14:20:14.048Z</time></trkpt><trkpt lat="44.977084" lon="8.2823466"><ele>223.8</ele><time>2026-03-26T14:20:15.048Z</time></trkpt><trkpt lat="44.9771435" lon="8.2824493"><ele>223.4</ele><time>2026-03-26T14:20:16.048Z</time></trkpt><trkpt lat="44.9771868" lon="8.2825827"><ele>223.0</ele><time>2026-03-26T14:20:17.048Z</time></trkpt><trkpt lat="44.9772231" lon="8.2827264"><ele>223.0</ele><time>2026-03-26T14:20:18.048Z</time></trkpt><trkpt lat="44.977258" lon="8.2828721"><ele>223.0</ele><time>2026-03-26T14:20:19.048Z</time></trkpt><trkpt lat="44.9772863" lon="8.2830163"><ele>223.0</ele><time>2026-03-26T14:20:20.047Z</time></trkpt><trkpt lat="44.9773005" lon="8.2831725"><ele>223.0</ele><time>2026-03-26T14:20:21.048Z</time></trkpt><trkpt lat="44.9773021" lon="8.2833458"><ele>223.0</ele><time>2026-03-26T14:20:22.047Z</time></trkpt><trkpt lat="44.9772871" lon="8.2835364"><ele>221.75</ele><time>2026-03-26T14:20:23.048Z</time></trkpt><trkpt lat="44.9772577" lon="8.2837326"><ele>220.5</ele><time>2026-03-26T14:20:24.048Z</time></trkpt><trkpt lat="44.9772317" lon="8.2839248"><ele>219.25</ele><time>2026-03-26T14:20:25.048Z</time></trkpt><trkpt lat="44.9772111" lon="8.2841068"><ele>218.0</ele><time>2026-03-26T14:20:26.048Z</time></trkpt><trkpt lat="44.977196" lon="8.2842736"><ele>217.00000000000003</ele><time>2026-03-26T14:20:27.048Z</time></trkpt><trkpt lat="44.9771884" lon="8.2844263"><ele>216.0</ele><time>2026-03-26T14:20:28.048Z</time></trkpt><trkpt lat="44.9771926" lon="8.2845614"><ele>215.0</ele><time>2026-03-26T14:20:29.048Z</time></trkpt><trkpt lat="44.9772142" lon="8.2846883"><ele>214.0</ele><time>2026-03-26T14:20:30.047Z</time></trkpt><trkpt lat="44.9772458" lon="8.2847957"><ele>213.00000000000003</ele><time>2026-03-26T14:20:31.048Z</time></trkpt><trkpt lat="44.9772753" lon="8.284886"><ele>212.0</ele><time>2026-03-26T14:20:32.048Z</time></trkpt><trkpt lat="44.9773066" lon="8.2850454"><ele>211.8</ele><time>2026-03-26T14:20:34.048Z</time></trkpt><trkpt lat="44.9773547" lon="8.2851531"><ele>211.6</ele><time>2026-03-26T14:20:36.048Z</time></trkpt><trkpt lat="44.9774472" lon="8.2852551"><ele>211.4</ele><time>2026-03-26T14:20:38.048Z</time></trkpt><trkpt lat="44.9775102" lon="8.2853057"><ele>211.20000000000002</ele><time>2026-03-26T14:20:39.049Z</time></trkpt><trkpt lat="44.9775839" lon="8.2853599"><ele>211.0</ele><time>2026-03-26T14:20:40.048Z</time></trkpt><trkpt lat="44.9776644" lon="8.2854184"><ele>211.0</ele><time>2026-03-26T14:20:41.047Z</time></trkpt><trkpt lat="44.9777514" lon="8.285476"><ele>211.0</ele><time>2026-03-26T14:20:42.047Z</time></trkpt><trkpt lat="44.9778387" lon="8.285529"><ele>211.0</ele><time>2026-03-26T14:20:43.047Z</time></trkpt><trkpt lat="44.9779237" lon="8.2855854"><ele>211.0</ele><time>2026-03-26T14:20:44.048Z</time></trkpt><trkpt lat="44.9780061" lon="8.2856381"><ele>211.0</ele><time>2026-03-26T14:20:45.048Z</time></trkpt><trkpt lat="44.9780807" lon="8.2856852"><ele>211.16666666666666</ele><time>2026-03-26T14:20:46.048Z</time></trkpt><trkpt lat="44.9781504" lon="8.2857432"><ele>211.33333333333331</ele><time>2026-03-26T14:20:47.048Z</time></trkpt><trkpt lat="44.9782198" lon="8.2858032"><ele>211.5</ele><time>2026-03-26T14:20:48.048Z</time></trkpt><trkpt lat="44.9782879" lon="8.2858676"><ele>211.66666666666669</ele><time>2026-03-26T14:20:49.049Z</time></trkpt><trkpt lat="44.978353" lon="8.2859457"><ele>211.83333333333334</ele><time>2026-03-26T14:20:50.048Z</time></trkpt><trkpt lat="44.9784143" lon="8.2860364"><ele>212.0</ele><time>2026-03-26T14:20:51.048Z</time></trkpt><trkpt lat="44.9784736" lon="8.2861369"><ele>212.0</ele><time>2026-03-26T14:20:52.048Z</time></trkpt><trkpt lat="44.9785229" lon="8.2862232"><ele>212.0</ele><time>2026-03-26T14:20:53.048Z</time></trkpt><trkpt lat="44.9785615" lon="8.2862995"><ele>212.0</ele><time>2026-03-26T14:20:54.048Z</time></trkpt><trkpt lat="44.9785905" lon="8.2864474"><ele>212.0</ele><time>2026-03-26T14:20:56.048Z</time></trkpt><trkpt lat="44.978564" lon="8.2865851"><ele>212.0</ele><time>2026-03-26T14:20:58.048Z</time></trkpt><trkpt lat="44.9785322" lon="8.2867194"><ele>212.0</ele><time>2026-03-26T14:21:00.047Z</time></trkpt><trkpt lat="44.9784916" lon="8.2868641"><ele>212.0</ele><time>2026-03-26T14:21:02.048Z</time></trkpt><trkpt lat="44.9784325" lon="8.286975"><ele>212.0</ele><time>2026-03-26T14:21:04.048Z</time></trkpt><trkpt lat="44.9783588" lon="8.2870481"><ele>212.0</ele><time>2026-03-26T14:21:38.048Z</time></trkpt><trkpt lat="44.9782982" lon="8.2870873"><ele>212.0</ele><time>2026-03-26T14:21:39.048Z</time></trkpt><trkpt lat="44.9781585" lon="8.2871551"><ele>211.66666666666669</ele><time>2026-03-26T14:21:41.048Z</time></trkpt><trkpt lat="44.9780768" lon="8.2871937"><ele>211.33333333333334</ele><time>2026-03-26T14:21:42.048Z</time></trkpt><trkpt lat="44.9779942" lon="8.2872346"><ele>211.0</ele><time>2026-03-26T14:21:43.048Z</time></trkpt><trkpt lat="44.9779202" lon="8.2872722"><ele>210.66666666666669</ele><time>2026-03-26T14:21:44.048Z</time></trkpt><trkpt lat="44.9778401" lon="8.2873109"><ele>210.33333333333334</ele><time>2026-03-26T14:21:45.048Z</time></trkpt><trkpt lat="44.977757" lon="8.2873483"><ele>210.0</ele><time>2026-03-26T14:21:46.047Z</time></trkpt><trkpt lat="44.9776782" lon="8.2873769"><ele>210.0</ele><time>2026-03-26T14:21:47.048Z</time></trkpt><trkpt lat="44.9775926" lon="8.2873947"><ele>210.0</ele><time>2026-03-26T14:21:48.048Z</time></trkpt><trkpt lat="44.9775115" lon="8.2874065"><ele>210.0</ele><time>2026-03-26T14:21:49.048Z</time></trkpt><trkpt lat="44.9774378" lon="8.2874135"><ele>210.0</ele><time>2026-03-26T14:21:50.048Z</time></trkpt><trkpt lat="44.9773653" lon="8.2874253"><ele>210.0</ele><time>2026-03-26T14:21:51.048Z</time></trkpt><trkpt lat="44.9772926" lon="8.2874419"><ele>210.0</ele><time>2026-03-26T14:21:52.048Z</time></trkpt><trkpt lat="44.9772175" lon="8.2874618"><ele>209.83333333333334</ele><time>2026-03-26T14:21:53.048Z</time></trkpt><trkpt lat="44.9771413" lon="8.2874863"><ele>209.66666666666669</ele><time>2026-03-26T14:21:54.048Z</time></trkpt><trkpt lat="44.9770692" lon="8.2875166"><ele>209.5</ele><time>2026-03-26T14:21:55.047Z</time></trkpt><trkpt lat="44.9770072" lon="8.2875462"><ele>209.33333333333334</ele><time>2026-03-26T14:21:56.048Z</time></trkpt><trkpt lat="44.9769039" lon="8.2876255"><ele>209.16666666666669</ele><time>2026-03-26T14:21:58.048Z</time></trkpt><trkpt lat="44.9768554" lon="8.2876845"><ele>209.0</ele><time>2026-03-26T14:21:59.047Z</time></trkpt><trkpt lat="44.9768081" lon="8.2877498"><ele>209.0</ele><time>2026-03-26T14:22:00.048Z</time></trkpt><trkpt lat="44.9767544" lon="8.2878178"><ele>209.0</ele><time>2026-03-26T14:22:01.049Z</time></trkpt><trkpt lat="44.9766945" lon="8.2878847"><ele>209.0</ele><time>2026-03-26T14:22:02.048Z</time></trkpt><trkpt lat="44.9766363" lon="8.2879294"><ele>209.0</ele><time>2026-03-26T14:22:03.048Z</time></trkpt><trkpt lat="44.9765731" lon="8.2879682"><ele>209.0</ele><time>2026-03-26T14:22:04.048Z</time></trkpt><trkpt lat="44.9765109" lon="8.2880067"><ele>209.0</ele><time>2026-03-26T14:22:05.048Z</time></trkpt><trkpt lat="44.9764533" lon="8.2880572"><ele>209.0</ele><time>2026-03-26T14:22:06.049Z</time></trkpt><trkpt lat="44.9763744" lon="8.2881753"><ele>209.85714285714286</ele><time>2026-03-26T14:22:08.048Z</time></trkpt><trkpt lat="44.9763358" lon="8.2882468"><ele>210.71428571428572</ele><time>2026-03-26T14:22:09.048Z</time></trkpt><trkpt lat="44.9762906" lon="8.2883284"><ele>211.57142857142856</ele><time>2026-03-26T14:22:10.048Z</time></trkpt><trkpt lat="44.9762417" lon="8.2883955"><ele>212.42857142857144</ele><time>2026-03-26T14:22:11.048Z</time></trkpt><trkpt lat="44.9761807" lon="8.2884525"><ele>213.2857142857143</ele><time>2026-03-26T14:22:12.048Z</time></trkpt><trkpt lat="44.9761136" lon="8.2884884"><ele>214.14285714285714</ele><time>2026-03-26T14:22:13.048Z</time></trkpt><trkpt lat="44.976038" lon="8.2885193"><ele>215.0</ele><time>2026-03-26T14:22:14.048Z</time></trkpt><trkpt lat="44.9759549" lon="8.2885531"><ele>215.0</ele><time>2026-03-26T14:22:15.048Z</time></trkpt><trkpt lat="44.9758619" lon="8.2885865"><ele>215.0</ele><time>2026-03-26T14:22:16.048Z</time></trkpt><trkpt lat="44.9757652" lon="8.2886216"><ele>215.0</ele><time>2026-03-26T14:22:17.048Z</time></trkpt><trkpt lat="44.9756684" lon="8.2886607"><ele>215.0</ele><time>2026-03-26T14:22:18.048Z</time></trkpt><trkpt lat="44.9755715" lon="8.2886974"><ele>215.0</ele><time>2026-03-26T14:22:19.047Z</time></trkpt><trkpt lat="44.9754723" lon="8.2887231"><ele>215.2</ele><time>2026-03-26T14:22:20.048Z</time></trkpt><trkpt lat="44.975375" lon="8.2887436"><ele>215.4</ele><time>2026-03-26T14:22:21.048Z</time></trkpt><trkpt lat="44.9752734" lon="8.2887643"><ele>215.60000000000002</ele><time>2026-03-26T14:22:22.048Z</time></trkpt><trkpt lat="44.9751654" lon="8.2887917"><ele>215.8</ele><time>2026-03-26T14:22:23.047Z</time></trkpt><trkpt lat="44.9750606" lon="8.2888197"><ele>216.0</ele><time>2026-03-26T14:22:24.048Z</time></trkpt><trkpt lat="44.9749576" lon="8.2888477"><ele>217.4</ele><time>2026-03-26T14:22:25.048Z</time></trkpt><trkpt lat="44.9748492" lon="8.2888774"><ele>218.8</ele><time>2026-03-26T14:22:26.048Z</time></trkpt><trkpt lat="44.9747455" lon="8.2889031"><ele>220.20000000000002</ele><time>2026-03-26T14:22:27.048Z</time></trkpt><trkpt lat="44.974647" lon="8.2889201"><ele>221.60000000000002</ele><time>2026-03-26T14:22:28.048Z</time></trkpt><trkpt lat="44.9745755" lon="8.2889285"><ele>223.0</ele><time>2026-03-26T14:22:29.048Z</time></trkpt><trkpt lat="44.9744583" lon="8.2889338"><ele>223.0</ele><time>2026-03-26T14:22:31.047Z</time></trkpt><trkpt lat="44.9743916" lon="8.2889308"><ele>223.0</ele><time>2026-03-26T14:22:33.048Z</time></trkpt><trkpt lat="44.9742904" lon="8.2889184"><ele>223.0</ele><time>2026-03-26T14:22:35.048Z</time></trkpt><trkpt lat="44.9741864" lon="8.2889079"><ele>223.0</ele><time>2026-03-26T14:22:37.048Z</time></trkpt><trkpt lat="44.9740948" lon="8.288878"><ele>223.0</ele><time>2026-03-26T14:22:39.048Z</time></trkpt><trkpt lat="44.9739758" lon="8.2888092"><ele>223.66666666666666</ele><time>2026-03-26T14:22:41.048Z</time></trkpt><trkpt lat="44.9739168" lon="8.2887732"><ele>224.33333333333331</ele><time>2026-03-26T14:22:42.048Z</time></trkpt><trkpt lat="44.973822" lon="8.2887273"><ele>225.0</ele><time>2026-03-26T14:22:44.047Z</time></trkpt><trkpt lat="44.9737551" lon="8.2887017"><ele>225.66666666666669</ele><time>2026-03-26T14:22:47.047Z</time></trkpt><trkpt lat="44.9736913" lon="8.2886608"><ele>226.33333333333334</ele><time>2026-03-26T14:24:19.048Z</time></trkpt><trkpt lat="44.9736225" lon="8.2886743"><ele>227.0</ele><time>2026-03-26T14:24:23.048Z</time></trkpt><trkpt lat="44.973712" lon="8.2886986"><ele>227.00000000000003</ele><time>2026-03-26T14:24:31.048Z</time></trkpt><trkpt lat="44.9738198" lon="8.2887277"><ele>227.0</ele><time>2026-03-26T14:24:33.048Z</time></trkpt><trkpt lat="44.9738854" lon="8.2887497"><ele>227.0</ele><time>2026-03-26T14:24:34.048Z</time></trkpt><trkpt lat="44.9739511" lon="8.2887803"><ele>227.0</ele><time>2026-03-26T14:24:35.048Z</time></trkpt><trkpt lat="44.9740154" lon="8.2888199"><ele>227.00000000000003</ele><time>2026-03-26T14:24:36.048Z</time></trkpt><trkpt lat="44.9740799" lon="8.288859"><ele>227.0</ele><time>2026-03-26T14:24:37.048Z</time></trkpt><trkpt lat="44.974192" lon="8.2889014"><ele>226.33333333333334</ele><time>2026-03-26T14:24:39.048Z</time></trkpt><trkpt lat="44.9742623" lon="8.2889119"><ele>225.66666666666669</ele><time>2026-03-26T14:24:40.048Z</time></trkpt><trkpt lat="44.9743348" lon="8.2889307"><ele>225.0</ele><time>2026-03-26T14:24:41.048Z</time></trkpt><trkpt lat="44.974406" lon="8.2889666"><ele>224.33333333333331</ele><time>2026-03-26T14:24:42.048Z</time></trkpt><trkpt lat="44.9744766" lon="8.289009"><ele>223.66666666666666</ele><time>2026-03-26T14:24:43.048Z</time></trkpt><trkpt lat="44.9745511" lon="8.2890585"><ele>223.0</ele><time>2026-03-26T14:24:44.047Z</time></trkpt><trkpt lat="44.9746293" lon="8.2891156"><ele>223.60000000000002</ele><time>2026-03-26T14:24:45.048Z</time></trkpt><trkpt lat="44.9747108" lon="8.2891809"><ele>224.20000000000002</ele><time>2026-03-26T14:24:46.048Z</time></trkpt><trkpt lat="44.9747908" lon="8.2892463"><ele>224.8</ele><time>2026-03-26T14:24:47.048Z</time></trkpt><trkpt lat="44.9748663" lon="8.2893084"><ele>225.4</ele><time>2026-03-26T14:24:48.048Z</time></trkpt><trkpt lat="44.9749456" lon="8.2893725"><ele>226.0</ele><time>2026-03-26T14:24:49.048Z</time></trkpt><trkpt lat="44.9750276" lon="8.2894405"><ele>225.99999999999997</ele><time>2026-03-26T14:24:50.048Z</time></trkpt><trkpt lat="44.9751058" lon="8.2895011"><ele>226.0</ele><time>2026-03-26T14:24:51.049Z</time></trkpt><trkpt lat="44.9751711" lon="8.289555"><ele>226.0</ele><time>2026-03-26T14:24:52.048Z</time></trkpt><trkpt lat="44.9752339" lon="8.2896044"><ele>226.0</ele><time>2026-03-26T14:24:53.048Z</time></trkpt><trkpt lat="44.9752992" lon="8.289655"><ele>225.99999999999997</ele><time>2026-03-26T14:24:54.047Z</time></trkpt><trkpt lat="44.9753686" lon="8.2897123"><ele>226.0</ele><time>2026-03-26T14:24:55.049Z</time></trkpt><trkpt lat="44.9754439" lon="8.2897736"><ele>227.49999999999997</ele><time>2026-03-26T14:24:56.048Z</time></trkpt><trkpt lat="44.9755241" lon="8.2898366"><ele>229.0</ele><time>2026-03-26T14:24:57.048Z</time></trkpt><trkpt lat="44.9756045" lon="8.2899002"><ele>230.5</ele><time>2026-03-26T14:24:58.048Z</time></trkpt><trkpt lat="44.9756816" lon="8.2899599"><ele>232.0</ele><time>2026-03-26T14:24:59.048Z</time></trkpt><trkpt lat="44.9757606" lon="8.2900177"><ele>233.49999999999997</ele><time>2026-03-26T14:25:00.048Z</time></trkpt><trkpt lat="44.9758381" lon="8.2900769"><ele>235.0</ele><time>2026-03-26T14:25:01.048Z</time></trkpt><trkpt lat="44.9759177" lon="8.2901374"><ele>234.99999999999997</ele><time>2026-03-26T14:25:02.048Z</time></trkpt><trkpt lat="44.9759923" lon="8.2901971"><ele>235.0</ele><time>2026-03-26T14:25:03.048Z</time></trkpt><trkpt lat="44.9760674" lon="8.290255"><ele>235.0</ele><time>2026-03-26T14:25:04.048Z</time></trkpt><trkpt lat="44.9761377" lon="8.2903086"><ele>235.0</ele><time>2026-03-26T14:25:05.048Z</time></trkpt><trkpt lat="44.9762088" lon="8.2903647"><ele>234.99999999999997</ele><time>2026-03-26T14:25:06.048Z</time></trkpt><trkpt lat="44.9762724" lon="8.2904201"><ele>235.0</ele><time>2026-03-26T14:25:07.048Z</time></trkpt><trkpt lat="44.9763654" lon="8.2905002"><ele>234.99999999999997</ele><time>2026-03-26T14:25:09.048Z</time></trkpt><trkpt lat="44.9764206" lon="8.2905487"><ele>235.0</ele><time>2026-03-26T14:25:11.048Z</time></trkpt><trkpt lat="44.9764958" lon="8.2906034"><ele>235.0</ele><time>2026-03-26T14:25:36.048Z</time></trkpt><trkpt lat="44.9765635" lon="8.2905958"><ele>235.0</ele><time>2026-03-26T14:25:37.048Z</time></trkpt><trkpt lat="44.9766523" lon="8.2905706"><ele>234.99999999999997</ele><time>2026-03-26T14:25:38.048Z</time></trkpt><trkpt lat="44.9767699" lon="8.2905484"><ele>235.0</ele><time>2026-03-26T14:25:39.048Z</time></trkpt><trkpt lat="44.9768909" lon="8.2905408"><ele>235.0</ele><time>2026-03-26T14:25:40.048Z</time></trkpt><trkpt lat="44.9770185" lon="8.2905406"><ele>235.0</ele><time>2026-03-26T14:25:41.048Z</time></trkpt><trkpt lat="44.9771512" lon="8.2905462"><ele>235.0</ele><time>2026-03-26T14:25:42.048Z</time></trkpt><trkpt lat="44.9772878" lon="8.2905622"><ele>235.0</ele><time>2026-03-26T14:25:43.048Z</time></trkpt><trkpt lat="44.9774274" lon="8.2906019"><ele>236.0</ele><time>2026-03-26T14:25:44.048Z</time></trkpt><trkpt lat="44.9775581" lon="8.2906464"><ele>237.0</ele><time>2026-03-26T14:25:45.048Z</time></trkpt><trkpt lat="44.9776768" lon="8.2906887"><ele>238.0</ele><time>2026-03-26T14:25:46.047Z</time></trkpt><trkpt lat="44.9777863" lon="8.2907252"><ele>239.0</ele><time>2026-03-26T14:25:47.048Z</time></trkpt><trkpt lat="44.9778863" lon="8.2907493"><ele>239.00000000000003</ele><time>2026-03-26T14:25:48.048Z</time></trkpt><trkpt lat="44.9779713" lon="8.2907709"><ele>239.0</ele><time>2026-03-26T14:25:49.048Z</time></trkpt><trkpt lat="44.9780428" lon="8.2907864"><ele>239.0</ele><time>2026-03-26T14:25:50.049Z</time></trkpt><trkpt lat="44.978152" lon="8.2907903"><ele>239.0</ele><time>2026-03-26T14:25:52.048Z</time></trkpt><trkpt lat="44.978227" lon="8.2908225"><ele>239.00000000000003</ele><time>2026-03-26T14:25:55.048Z</time></trkpt><trkpt lat="44.9782344" lon="8.2909476"><ele>239.0</ele><time>2026-03-26T14:25:58.048Z</time></trkpt><trkpt lat="44.9782152" lon="8.2910576"><ele>239.00000000000003</ele><time>2026-03-26T14:26:00.047Z</time></trkpt><trkpt lat="44.9782026" lon="8.2911989"><ele>239.0</ele><time>2026-03-26T14:26:02.048Z</time></trkpt><trkpt lat="44.9782068" lon="8.2912916"><ele>239.0</ele><time>2026-03-26T14:26:03.048Z</time></trkpt><trkpt lat="44.9782216" lon="8.2913901"><ele>239.0</ele><time>2026-03-26T14:26:04.048Z</time></trkpt><trkpt lat="44.9782426" lon="8.2914903"><ele>239.00000000000003</ele><time>2026-03-26T14:26:05.049Z</time></trkpt><trkpt lat="44.9782719" lon="8.2915837"><ele>239.0</ele><time>2026-03-26T14:26:06.048Z</time></trkpt><trkpt lat="44.9783112" lon="8.2916784"><ele>240.2</ele><time>2026-03-26T14:26:07.048Z</time></trkpt><trkpt lat="44.9783621" lon="8.2917733"><ele>241.39999999999998</ele><time>2026-03-26T14:26:08.048Z</time></trkpt><trkpt lat="44.9784205" lon="8.2918744"><ele>242.6</ele><time>2026-03-26T14:26:09.048Z</time></trkpt><trkpt lat="44.9784851" lon="8.2919816"><ele>243.8</ele><time>2026-03-26T14:26:10.048Z</time></trkpt><trkpt lat="44.9785531" lon="8.2920871"><ele>245.0</ele><time>2026-03-26T14:26:11.048Z</time></trkpt><trkpt lat="44.9786297" lon="8.2921941"><ele>243.0</ele><time>2026-03-26T14:26:12.048Z</time></trkpt><trkpt lat="44.9787073" lon="8.2923035"><ele>241.0</ele><time>2026-03-26T14:26:13.048Z</time></trkpt><trkpt lat="44.9787908" lon="8.2924092"><ele>239.0</ele><time>2026-03-26T14:26:14.047Z</time></trkpt><trkpt lat="44.9788789" lon="8.2925152"><ele>237.0</ele><time>2026-03-26T14:26:15.048Z</time></trkpt><trkpt lat="44.9789639" lon="8.2926189"><ele>237.0</ele><time>2026-03-26T14:26:16.048Z</time></trkpt><trkpt lat="44.9790469" lon="8.2927198"><ele>237.0</ele><time>2026-03-26T14:26:17.047Z</time></trkpt><trkpt lat="44.979127" lon="8.2928166"><ele>237.0</ele><time>2026-03-26T14:26:18.048Z</time></trkpt><trkpt lat="44.9792042" lon="8.2929156"><ele>237.0</ele><time>2026-03-26T14:26:19.048Z</time></trkpt><trkpt lat="44.9792785" lon="8.2930185"><ele>237.0</ele><time>2026-03-26T14:26:20.048Z</time></trkpt><trkpt lat="44.9793471" lon="8.293117"><ele>236.5</ele><time>2026-03-26T14:26:21.048Z</time></trkpt><trkpt lat="44.9794033" lon="8.2931913"><ele>236.0</ele><time>2026-03-26T14:26:22.047Z</time></trkpt><trkpt lat="44.9794557" lon="8.2932611"><ele>235.5</ele><time>2026-03-26T14:26:23.048Z</time></trkpt><trkpt lat="44.9795015" lon="8.293327"><ele>235.0</ele><time>2026-03-26T14:26:24.047Z</time></trkpt><trkpt lat="44.9795749" lon="8.2934183"><ele>234.5</ele><time>2026-03-26T14:26:26.048Z</time></trkpt><trkpt lat="44.9796476" lon="8.2934945"><ele>234.0</ele><time>2026-03-26T14:26:29.048Z</time></trkpt><trkpt lat="44.979722" lon="8.2935566"><ele>234.0</ele><time>2026-03-26T14:26:32.048Z</time></trkpt><trkpt lat="44.9798083" lon="8.2936263"><ele>234.0</ele><time>2026-03-26T14:26:35.048Z</time></trkpt><trkpt lat="44.9798731" lon="8.2936758"><ele>234.0</ele><time>2026-03-26T14:26:37.048Z</time></trkpt><trkpt lat="44.9799393" lon="8.2937212"><ele>234.0</ele><time>2026-03-26T14:26:39.048Z</time></trkpt><trkpt lat="44.9800233" lon="8.2937523"><ele>234.0</ele><time>2026-03-26T14:26:41.048Z</time></trkpt><trkpt lat="44.9801355" lon="8.2937639"><ele>234.0</ele><time>2026-03-26T14:26:43.048Z</time></trkpt><trkpt lat="44.980239" lon="8.293742"><ele>233.33333333333334</ele><time>2026-03-26T14:26:45.048Z</time></trkpt><trkpt lat="44.9803003" lon="8.2937139"><ele>232.66666666666669</ele><time>2026-03-26T14:26:46.048Z</time></trkpt><trkpt lat="44.9803632" lon="8.2936767"><ele>232.0</ele><time>2026-03-26T14:26:47.049Z</time></trkpt><trkpt lat="44.9804214" lon="8.2936382"><ele>231.33333333333334</ele><time>2026-03-26T14:26:48.048Z</time></trkpt><trkpt lat="44.9805312" lon="8.2935802"><ele>230.66666666666669</ele><time>2026-03-26T14:26:50.048Z</time></trkpt><trkpt lat="44.9806314" lon="8.2935649"><ele>230.0</ele><time>2026-03-26T14:26:52.048Z</time></trkpt><trkpt lat="44.9807379" lon="8.2935925"><ele>230.00000000000003</ele><time>2026-03-26T14:26:54.048Z</time></trkpt><trkpt lat="44.9808275" lon="8.2936344"><ele>230.0</ele><time>2026-03-26T14:26:56.048Z</time></trkpt><trkpt lat="44.9809109" lon="8.2936874"><ele>230.0</ele><time>2026-03-26T14:26:58.047Z</time></trkpt><trkpt lat="44.9809845" lon="8.2937259"><ele>230.0</ele><time>2026-03-26T14:27:00.047Z</time></trkpt><trkpt lat="44.9810468" lon="8.2937628"><ele>230.00000000000003</ele><time>2026-03-26T14:27:03.048Z</time></trkpt><trkpt lat="44.9810784" lon="8.2938675"><ele>230.0</ele><time>2026-03-26T14:27:07.048Z</time></trkpt><trkpt lat="44.9811074" lon="8.2939853"><ele>227.00000000000003</ele><time>2026-03-26T14:27:10.048Z</time></trkpt><trkpt lat="44.9811395" lon="8.2940964"><ele>224.0</ele><time>2026-03-26T14:27:13.048Z</time></trkpt><trkpt lat="44.9811061" lon="8.2942117"><ele>221.0</ele><time>2026-03-26T14:27:16.048Z</time></trkpt><trkpt lat="44.9810838" lon="8.294309"><ele>218.0</ele><time>2026-03-26T14:27:26.048Z</time></trkpt><trkpt lat="44.9811092" lon="8.294419"><ele>215.00000000000003</ele><time>2026-03-26T14:27:30.048Z</time></trkpt><trkpt lat="44.9811327" lon="8.2945035"><ele>212.0</ele><time>2026-03-26T14:27:32.048Z</time></trkpt><trkpt lat="44.9811493" lon="8.2945987"><ele>212.00000000000003</ele><time>2026-03-26T14:27:34.048Z</time></trkpt><trkpt lat="44.9811583" lon="8.294727"><ele>212.0</ele><time>2026-03-26T14:27:37.048Z</time></trkpt><trkpt lat="44.9811679" lon="8.2948176"><ele>212.0</ele><time>2026-03-26T14:27:39.048Z</time></trkpt><trkpt lat="44.9811703" lon="8.2949125"><ele>212.0</ele><time>2026-03-26T14:27:41.048Z</time></trkpt><trkpt lat="44.9811818" lon="8.2950213"><ele>212.00000000000003</ele><time>2026-03-26T14:27:43.048Z</time></trkpt><trkpt lat="44.9811941" lon="8.2951377"><ele>212.0</ele><time>2026-03-26T14:27:45.048Z</time></trkpt><trkpt lat="44.9812074" lon="8.2952321"><ele>210.33333333333334</ele><time>2026-03-26T14:27:47.047Z</time></trkpt><trkpt lat="44.9812111" lon="8.2953267"><ele>208.66666666666669</ele><time>2026-03-26T14:27:49.048Z</time></trkpt><trkpt lat="44.9812193" lon="8.2954452"><ele>207.0</ele><time>2026-03-26T14:27:51.048Z</time></trkpt><trkpt lat="44.9812305" lon="8.2955622"><ele>205.33333333333331</ele><time>2026-03-26T14:27:53.047Z</time></trkpt><trkpt lat="44.9812431" lon="8.295668"><ele>203.66666666666666</ele><time>2026-03-26T14:27:55.048Z</time></trkpt><trkpt lat="44.9812558" lon="8.2957589"><ele>202.0</ele><time>2026-03-26T14:27:57.048Z</time></trkpt><trkpt lat="44.9812681" lon="8.2958818"><ele>199.83333333333331</ele><time>2026-03-26T14:28:00.048Z</time></trkpt><trkpt lat="44.9812191" lon="8.2959769"><ele>197.66666666666666</ele><time>2026-03-26T14:28:03.048Z</time></trkpt><trkpt lat="44.9811195" lon="8.2959879"><ele>195.5</ele><time>2026-03-26T14:28:05.048Z</time></trkpt><trkpt lat="44.9810396" lon="8.2960009"><ele>193.33333333333331</ele><time>2026-03-26T14:28:06.048Z</time></trkpt><trkpt lat="44.9809618" lon="8.2960171"><ele>191.16666666666666</ele><time>2026-03-26T14:28:07.048Z</time></trkpt><trkpt lat="44.9808882" lon="8.2960328"><ele>189.0</ele><time>2026-03-26T14:28:08.048Z</time></trkpt><trkpt lat="44.9808026" lon="8.2960565"><ele>189.0</ele><time>2026-03-26T14:28:09.048Z</time></trkpt><trkpt lat="44.9807086" lon="8.2960916"><ele>189.0</ele><time>2026-03-26T14:28:10.048Z</time></trkpt><trkpt lat="44.9806152" lon="8.2961406"><ele>189.0</ele><time>2026-03-26T14:28:11.048Z</time></trkpt><trkpt lat="44.9805136" lon="8.2961989"><ele>189.0</ele><time>2026-03-26T14:28:12.047Z</time></trkpt><trkpt lat="44.9804233" lon="8.2962523"><ele>189.0</ele><time>2026-03-26T14:28:13.048Z</time></trkpt><trkpt lat="44.9803291" lon="8.2963065"><ele>189.0</ele><time>2026-03-26T14:28:14.048Z</time></trkpt><trkpt lat="44.9802345" lon="8.2963545"><ele>189.0</ele><time>2026-03-26T14:28:15.048Z</time></trkpt><trkpt lat="44.980142" lon="8.2964015"><ele>189.0</ele><time>2026-03-26T14:28:16.048Z</time></trkpt><trkpt lat="44.9800521" lon="8.296443"><ele>189.0</ele><time>2026-03-26T14:28:17.047Z</time></trkpt><trkpt lat="44.9799644" lon="8.2964775"><ele>189.0</ele><time>2026-03-26T14:28:18.048Z</time></trkpt><trkpt lat="44.9798784" lon="8.2965105"><ele>188.39999999999998</ele><time>2026-03-26T14:28:19.048Z</time></trkpt><trkpt lat="44.9797916" lon="8.2965493"><ele>187.8</ele><time>2026-03-26T14:28:20.047Z</time></trkpt><trkpt lat="44.9797003" lon="8.2965899"><ele>187.2</ele><time>2026-03-26T14:28:21.048Z</time></trkpt><trkpt lat="44.9796048" lon="8.2966302"><ele>186.60000000000002</ele><time>2026-03-26T14:28:22.048Z</time></trkpt><trkpt lat="44.9795112" lon="8.296665"><ele>186.0</ele><time>2026-03-26T14:28:23.048Z</time></trkpt><trkpt lat="44.9794245" lon="8.2966964"><ele>186.0</ele><time>2026-03-26T14:28:24.048Z</time></trkpt><trkpt lat="44.9793395" lon="8.2967309"><ele>186.0</ele><time>2026-03-26T14:28:25.047Z</time></trkpt><trkpt lat="44.9792706" lon="8.2967597"><ele>186.0</ele><time>2026-03-26T14:28:26.048Z</time></trkpt><trkpt lat="44.979162" lon="8.2967918"><ele>186.0</ele><time>2026-03-26T14:28:28.048Z</time></trkpt><trkpt lat="44.9790843" lon="8.2967882"><ele>186.0</ele><time>2026-03-26T14:28:30.048Z</time></trkpt><trkpt lat="44.9790064" lon="8.2967758"><ele>186.0</ele><time>2026-03-26T14:28:32.048Z</time></trkpt><trkpt lat="44.9789098" lon="8.2967731"><ele>187.0</ele><time>2026-03-26T14:28:34.047Z</time></trkpt><trkpt lat="44.9788103" lon="8.2967929"><ele>188.0</ele><time>2026-03-26T14:28:36.047Z</time></trkpt><trkpt lat="44.9787025" lon="8.2968269"><ele>189.0</ele><time>2026-03-26T14:28:38.048Z</time></trkpt><trkpt lat="44.9786398" lon="8.2968522"><ele>190.0</ele><time>2026-03-26T14:28:39.048Z</time></trkpt><trkpt lat="44.978577" lon="8.2968749"><ele>191.0</ele><time>2026-03-26T14:28:40.047Z</time></trkpt><trkpt lat="44.9784971" lon="8.2969091"><ele>192.0</ele><time>2026-03-26T14:28:41.048Z</time></trkpt><trkpt lat="44.9784189" lon="8.2969546"><ele>191.5</ele><time>2026-03-26T14:28:42.047Z</time></trkpt><trkpt lat="44.978345" lon="8.2970157"><ele>191.0</ele><time>2026-03-26T14:28:43.048Z</time></trkpt><trkpt lat="44.9782795" lon="8.2970811"><ele>190.5</ele><time>2026-03-26T14:28:44.048Z</time></trkpt><trkpt lat="44.9782174" lon="8.2971415"><ele>190.0</ele><time>2026-03-26T14:28:45.048Z</time></trkpt><trkpt lat="44.9781592" lon="8.2971899"><ele>189.5</ele><time>2026-03-26T14:28:46.048Z</time></trkpt><trkpt lat="44.9780776" lon="8.2972785"><ele>189.0</ele><time>2026-03-26T14:28:48.048Z</time></trkpt><trkpt lat="44.9780434" lon="8.2973788"><ele>187.83333333333334</ele><time>2026-03-26T14:28:50.048Z</time></trkpt><trkpt lat="44.978028" lon="8.2975288"><ele>186.66666666666666</ele><time>2026-03-26T14:28:52.048Z</time></trkpt><trkpt lat="44.9780181" lon="8.2976213"><ele>185.5</ele><time>2026-03-26T14:28:53.048Z</time></trkpt><trkpt lat="44.9780157" lon="8.2977294"><ele>184.33333333333331</ele><time>2026-03-26T14:28:54.048Z</time></trkpt><trkpt lat="44.9780224" lon="8.2978428"><ele>183.16666666666666</ele><time>2026-03-26T14:28:55.048Z</time></trkpt><trkpt lat="44.9780337" lon="8.2979959"><ele>182.0</ele><time>2026-03-26T14:28:57.048Z</time></trkpt><trkpt lat="44.9780452" lon="8.298107"><ele>181.39999999999998</ele><time>2026-03-26T14:28:59.048Z</time></trkpt><trkpt lat="44.9780214" lon="8.2982073"><ele>180.79999999999998</ele><time>2026-03-26T14:29:01.048Z</time></trkpt><trkpt lat="44.9779523" lon="8.2983509"><ele>180.2</ele><time>2026-03-26T14:29:03.048Z</time></trkpt><trkpt lat="44.977909" lon="8.2984424"><ele>179.6</ele><time>2026-03-26T14:29:04.048Z</time></trkpt><trkpt lat="44.9778586" lon="8.2985406"><ele>179.0</ele><time>2026-03-26T14:29:05.048Z</time></trkpt><trkpt lat="44.9778048" lon="8.2986399"><ele>179.0</ele><time>2026-03-26T14:29:06.047Z</time></trkpt><trkpt lat="44.9777501" lon="8.2987357"><ele>179.0</ele><time>2026-03-26T14:29:07.048Z</time></trkpt><trkpt lat="44.977684" lon="8.2988285"><ele>179.0</ele><time>2026-03-26T14:29:08.049Z</time></trkpt><trkpt lat="44.9776038" lon="8.2989237"><ele>179.0</ele><time>2026-03-26T14:29:09.048Z</time></trkpt><trkpt lat="44.9775094" lon="8.2990197"><ele>179.0</ele><time>2026-03-26T14:29:10.048Z</time></trkpt><trkpt lat="44.9773993" lon="8.2991227"><ele>179.0</ele><time>2026-03-26T14:29:11.048Z</time></trkpt><trkpt lat="44.9772874" lon="8.2992325"><ele>179.0</ele><time>2026-03-26T14:29:12.048Z</time></trkpt><trkpt lat="44.9771775" lon="8.2993557"><ele>179.0</ele><time>2026-03-26T14:29:13.048Z</time></trkpt><trkpt lat="44.977073" lon="8.2994808"><ele>179.0</ele><time>2026-03-26T14:29:14.048Z</time></trkpt><trkpt lat="44.9769711" lon="8.2996059"><ele>179.0</ele><time>2026-03-26T14:29:15.048Z</time></trkpt><trkpt lat="44.9768647" lon="8.2997284"><ele>179.0</ele><time>2026-03-26T14:29:16.048Z</time></trkpt><trkpt lat="44.9767563" lon="8.2998423"><ele>179.0</ele><time>2026-03-26T14:29:17.048Z</time></trkpt><trkpt lat="44.9766417" lon="8.2999497"><ele>179.0</ele><time>2026-03-26T14:29:18.048Z</time></trkpt><trkpt lat="44.9765221" lon="8.3000511"><ele>179.0</ele><time>2026-03-26T14:29:19.048Z</time></trkpt><trkpt lat="44.9764018" lon="8.3001477"><ele>179.0</ele><time>2026-03-26T14:29:20.048Z</time></trkpt><trkpt lat="44.9762807" lon="8.3002329"><ele>179.0</ele><time>2026-03-26T14:29:21.048Z</time></trkpt><trkpt lat="44.9761686" lon="8.3003041"><ele>179.0</ele><time>2026-03-26T14:29:22.047Z</time></trkpt><trkpt lat="44.9760574" lon="8.3003622"><ele>179.0</ele><time>2026-03-26T14:29:23.048Z</time></trkpt><trkpt lat="44.975937" lon="8.3004325"><ele>179.0</ele><time>2026-03-26T14:29:24.047Z</time></trkpt><trkpt lat="44.9758178" lon="8.3005118"><ele>179.0</ele><time>2026-03-26T14:29:25.048Z</time></trkpt><trkpt lat="44.9756969" lon="8.3005999"><ele>179.0</ele><time>2026-03-26T14:29:26.047Z</time></trkpt><trkpt lat="44.9755862" lon="8.30069"><ele>178.2</ele><time>2026-03-26T14:29:27.048Z</time></trkpt><trkpt lat="44.9754924" lon="8.3007783"><ele>177.39999999999998</ele><time>2026-03-26T14:29:28.048Z</time></trkpt><trkpt lat="44.9754157" lon="8.3008609"><ele>176.6</ele><time>2026-03-26T14:29:29.048Z</time></trkpt><trkpt lat="44.975354" lon="8.3009344"><ele>175.8</ele><time>2026-03-26T14:29:30.048Z</time></trkpt><trkpt lat="44.9752883" lon="8.301009"><ele>175.0</ele><time>2026-03-26T14:29:31.048Z</time></trkpt><trkpt lat="44.9752274" lon="8.3010833"><ele>175.0</ele><time>2026-03-26T14:29:32.048Z</time></trkpt><trkpt lat="44.9751685" lon="8.3011544"><ele>175.0</ele><time>2026-03-26T14:29:33.048Z</time></trkpt><trkpt lat="44.975095" lon="8.3012307"><ele>175.0</ele><time>2026-03-26T14:29:34.048Z</time></trkpt><trkpt lat="44.9750135" lon="8.3013072"><ele>175.0</ele><time>2026-03-26T14:29:35.047Z</time></trkpt><trkpt lat="44.9749448" lon="8.3013663"><ele>175.0</ele><time>2026-03-26T14:29:36.048Z</time></trkpt><trkpt lat="44.9748827" lon="8.3014122"><ele>175.0</ele><time>2026-03-26T14:29:37.048Z</time></trkpt><trkpt lat="44.9748037" lon="8.3014501"><ele>174.16666666666669</ele><time>2026-03-26T14:29:39.048Z</time></trkpt><trkpt lat="44.9747592" lon="8.30155"><ele>173.33333333333334</ele><time>2026-03-26T14:29:42.048Z</time></trkpt><trkpt lat="44.9747675" lon="8.3016964"><ele>172.5</ele><time>2026-03-26T14:29:44.048Z</time></trkpt><trkpt lat="44.9747644" lon="8.301793"><ele>171.66666666666666</ele><time>2026-03-26T14:29:45.048Z</time></trkpt><trkpt lat="44.9747575" lon="8.3019025"><ele>170.83333333333331</ele><time>2026-03-26T14:29:46.049Z</time></trkpt><trkpt lat="44.9747462" lon="8.302023"><ele>170.0</ele><time>2026-03-26T14:29:47.048Z</time></trkpt><trkpt lat="44.9747333" lon="8.3021536"><ele>170.16666666666666</ele><time>2026-03-26T14:29:48.048Z</time></trkpt><trkpt lat="44.9747225" lon="8.3022874"><ele>170.33333333333331</ele><time>2026-03-26T14:29:49.048Z</time></trkpt><trkpt lat="44.9747124" lon="8.3024199"><ele>170.5</ele><time>2026-03-26T14:29:50.048Z</time></trkpt><trkpt lat="44.9747027" lon="8.3025433"><ele>170.66666666666666</ele><time>2026-03-26T14:29:51.048Z</time></trkpt><trkpt lat="44.974689" lon="8.3026537"><ele>170.83333333333334</ele><time>2026-03-26T14:29:52.049Z</time></trkpt><trkpt lat="44.9746819" lon="8.3027583"><ele>171.0</ele><time>2026-03-26T14:29:53.048Z</time></trkpt><trkpt lat="44.9746739" lon="8.3028608"><ele>171.0</ele><time>2026-03-26T14:29:54.048Z</time></trkpt><trkpt lat="44.9746591" lon="8.3029593"><ele>171.0</ele><time>2026-03-26T14:29:55.048Z</time></trkpt><trkpt lat="44.9746452" lon="8.3030473"><ele>171.0</ele><time>2026-03-26T14:29:56.047Z</time></trkpt><trkpt lat="44.9746296" lon="8.3031851"><ele>171.0</ele><time>2026-03-26T14:29:58.048Z</time></trkpt><trkpt lat="44.9746718" lon="8.3032859"><ele>171.0</ele><time>2026-03-26T14:30:00.048Z</time></trkpt><trkpt lat="44.9747255" lon="8.3033667"><ele>171.0</ele><time>2026-03-26T14:30:02.048Z</time></trkpt><trkpt lat="44.9747594" lon="8.3034456"><ele>171.0</ele><time>2026-03-26T14:30:04.049Z</time></trkpt><trkpt lat="44.9747606" lon="8.3035919"><ele>171.0</ele><time>2026-03-26T14:30:06.049Z</time></trkpt><trkpt lat="44.9747504" lon="8.3036885"><ele>171.0</ele><time>2026-03-26T14:30:07.048Z</time></trkpt><trkpt lat="44.9747403" lon="8.3038022"><ele>171.0</ele><time>2026-03-26T14:30:08.049Z</time></trkpt><trkpt lat="44.9747323" lon="8.3039232"><ele>171.0</ele><time>2026-03-26T14:30:09.049Z</time></trkpt><trkpt lat="44.9747316" lon="8.3040392"><ele>171.0</ele><time>2026-03-26T14:30:10.049Z</time></trkpt><trkpt lat="44.9747345" lon="8.3041388"><ele>170.99999999999997</ele><time>2026-03-26T14:30:11.048Z</time></trkpt><trkpt lat="44.9747457" lon="8.3042314"><ele>171.0</ele><time>2026-03-26T14:30:12.048Z</time></trkpt><trkpt lat="44.9747597" lon="8.3043393"><ele>171.0</ele><time>2026-03-26T14:30:13.049Z</time></trkpt><trkpt lat="44.9747761" lon="8.3044432"><ele>171.0</ele><time>2026-03-26T14:30:14.049Z</time></trkpt><trkpt lat="44.9747961" lon="8.3045391"><ele>171.0</ele><time>2026-03-26T14:30:15.049Z</time></trkpt><trkpt lat="44.9748214" lon="8.3046296"><ele>170.99999999999997</ele><time>2026-03-26T14:30:16.049Z</time></trkpt><trkpt lat="44.9748544" lon="8.3047184"><ele>171.0</ele><time>2026-03-26T14:30:17.048Z</time></trkpt><trkpt lat="44.9748944" lon="8.3048076"><ele>171.16666666666666</ele><time>2026-03-26T14:30:18.049Z</time></trkpt><trkpt lat="44.9749412" lon="8.3048961"><ele>171.33333333333334</ele><time>2026-03-26T14:30:19.048Z</time></trkpt><trkpt lat="44.9749879" lon="8.3049789"><ele>171.5</ele><time>2026-03-26T14:30:20.049Z</time></trkpt><trkpt lat="44.9750399" lon="8.3050653"><ele>171.66666666666669</ele><time>2026-03-26T14:30:21.049Z</time></trkpt><trkpt lat="44.9750959" lon="8.3051622"><ele>171.83333333333334</ele><time>2026-03-26T14:30:22.049Z</time></trkpt><trkpt lat="44.9751576" lon="8.3052682"><ele>172.0</ele><time>2026-03-26T14:30:23.049Z</time></trkpt><trkpt lat="44.9752226" lon="8.3053824"><ele>173.0</ele><time>2026-03-26T14:30:24.049Z</time></trkpt><trkpt lat="44.9752894" lon="8.3054967"><ele>174.0</ele><time>2026-03-26T14:30:25.049Z</time></trkpt><trkpt lat="44.9753425" lon="8.3055857"><ele>175.0</ele><time>2026-03-26T14:30:26.048Z</time></trkpt><trkpt lat="44.9753877" lon="8.3056604"><ele>176.0</ele><time>2026-03-26T14:30:27.048Z</time></trkpt><trkpt lat="44.975449" lon="8.305764"><ele>177.0</ele><time>2026-03-26T14:30:29.049Z</time></trkpt><trkpt lat="44.9754969" lon="8.305849"><ele>178.0</ele><time>2026-03-26T14:30:31.049Z</time></trkpt><trkpt lat="44.9755398" lon="8.3059233"><ele>178.0</ele><time>2026-03-26T14:30:33.048Z</time></trkpt><trkpt lat="44.9756211" lon="8.3059469"><ele>178.0</ele><time>2026-03-26T14:30:36.048Z</time></trkpt><trkpt lat="44.9757015" lon="8.3058477"><ele>178.0</ele><time>2026-03-26T14:30:38.049Z</time></trkpt><trkpt lat="44.9757868" lon="8.3057745"><ele>178.0</ele><time>2026-03-26T14:30:40.048Z</time></trkpt><trkpt lat="44.9758811" lon="8.3057648"><ele>178.0</ele><time>2026-03-26T14:30:42.048Z</time></trkpt><trkpt lat="44.9759813" lon="8.3058243"><ele>178.5</ele><time>2026-03-26T14:30:44.049Z</time></trkpt><trkpt lat="44.9760402" lon="8.305877"><ele>179.0</ele><time>2026-03-26T14:30:45.049Z</time></trkpt><trkpt lat="44.9761037" lon="8.3059477"><ele>179.5</ele><time>2026-03-26T14:30:46.049Z</time></trkpt><trkpt lat="44.9761706" lon="8.30603"><ele>180.0</ele><time>2026-03-26T14:30:47.048Z</time></trkpt><trkpt lat="44.9762368" lon="8.3061212"><ele>180.5</ele><time>2026-03-26T14:30:48.048Z</time></trkpt><trkpt lat="44.9762986" lon="8.3062085"><ele>181.0</ele><time>2026-03-26T14:30:49.048Z</time></trkpt><trkpt lat="44.976364" lon="8.3062968"><ele>181.0</ele><time>2026-03-26T14:30:50.05Z</time></trkpt><trkpt lat="44.9764405" lon="8.3064"><ele>181.0</ele><time>2026-03-26T14:30:51.049Z</time></trkpt><trkpt lat="44.9765386" lon="8.3065335"><ele>181.0</ele><time>2026-03-26T14:30:52.05Z</time></trkpt><trkpt lat="44.9766265" lon="8.3066552"><ele>181.0</ele><time>2026-03-26T14:30:53.049Z</time></trkpt><trkpt lat="44.9766984" lon="8.3067525"><ele>183.25</ele><time>2026-03-26T14:30:54.049Z</time></trkpt><trkpt lat="44.9767737" lon="8.3068554"><ele>185.5</ele><time>2026-03-26T14:30:55.049Z</time></trkpt><trkpt lat="44.9768564" lon="8.3069684"><ele>187.75</ele><time>2026-03-26T14:30:56.049Z</time></trkpt><trkpt lat="44.9769453" lon="8.3070909"><ele>190.0</ele><time>2026-03-26T14:30:57.049Z</time></trkpt><trkpt lat="44.9770256" lon="8.3072033"><ele>188.2</ele><time>2026-03-26T14:30:58.048Z</time></trkpt><trkpt lat="44.9771045" lon="8.307309"><ele>186.4</ele><time>2026-03-26T14:30:59.048Z</time></trkpt><trkpt lat="44.9771777" lon="8.3074125"><ele>184.60000000000002</ele><time>2026-03-26T14:31:00.049Z</time></trkpt><trkpt lat="44.9772543" lon="8.3075118"><ele>182.8</ele><time>2026-03-26T14:31:01.049Z</time></trkpt><trkpt lat="44.9773228" lon="8.307602"><ele>181.0</ele><time>2026-03-26T14:31:02.048Z</time></trkpt><trkpt lat="44.9773955" lon="8.3076877"><ele>181.0</ele><time>2026-03-26T14:31:03.049Z</time></trkpt><trkpt lat="44.977464" lon="8.3077749"><ele>181.0</ele><time>2026-03-26T14:31:04.049Z</time></trkpt><trkpt lat="44.9775359" lon="8.3078663"><ele>181.0</ele><time>2026-03-26T14:31:05.049Z</time></trkpt><trkpt lat="44.9776104" lon="8.3079574"><ele>181.0</ele><time>2026-03-26T14:31:06.049Z</time></trkpt><trkpt lat="44.9776918" lon="8.3080486"><ele>181.0</ele><time>2026-03-26T14:31:07.049Z</time></trkpt><trkpt lat="44.9777731" lon="8.3081379"><ele>181.60000000000002</ele><time>2026-03-26T14:31:08.048Z</time></trkpt><trkpt lat="44.9778599" lon="8.3082329"><ele>182.2</ele><time>2026-03-26T14:31:09.049Z</time></trkpt><trkpt lat="44.9779469" lon="8.3083326"><ele>182.8</ele><time>2026-03-26T14:31:10.048Z</time></trkpt><trkpt lat="44.9780337" lon="8.3084287"><ele>183.39999999999998</ele><time>2026-03-26T14:31:11.049Z</time></trkpt><trkpt lat="44.9781237" lon="8.3085235"><ele>184.0</ele><time>2026-03-26T14:31:12.049Z</time></trkpt><trkpt lat="44.9782185" lon="8.3086168"><ele>184.0</ele><time>2026-03-26T14:31:13.049Z</time></trkpt><trkpt lat="44.9783016" lon="8.3086993"><ele>184.0</ele><time>2026-03-26T14:31:14.049Z</time></trkpt><trkpt lat="44.9783907" lon="8.3087819"><ele>184.0</ele><time>2026-03-26T14:31:15.049Z</time></trkpt><trkpt lat="44.9785069" lon="8.3088794"><ele>184.0</ele><time>2026-03-26T14:31:16.049Z</time></trkpt><trkpt lat="44.9786176" lon="8.3089801"><ele>184.25</ele><time>2026-03-26T14:31:17.049Z</time></trkpt><trkpt lat="44.9787329" lon="8.3090903"><ele>184.5</ele><time>2026-03-26T14:31:18.049Z</time></trkpt><trkpt lat="44.9788475" lon="8.309196"><ele>184.75</ele><time>2026-03-26T14:31:19.05Z</time></trkpt><trkpt lat="44.9789545" lon="8.3092963"><ele>185.0</ele><time>2026-03-26T14:31:20.049Z</time></trkpt><trkpt lat="44.9790561" lon="8.3093896"><ele>185.0</ele><time>2026-03-26T14:31:21.049Z</time></trkpt><trkpt lat="44.9791666" lon="8.3094976"><ele>185.0</ele><time>2026-03-26T14:31:22.049Z</time></trkpt><trkpt lat="44.9792659" lon="8.3095932"><ele>185.0</ele><time>2026-03-26T14:31:23.049Z</time></trkpt><trkpt lat="44.9793552" lon="8.3096748"><ele>185.0</ele><time>2026-03-26T14:31:24.049Z</time></trkpt><trkpt lat="44.9794463" lon="8.309758"><ele>184.2</ele><time>2026-03-26T14:31:25.049Z</time></trkpt><trkpt lat="44.9795369" lon="8.3098378"><ele>183.4</ele><time>2026-03-26T14:31:26.049Z</time></trkpt><trkpt lat="44.9796227" lon="8.309911"><ele>182.60000000000002</ele><time>2026-03-26T14:31:27.049Z</time></trkpt><trkpt lat="44.9797011" lon="8.3099734"><ele>181.8</ele><time>2026-03-26T14:31:28.049Z</time></trkpt><trkpt lat="44.9797851" lon="8.3100333"><ele>181.0</ele><time>2026-03-26T14:31:29.049Z</time></trkpt><trkpt lat="44.9798742" lon="8.3100813"><ele>181.0</ele><time>2026-03-26T14:31:30.049Z</time></trkpt><trkpt lat="44.9799658" lon="8.310131"><ele>181.0</ele><time>2026-03-26T14:31:31.048Z</time></trkpt><trkpt lat="44.980058" lon="8.3101802"><ele>181.0</ele><time>2026-03-26T14:31:32.049Z</time></trkpt><trkpt lat="44.9801463" lon="8.3102308"><ele>181.0</ele><time>2026-03-26T14:31:33.049Z</time></trkpt><trkpt lat="44.9802158" lon="8.3102788"><ele>181.0</ele><time>2026-03-26T14:31:34.049Z</time></trkpt><trkpt lat="44.9802846" lon="8.310344"><ele>181.4</ele><time>2026-03-26T14:31:35.049Z</time></trkpt><trkpt lat="44.980358" lon="8.3104257"><ele>181.8</ele><time>2026-03-26T14:31:36.049Z</time></trkpt><trkpt lat="44.980441" lon="8.3105162"><ele>182.20000000000002</ele><time>2026-03-26T14:31:37.049Z</time></trkpt><trkpt lat="44.9805301" lon="8.3106094"><ele>182.60000000000002</ele><time>2026-03-26T14:31:38.049Z</time></trkpt><trkpt lat="44.9806231" lon="8.3106961"><ele>183.0</ele><time>2026-03-26T14:31:39.049Z</time></trkpt><trkpt lat="44.9807062" lon="8.3107696"><ele>183.0</ele><time>2026-03-26T14:31:40.048Z</time></trkpt><trkpt lat="44.9807861" lon="8.3108424"><ele>183.0</ele><time>2026-03-26T14:31:41.049Z</time></trkpt><trkpt lat="44.9808679" lon="8.3109136"><ele>183.0</ele><time>2026-03-26T14:31:42.05Z</time></trkpt><trkpt lat="44.9809484" lon="8.3109882"><ele>183.0</ele><time>2026-03-26T14:31:43.049Z</time></trkpt><trkpt lat="44.9810308" lon="8.3110583"><ele>183.0</ele><time>2026-03-26T14:31:44.049Z</time></trkpt><trkpt lat="44.9811208" lon="8.3111249"><ele>183.0</ele><time>2026-03-26T14:31:45.049Z</time></trkpt><trkpt lat="44.9812203" lon="8.311198"><ele>183.0</ele><time>2026-03-26T14:31:46.049Z</time></trkpt><trkpt lat="44.9813474" lon="8.3112913"><ele>183.0</ele><time>2026-03-26T14:31:47.049Z</time></trkpt><trkpt lat="44.9814648" lon="8.3113798"><ele>183.0</ele><time>2026-03-26T14:31:48.049Z</time></trkpt><trkpt lat="44.9815625" lon="8.3114539"><ele>183.0</ele><time>2026-03-26T14:31:49.049Z</time></trkpt><trkpt lat="44.9816447" lon="8.3115271"><ele>183.0</ele><time>2026-03-26T14:31:50.049Z</time></trkpt><trkpt lat="44.9817058" lon="8.311589"><ele>183.0</ele><time>2026-03-26T14:31:51.049Z</time></trkpt><trkpt lat="44.9817841" lon="8.311679"><ele>183.0</ele><time>2026-03-26T14:31:53.049Z</time></trkpt><trkpt lat="44.981822" lon="8.311761"><ele>183.0</ele><time>2026-03-26T14:31:56.049Z</time></trkpt><trkpt lat="44.9818161" lon="8.311879"><ele>183.0</ele><time>2026-03-26T14:31:59.049Z</time></trkpt><trkpt lat="44.9817679" lon="8.3120065"><ele>183.0</ele><time>2026-03-26T14:32:01.049Z</time></trkpt><trkpt lat="44.9817367" lon="8.3120908"><ele>183.0</ele><time>2026-03-26T14:32:02.049Z</time></trkpt><trkpt lat="44.9816905" lon="8.3122231"><ele>183.0</ele><time>2026-03-26T14:32:04.049Z</time></trkpt><trkpt lat="44.9816546" lon="8.3123173"><ele>183.0</ele><time>2026-03-26T14:32:06.049Z</time></trkpt><trkpt lat="44.981633" lon="8.3124046"><ele>183.0</ele><time>2026-03-26T14:32:09.049Z</time></trkpt><trkpt lat="44.9815948" lon="8.3125088"><ele>183.0</ele><time>2026-03-26T14:32:15.048Z</time></trkpt><trkpt lat="44.9815828" lon="8.312605"><ele>183.0</ele><time>2026-03-26T14:33:31.049Z</time></trkpt><trkpt lat="44.9815538" lon="8.3127052"><ele>183.0</ele><time>2026-03-26T14:34:32.05Z</time></trkpt><trkpt lat="44.9815146" lon="8.3128239"><ele>183.0</ele><time>2026-03-26T14:34:35.049Z</time></trkpt><trkpt lat="44.9814801" lon="8.3129385"><ele>183.0</ele><time>2026-03-26T14:34:37.049Z</time></trkpt><trkpt lat="44.981446" lon="8.3130522"><ele>183.0</ele><time>2026-03-26T14:34:39.049Z</time></trkpt><trkpt lat="44.9813899" lon="8.3131946"><ele>182.83333333333334</ele><time>2026-03-26T14:34:41.049Z</time></trkpt><trkpt lat="44.9813365" lon="8.3133351"><ele>182.66666666666666</ele><time>2026-03-26T14:34:43.049Z</time></trkpt><trkpt lat="44.981309" lon="8.3134211"><ele>182.5</ele><time>2026-03-26T14:34:44.049Z</time></trkpt><trkpt lat="44.981277" lon="8.3135114"><ele>182.33333333333331</ele><time>2026-03-26T14:34:45.049Z</time></trkpt><trkpt lat="44.981243" lon="8.3136094"><ele>182.16666666666666</ele><time>2026-03-26T14:34:46.049Z</time></trkpt><trkpt lat="44.9812056" lon="8.3137141"><ele>182.0</ele><time>2026-03-26T14:34:47.049Z</time></trkpt><trkpt lat="44.9811647" lon="8.313814"><ele>181.83333333333331</ele><time>2026-03-26T14:34:48.049Z</time></trkpt><trkpt lat="44.9811246" lon="8.3139127"><ele>181.66666666666666</ele><time>2026-03-26T14:34:49.049Z</time></trkpt><trkpt lat="44.9810879" lon="8.3140202"><ele>181.5</ele><time>2026-03-26T14:34:50.049Z</time></trkpt><trkpt lat="44.9810587" lon="8.3141337"><ele>181.33333333333334</ele><time>2026-03-26T14:34:51.048Z</time></trkpt><trkpt lat="44.9810356" lon="8.3142567"><ele>181.16666666666669</ele><time>2026-03-26T14:34:52.049Z</time></trkpt><trkpt lat="44.9810161" lon="8.314392"><ele>181.0</ele><time>2026-03-26T14:34:53.049Z</time></trkpt><trkpt lat="44.9809984" lon="8.314536"><ele>181.0</ele><time>2026-03-26T14:34:54.049Z</time></trkpt><trkpt lat="44.9809795" lon="8.3146815"><ele>181.0</ele><time>2026-03-26T14:34:55.049Z</time></trkpt><trkpt lat="44.9809593" lon="8.314817"><ele>181.0</ele><time>2026-03-26T14:34:56.049Z</time></trkpt><trkpt lat="44.9809417" lon="8.3149288"><ele>181.0</ele><time>2026-03-26T14:34:57.048Z</time></trkpt><trkpt lat="44.9809179" lon="8.3150315"><ele>181.0</ele><time>2026-03-26T14:34:58.048Z</time></trkpt><trkpt lat="44.9808918" lon="8.3151312"><ele>181.0</ele><time>2026-03-26T14:34:59.049Z</time></trkpt><trkpt lat="44.9808694" lon="8.3152215"><ele>182.20000000000002</ele><time>2026-03-26T14:35:00.049Z</time></trkpt><trkpt lat="44.9808489" lon="8.3153141"><ele>183.4</ele><time>2026-03-26T14:35:01.049Z</time></trkpt><trkpt lat="44.9808353" lon="8.3154563"><ele>184.6</ele><time>2026-03-26T14:35:03.05Z</time></trkpt><trkpt lat="44.9808608" lon="8.3155766"><ele>185.8</ele><time>2026-03-26T14:35:05.049Z</time></trkpt><trkpt lat="44.980953" lon="8.3157058"><ele>187.0</ele><time>2026-03-26T14:35:07.049Z</time></trkpt><trkpt lat="44.9809933" lon="8.3157823"><ele>187.0</ele><time>2026-03-26T14:35:08.048Z</time></trkpt><trkpt lat="44.9810276" lon="8.3158656"><ele>187.0</ele><time>2026-03-26T14:35:09.048Z</time></trkpt><trkpt lat="44.9810544" lon="8.3159525"><ele>187.0</ele><time>2026-03-26T14:35:10.049Z</time></trkpt><trkpt lat="44.9810916" lon="8.3161297"><ele>187.0</ele><time>2026-03-26T14:35:12.048Z</time></trkpt><trkpt lat="44.9811056" lon="8.3162257"><ele>187.0</ele><time>2026-03-26T14:35:13.049Z</time></trkpt><trkpt lat="44.9811183" lon="8.3163159"><ele>187.0</ele><time>2026-03-26T14:35:14.05Z</time></trkpt><trkpt lat="44.981128" lon="8.3164044"><ele>189.0</ele><time>2026-03-26T14:35:15.049Z</time></trkpt><trkpt lat="44.9811618" lon="8.3165605"><ele>191.0</ele><time>2026-03-26T14:35:17.049Z</time></trkpt><trkpt lat="44.9812205" lon="8.3167134"><ele>193.0</ele><time>2026-03-26T14:35:19.049Z</time></trkpt><trkpt lat="44.9812508" lon="8.316798"><ele>195.0</ele><time>2026-03-26T14:35:20.049Z</time></trkpt><trkpt lat="44.9812844" lon="8.3168903"><ele>197.0</ele><time>2026-03-26T14:35:21.049Z</time></trkpt><trkpt lat="44.9813192" lon="8.3169829"><ele>197.0</ele><time>2026-03-26T14:35:22.049Z</time></trkpt><trkpt lat="44.981352" lon="8.3170721"><ele>197.0</ele><time>2026-03-26T14:35:23.049Z</time></trkpt><trkpt lat="44.9814058" lon="8.3172012"><ele>197.0</ele><time>2026-03-26T14:35:25.049Z</time></trkpt><trkpt lat="44.981455" lon="8.317322"><ele>197.0</ele><time>2026-03-26T14:35:27.049Z</time></trkpt><trkpt lat="44.981483" lon="8.3174828"><ele>197.0</ele><time>2026-03-26T14:35:29.049Z</time></trkpt><trkpt lat="44.9814739" lon="8.3176478"><ele>198.33333333333334</ele><time>2026-03-26T14:35:31.049Z</time></trkpt><trkpt lat="44.9814484" lon="8.3178064"><ele>199.66666666666669</ele><time>2026-03-26T14:35:33.049Z</time></trkpt><trkpt lat="44.9814183" lon="8.3179433"><ele>201.0</ele><time>2026-03-26T14:35:35.05Z</time></trkpt><trkpt lat="44.9813968" lon="8.318031"><ele>202.33333333333331</ele><time>2026-03-26T14:35:37.049Z</time></trkpt><trkpt lat="44.9813761" lon="8.3181214"><ele>203.66666666666666</ele><time>2026-03-26T14:35:38.049Z</time></trkpt><trkpt lat="44.9813739" lon="8.3182472"><ele>205.0</ele><time>2026-03-26T14:35:39.049Z</time></trkpt><trkpt lat="44.9813929" lon="8.3184254"><ele>206.66666666666666</ele><time>2026-03-26T14:35:40.048Z</time></trkpt><trkpt lat="44.9814129" lon="8.3186233"><ele>208.33333333333331</ele><time>2026-03-26T14:35:41.048Z</time></trkpt><trkpt lat="44.9814342" lon="8.3188501"><ele>210.0</ele><time>2026-03-26T14:35:42.049Z</time></trkpt><trkpt lat="44.9814593" lon="8.319075"><ele>211.33333333333331</ele><time>2026-03-26T14:35:43.049Z</time></trkpt><trkpt lat="44.9814842" lon="8.319299"><ele>212.66666666666666</ele><time>2026-03-26T14:35:44.048Z</time></trkpt><trkpt lat="44.9815064" lon="8.3195217"><ele>214.0</ele><time>2026-03-26T14:35:45.05Z</time></trkpt><trkpt lat="44.9815311" lon="8.3197413"><ele>217.0</ele><time>2026-03-26T14:35:46.049Z</time></trkpt><trkpt lat="44.9815559" lon="8.3199598"><ele>220.0</ele><time>2026-03-26T14:35:47.048Z</time></trkpt><trkpt lat="44.9815811" lon="8.3201763"><ele>223.0</ele><time>2026-03-26T14:35:48.049Z</time></trkpt><trkpt lat="44.9816056" lon="8.3203925"><ele>225.66666666666666</ele><time>2026-03-26T14:35:49.049Z</time></trkpt><trkpt lat="44.9816284" lon="8.3206068"><ele>228.33333333333331</ele><time>2026-03-26T14:35:50.049Z</time></trkpt><trkpt lat="44.981651" lon="8.3208223"><ele>231.0</ele><time>2026-03-26T14:35:51.049Z</time></trkpt><trkpt lat="44.9816755" lon="8.3210387"><ele>229.66666666666669</ele><time>2026-03-26T14:35:52.049Z</time></trkpt><trkpt lat="44.9816977" lon="8.3212551"><ele>228.33333333333334</ele><time>2026-03-26T14:35:53.049Z</time></trkpt><trkpt lat="44.9817214" lon="8.3214673"><ele>227.0</ele><time>2026-03-26T14:35:54.049Z</time></trkpt><trkpt lat="44.9817458" lon="8.3216769"><ele>227.0</ele><time>2026-03-26T14:35:55.049Z</time></trkpt><trkpt lat="44.9817704" lon="8.3218775"><ele>227.0</ele><time>2026-03-26T14:35:56.049Z</time></trkpt><trkpt lat="44.9817906" lon="8.3220614"><ele>227.0</ele><time>2026-03-26T14:35:57.049Z</time></trkpt><trkpt lat="44.9818076" lon="8.3222426"><ele>227.0</ele><time>2026-03-26T14:35:58.049Z</time></trkpt><trkpt lat="44.9818254" lon="8.3224079"><ele>228.33333333333334</ele><time>2026-03-26T14:35:59.049Z</time></trkpt><trkpt lat="44.9818386" lon="8.3225517"><ele>229.66666666666669</ele><time>2026-03-26T14:36:00.049Z</time></trkpt><trkpt lat="44.9818501" lon="8.3226742"><ele>231.0</ele><time>2026-03-26T14:36:01.049Z</time></trkpt><trkpt lat="44.9818636" lon="8.3227817"><ele>232.33333333333331</ele><time>2026-03-26T14:36:02.049Z</time></trkpt><trkpt lat="44.9818874" lon="8.3228819"><ele>233.66666666666666</ele><time>2026-03-26T14:36:03.049Z</time></trkpt><trkpt lat="44.9819276" lon="8.3229697"><ele>235.0</ele><time>2026-03-26T14:36:04.049Z</time></trkpt><trkpt lat="44.9819832" lon="8.3230523"><ele>236.16666666666666</ele><time>2026-03-26T14:36:05.048Z</time></trkpt><trkpt lat="44.982046" lon="8.3231337"><ele>237.33333333333331</ele><time>2026-03-26T14:36:06.049Z</time></trkpt><trkpt lat="44.9821023" lon="8.3232153"><ele>238.5</ele><time>2026-03-26T14:36:07.049Z</time></trkpt><trkpt lat="44.9821564" lon="8.3233093"><ele>239.66666666666669</ele><time>2026-03-26T14:36:08.049Z</time></trkpt><trkpt lat="44.9821928" lon="8.3234044"><ele>240.83333333333334</ele><time>2026-03-26T14:36:09.049Z</time></trkpt><trkpt lat="44.9822212" lon="8.3235021"><ele>242.0</ele><time>2026-03-26T14:36:10.048Z</time></trkpt><trkpt lat="44.982251" lon="8.3236013"><ele>242.0</ele><time>2026-03-26T14:36:11.049Z</time></trkpt><trkpt lat="44.9822781" lon="8.323702"><ele>241.99999999999997</ele><time>2026-03-26T14:36:12.049Z</time></trkpt><trkpt lat="44.9823048" lon="8.3238"><ele>242.0</ele><time>2026-03-26T14:36:13.049Z</time></trkpt><trkpt lat="44.9823334" lon="8.3238886"><ele>242.0</ele><time>2026-03-26T14:36:14.049Z</time></trkpt><trkpt lat="44.9823615" lon="8.3239735"><ele>241.99999999999997</ele><time>2026-03-26T14:36:15.05Z</time></trkpt><trkpt lat="44.9823955" lon="8.324056"><ele>242.0</ele><time>2026-03-26T14:36:16.049Z</time></trkpt><trkpt lat="44.9824166" lon="8.3241457"><ele>242.0</ele><time>2026-03-26T14:36:17.049Z</time></trkpt><trkpt lat="44.9824286" lon="8.3242331"><ele>242.2</ele><time>2026-03-26T14:36:18.049Z</time></trkpt><trkpt lat="44.9823956" lon="8.324413"><ele>242.39999999999998</ele><time>2026-03-26T14:36:20.049Z</time></trkpt><trkpt lat="44.982363" lon="8.3245125"><ele>242.60000000000002</ele><time>2026-03-26T14:36:21.049Z</time></trkpt><trkpt lat="44.9823252" lon="8.3246163"><ele>242.8</ele><time>2026-03-26T14:36:22.05Z</time></trkpt><trkpt lat="44.9822767" lon="8.3247346"><ele>243.0</ele><time>2026-03-26T14:36:23.049Z</time></trkpt><trkpt lat="44.9822237" lon="8.3248573"><ele>243.60000000000002</ele><time>2026-03-26T14:36:24.049Z</time></trkpt><trkpt lat="44.9821695" lon="8.3249869"><ele>244.20000000000002</ele><time>2026-03-26T14:36:25.049Z</time></trkpt><trkpt lat="44.9821209" lon="8.3251071"><ele>244.8</ele><time>2026-03-26T14:36:26.049Z</time></trkpt><trkpt lat="44.9820751" lon="8.3252221"><ele>245.4</ele><time>2026-03-26T14:36:27.049Z</time></trkpt><trkpt lat="44.9820266" lon="8.3253481"><ele>246.0</ele><time>2026-03-26T14:36:28.049Z</time></trkpt><trkpt lat="44.9819779" lon="8.3254842"><ele>246.75</ele><time>2026-03-26T14:36:29.049Z</time></trkpt><trkpt lat="44.9819337" lon="8.3256354"><ele>247.5</ele><time>2026-03-26T14:36:30.049Z</time></trkpt><trkpt lat="44.9818921" lon="8.3257882"><ele>248.25</ele><time>2026-03-26T14:36:31.048Z</time></trkpt><trkpt lat="44.9818518" lon="8.3259388"><ele>249.0</ele><time>2026-03-26T14:36:32.049Z</time></trkpt><trkpt lat="44.9818092" lon="8.3260957"><ele>249.0</ele><time>2026-03-26T14:36:33.05Z</time></trkpt><trkpt lat="44.9817657" lon="8.3262543"><ele>248.99999999999997</ele><time>2026-03-26T14:36:34.048Z</time></trkpt><trkpt lat="44.9817222" lon="8.326409"><ele>248.99999999999997</ele><time>2026-03-26T14:36:35.049Z</time></trkpt><trkpt lat="44.9816818" lon="8.3265501"><ele>249.0</ele><time>2026-03-26T14:36:36.049Z</time></trkpt><trkpt lat="44.9816458" lon="8.3266788"><ele>249.0</ele><time>2026-03-26T14:36:37.049Z</time></trkpt><trkpt lat="44.9816134" lon="8.3267971"><ele>246.83333333333334</ele><time>2026-03-26T14:36:38.05Z</time></trkpt><trkpt lat="44.9815865" lon="8.3269256"><ele>244.66666666666669</ele><time>2026-03-26T14:36:39.049Z</time></trkpt><trkpt lat="44.9815627" lon="8.3270464"><ele>242.5</ele><time>2026-03-26T14:36:40.048Z</time></trkpt><trkpt lat="44.9815383" lon="8.3271566"><ele>240.33333333333334</ele><time>2026-03-26T14:36:41.049Z</time></trkpt><trkpt lat="44.9815087" lon="8.3272618"><ele>238.16666666666669</ele><time>2026-03-26T14:36:42.049Z</time></trkpt><trkpt lat="44.9814825" lon="8.3273652"><ele>236.0</ele><time>2026-03-26T14:36:43.049Z</time></trkpt><trkpt lat="44.9814743" lon="8.3274613"><ele>236.00000000000003</ele><time>2026-03-26T14:36:44.049Z</time></trkpt><trkpt lat="44.9814857" lon="8.327564"><ele>236.0</ele><time>2026-03-26T14:36:45.049Z</time></trkpt><trkpt lat="44.981517" lon="8.3276686"><ele>236.0</ele><time>2026-03-26T14:36:46.049Z</time></trkpt><trkpt lat="44.9815685" lon="8.3277697"><ele>236.0</ele><time>2026-03-26T14:36:47.049Z</time></trkpt><trkpt lat="44.9816385" lon="8.3278553"><ele>236.00000000000003</ele><time>2026-03-26T14:36:48.049Z</time></trkpt><trkpt lat="44.9817221" lon="8.3279224"><ele>236.0</ele><time>2026-03-26T14:36:49.049Z</time></trkpt><trkpt lat="44.981816" lon="8.3279779"><ele>236.0</ele><time>2026-03-26T14:36:50.049Z</time></trkpt><trkpt lat="44.981914" lon="8.3280308"><ele>236.0</ele><time>2026-03-26T14:36:51.049Z</time></trkpt><trkpt lat="44.9820208" lon="8.3280787"><ele>236.0</ele><time>2026-03-26T14:36:52.049Z</time></trkpt><trkpt lat="44.9821355" lon="8.3281274"><ele>236.0</ele><time>2026-03-26T14:36:53.049Z</time></trkpt><trkpt lat="44.9822523" lon="8.3281756"><ele>233.75</ele><time>2026-03-26T14:36:54.049Z</time></trkpt><trkpt lat="44.9823698" lon="8.3282214"><ele>231.5</ele><time>2026-03-26T14:36:55.05Z</time></trkpt><trkpt lat="44.9824895" lon="8.3282663"><ele>229.25</ele><time>2026-03-26T14:36:56.048Z</time></trkpt><trkpt lat="44.982611" lon="8.3283153"><ele>227.0</ele><time>2026-03-26T14:36:57.048Z</time></trkpt><trkpt lat="44.9827344" lon="8.328362"><ele>226.5</ele><time>2026-03-26T14:36:58.048Z</time></trkpt><trkpt lat="44.9828608" lon="8.3284119"><ele>226.0</ele><time>2026-03-26T14:36:59.049Z</time></trkpt><trkpt lat="44.9829897" lon="8.3284626"><ele>225.5</ele><time>2026-03-26T14:37:00.049Z</time></trkpt><trkpt lat="44.9831154" lon="8.3285096"><ele>225.0</ele><time>2026-03-26T14:37:01.049Z</time></trkpt><trkpt lat="44.9832313" lon="8.3285555"><ele>225.0</ele><time>2026-03-26T14:37:02.049Z</time></trkpt><trkpt lat="44.9833417" lon="8.3286002"><ele>225.0</ele><time>2026-03-26T14:37:03.049Z</time></trkpt><trkpt lat="44.983449" lon="8.328642"><ele>225.0</ele><time>2026-03-26T14:37:04.049Z</time></trkpt><trkpt lat="44.9835516" lon="8.3286804"><ele>225.0</ele><time>2026-03-26T14:37:05.049Z</time></trkpt><trkpt lat="44.9836516" lon="8.328717"><ele>225.0</ele><time>2026-03-26T14:37:06.049Z</time></trkpt><trkpt lat="44.9837576" lon="8.3287669"><ele>225.0</ele><time>2026-03-26T14:37:07.049Z</time></trkpt><trkpt lat="44.9838756" lon="8.3288226"><ele>225.0</ele><time>2026-03-26T14:37:08.049Z</time></trkpt><trkpt lat="44.9839828" lon="8.3288717"><ele>225.0</ele><time>2026-03-26T14:37:09.049Z</time></trkpt><trkpt lat="44.9840889" lon="8.328929"><ele>225.0</ele><time>2026-03-26T14:37:10.049Z</time></trkpt><trkpt lat="44.9842099" lon="8.32901"><ele>225.2</ele><time>2026-03-26T14:37:11.049Z</time></trkpt><trkpt lat="44.9843145" lon="8.3290874"><ele>225.4</ele><time>2026-03-26T14:37:12.048Z</time></trkpt><trkpt lat="44.9844078" lon="8.329158"><ele>225.60000000000002</ele><time>2026-03-26T14:37:13.049Z</time></trkpt><trkpt lat="44.9844862" lon="8.3292224"><ele>225.8</ele><time>2026-03-26T14:37:14.048Z</time></trkpt><trkpt lat="44.9845515" lon="8.3292814"><ele>226.0</ele><time>2026-03-26T14:37:15.049Z</time></trkpt><trkpt lat="44.9846107" lon="8.3293386"><ele>225.99999999999997</ele><time>2026-03-26T14:37:16.049Z</time></trkpt><trkpt lat="44.9846643" lon="8.3293917"><ele>226.0</ele><time>2026-03-26T14:37:17.049Z</time></trkpt><trkpt lat="44.9847212" lon="8.3294518"><ele>226.0</ele><time>2026-03-26T14:37:18.049Z</time></trkpt><trkpt lat="44.9847801" lon="8.3295174"><ele>226.0</ele><time>2026-03-26T14:37:19.049Z</time></trkpt><trkpt lat="44.9848383" lon="8.3295836"><ele>225.99999999999997</ele><time>2026-03-26T14:37:20.048Z</time></trkpt><trkpt lat="44.9849175" lon="8.3297231"><ele>226.0</ele><time>2026-03-26T14:37:22.049Z</time></trkpt><trkpt lat="44.9849343" lon="8.3298238"><ele>225.60000000000002</ele><time>2026-03-26T14:37:23.049Z</time></trkpt><trkpt lat="44.9849403" lon="8.3299387"><ele>225.20000000000002</ele><time>2026-03-26T14:37:24.049Z</time></trkpt><trkpt lat="44.9849347" lon="8.3300608"><ele>224.79999999999998</ele><time>2026-03-26T14:37:25.049Z</time></trkpt><trkpt lat="44.9849119" lon="8.3301904"><ele>224.39999999999998</ele><time>2026-03-26T14:37:26.049Z</time></trkpt><trkpt lat="44.9848729" lon="8.3303279"><ele>224.0</ele><time>2026-03-26T14:37:27.049Z</time></trkpt><trkpt lat="44.9848288" lon="8.3304684"><ele>224.39999999999998</ele><time>2026-03-26T14:37:28.049Z</time></trkpt><trkpt lat="44.9847858" lon="8.3306056"><ele>224.79999999999998</ele><time>2026-03-26T14:37:29.049Z</time></trkpt><trkpt lat="44.9847424" lon="8.3307299"><ele>225.20000000000002</ele><time>2026-03-26T14:37:30.049Z</time></trkpt><trkpt lat="44.9847009" lon="8.3308533"><ele>225.60000000000002</ele><time>2026-03-26T14:37:31.049Z</time></trkpt><trkpt lat="44.9846575" lon="8.3309815"><ele>226.0</ele><time>2026-03-26T14:37:32.048Z</time></trkpt><trkpt lat="44.9846138" lon="8.3311197"><ele>226.0</ele><time>2026-03-26T14:37:33.049Z</time></trkpt><trkpt lat="44.9845719" lon="8.3312536"><ele>226.00000000000003</ele><time>2026-03-26T14:37:34.048Z</time></trkpt><trkpt lat="44.9845332" lon="8.3313767"><ele>226.00000000000003</ele><time>2026-03-26T14:37:35.049Z</time></trkpt><trkpt lat="44.9844914" lon="8.3315052"><ele>226.0</ele><time>2026-03-26T14:37:36.049Z</time></trkpt><trkpt lat="44.9844444" lon="8.3316316"><ele>226.0</ele><time>2026-03-26T14:37:37.049Z</time></trkpt><trkpt lat="44.984396" lon="8.3317543"><ele>226.0</ele><time>2026-03-26T14:37:38.049Z</time></trkpt><trkpt lat="44.9843532" lon="8.3318757"><ele>226.00000000000003</ele><time>2026-03-26T14:37:39.049Z</time></trkpt><trkpt lat="44.9843082" lon="8.3320038"><ele>226.00000000000003</ele><time>2026-03-26T14:37:40.049Z</time></trkpt><trkpt lat="44.9842603" lon="8.3321306"><ele>226.0</ele><time>2026-03-26T14:37:41.049Z</time></trkpt><trkpt lat="44.984213" lon="8.3322595"><ele>226.0</ele><time>2026-03-26T14:37:42.049Z</time></trkpt><trkpt lat="44.9841654" lon="8.3323876"><ele>226.0</ele><time>2026-03-26T14:37:43.049Z</time></trkpt><trkpt lat="44.984117" lon="8.3325068"><ele>226.00000000000003</ele><time>2026-03-26T14:37:44.049Z</time></trkpt><trkpt lat="44.9840682" lon="8.3326236"><ele>226.00000000000003</ele><time>2026-03-26T14:37:45.048Z</time></trkpt><trkpt lat="44.9840178" lon="8.3327396"><ele>226.0</ele><time>2026-03-26T14:37:46.049Z</time></trkpt><trkpt lat="44.983968" lon="8.3328549"><ele>226.0</ele><time>2026-03-26T14:37:47.048Z</time></trkpt><trkpt lat="44.983922" lon="8.3329752"><ele>225.4</ele><time>2026-03-26T14:37:48.049Z</time></trkpt><trkpt lat="44.9838774" lon="8.3330949"><ele>224.8</ele><time>2026-03-26T14:37:49.049Z</time></trkpt><trkpt lat="44.9838357" lon="8.3332231"><ele>224.20000000000002</ele><time>2026-03-26T14:37:50.049Z</time></trkpt><trkpt lat="44.9838006" lon="8.3333538"><ele>223.60000000000002</ele><time>2026-03-26T14:37:51.049Z</time></trkpt><trkpt lat="44.9837767" lon="8.3334824"><ele>223.0</ele><time>2026-03-26T14:37:52.048Z</time></trkpt><trkpt lat="44.9837637" lon="8.3336122"><ele>222.99999999999997</ele><time>2026-03-26T14:37:53.049Z</time></trkpt><trkpt lat="44.983752" lon="8.3337313"><ele>223.0</ele><time>2026-03-26T14:37:54.049Z</time></trkpt><trkpt lat="44.9837459" lon="8.3338404"><ele>223.0</ele><time>2026-03-26T14:37:55.049Z</time></trkpt><trkpt lat="44.9837472" lon="8.333956"><ele>223.0</ele><time>2026-03-26T14:37:56.049Z</time></trkpt><trkpt lat="44.9837498" lon="8.3340586"><ele>222.99999999999997</ele><time>2026-03-26T14:37:57.049Z</time></trkpt><trkpt lat="44.9837526" lon="8.3341503"><ele>223.0</ele><time>2026-03-26T14:37:58.049Z</time></trkpt><trkpt lat="44.9837553" lon="8.3343203"><ele>222.8</ele><time>2026-03-26T14:38:00.049Z</time></trkpt><trkpt lat="44.9837538" lon="8.33446"><ele>222.60000000000002</ele><time>2026-03-26T14:38:02.048Z</time></trkpt><trkpt lat="44.9837663" lon="8.3345908"><ele>222.39999999999998</ele><time>2026-03-26T14:38:04.049Z</time></trkpt><trkpt lat="44.9838178" lon="8.3347186"><ele>222.2</ele><time>2026-03-26T14:38:06.048Z</time></trkpt><trkpt lat="44.9838987" lon="8.3348437"><ele>222.0</ele><time>2026-03-26T14:38:08.049Z</time></trkpt><trkpt lat="44.9839424" lon="8.3349099"><ele>222.39999999999998</ele><time>2026-03-26T14:38:09.048Z</time></trkpt><trkpt lat="44.9840256" lon="8.3350423"><ele>222.79999999999998</ele><time>2026-03-26T14:38:11.049Z</time></trkpt><trkpt lat="44.9840968" lon="8.3351566"><ele>223.2</ele><time>2026-03-26T14:38:13.049Z</time></trkpt><trkpt lat="44.9841363" lon="8.3352295"><ele>223.6</ele><time>2026-03-26T14:38:14.049Z</time></trkpt><trkpt lat="44.9842069" lon="8.3353755"><ele>224.0</ele><time>2026-03-26T14:38:16.049Z</time></trkpt><trkpt lat="44.9842445" lon="8.3354579"><ele>222.71428571428572</ele><time>2026-03-26T14:38:17.049Z</time></trkpt><trkpt lat="44.9842742" lon="8.3355429"><ele>221.42857142857144</ele><time>2026-03-26T14:38:18.049Z</time></trkpt><trkpt lat="44.9843052" lon="8.3356327"><ele>220.14285714285714</ele><time>2026-03-26T14:38:19.048Z</time></trkpt><trkpt lat="44.9843343" lon="8.3357237"><ele>218.85714285714286</ele><time>2026-03-26T14:38:20.049Z</time></trkpt><trkpt lat="44.9843666" lon="8.3358191"><ele>217.57142857142858</ele><time>2026-03-26T14:38:21.048Z</time></trkpt><trkpt lat="44.9844055" lon="8.335917"><ele>216.28571428571428</ele><time>2026-03-26T14:38:22.05Z</time></trkpt><trkpt lat="44.9844447" lon="8.3360062"><ele>215.0</ele><time>2026-03-26T14:38:23.049Z</time></trkpt><trkpt lat="44.9844862" lon="8.3360965"><ele>215.00000000000003</ele><time>2026-03-26T14:38:24.048Z</time></trkpt><trkpt lat="44.9845309" lon="8.3361927"><ele>215.0</ele><time>2026-03-26T14:38:25.049Z</time></trkpt><trkpt lat="44.9845762" lon="8.3362893"><ele>215.0</ele><time>2026-03-26T14:38:26.049Z</time></trkpt><trkpt lat="44.984626" lon="8.3363726"><ele>215.0</ele><time>2026-03-26T14:38:27.049Z</time></trkpt><trkpt lat="44.9846709" lon="8.3364497"><ele>215.00000000000003</ele><time>2026-03-26T14:38:28.049Z</time></trkpt><trkpt lat="44.984708" lon="8.3365247"><ele>215.0</ele><time>2026-03-26T14:38:29.049Z</time></trkpt><trkpt lat="44.9847455" lon="8.3366682"><ele>217.5</ele><time>2026-03-26T14:38:31.049Z</time></trkpt><trkpt lat="44.9847396" lon="8.3368257"><ele>220.0</ele><time>2026-03-26T14:38:33.049Z</time></trkpt><trkpt lat="44.984726" lon="8.3370035"><ele>222.5</ele><time>2026-03-26T14:38:35.049Z</time></trkpt><trkpt lat="44.9846939" lon="8.3371703"><ele>225.0</ele><time>2026-03-26T14:38:37.049Z</time></trkpt><trkpt lat="44.9846658" lon="8.3373156"><ele>225.0</ele><time>2026-03-26T14:38:39.049Z</time></trkpt><trkpt lat="44.9846467" lon="8.337403"><ele>225.0</ele><time>2026-03-26T14:38:41.049Z</time></trkpt><trkpt lat="44.9846294" lon="8.3375077"><ele>225.0</ele><time>2026-03-26T14:38:44.049Z</time></trkpt><trkpt lat="44.9846171" lon="8.3376137"><ele>225.0</ele><time>2026-03-26T14:38:47.05Z</time></trkpt><trkpt lat="44.9846066" lon="8.3377271"><ele>225.0</ele><time>2026-03-26T14:38:49.049Z</time></trkpt><trkpt lat="44.9846043" lon="8.3378279"><ele>225.0</ele><time>2026-03-26T14:38:51.049Z</time></trkpt><trkpt lat="44.984607" lon="8.3379465"><ele>225.0</ele><time>2026-03-26T14:38:53.049Z</time></trkpt><trkpt lat="44.9846063" lon="8.3380494"><ele>225.0</ele><time>2026-03-26T14:38:55.05Z</time></trkpt><trkpt lat="44.9846047" lon="8.3381556"><ele>225.0</ele><time>2026-03-26T14:38:57.049Z</time></trkpt><trkpt lat="44.9845908" lon="8.3383001"><ele>225.0</ele><time>2026-03-26T14:39:00.049Z</time></trkpt><trkpt lat="44.9845767" lon="8.3384184"><ele>225.0</ele><time>2026-03-26T14:39:02.049Z</time></trkpt><trkpt lat="44.9845506" lon="8.338547"><ele>225.0</ele><time>2026-03-26T14:39:04.049Z</time></trkpt><trkpt lat="44.9845268" lon="8.3386661"><ele>224.6</ele><time>2026-03-26T14:39:06.049Z</time></trkpt><trkpt lat="44.9845032" lon="8.3388207"><ele>224.2</ele><time>2026-03-26T14:39:08.048Z</time></trkpt><trkpt lat="44.9844877" lon="8.3389895"><ele>223.8</ele><time>2026-03-26T14:39:10.049Z</time></trkpt><trkpt lat="44.984478" lon="8.339126"><ele>223.4</ele><time>2026-03-26T14:39:12.049Z</time></trkpt><trkpt lat="44.9844722" lon="8.3392676"><ele>223.0</ele><time>2026-03-26T14:39:14.049Z</time></trkpt><trkpt lat="44.984467" lon="8.3393995"><ele>222.66666666666666</ele><time>2026-03-26T14:39:16.049Z</time></trkpt><trkpt lat="44.9844482" lon="8.3395635"><ele>222.33333333333331</ele><time>2026-03-26T14:39:18.049Z</time></trkpt><trkpt lat="44.9844418" lon="8.3396591"><ele>222.0</ele><time>2026-03-26T14:39:19.048Z</time></trkpt><trkpt lat="44.9844348" lon="8.3397552"><ele>221.66666666666669</ele><time>2026-03-26T14:39:20.049Z</time></trkpt><trkpt lat="44.9844282" lon="8.3398549"><ele>221.33333333333334</ele><time>2026-03-26T14:39:21.049Z</time></trkpt><trkpt lat="44.9844229" lon="8.34001"><ele>221.0</ele><time>2026-03-26T14:39:23.049Z</time></trkpt><trkpt lat="44.9844096" lon="8.3401488"><ele>220.83333333333334</ele><time>2026-03-26T14:39:25.049Z</time></trkpt><trkpt lat="44.9843959" lon="8.3402707"><ele>220.66666666666669</ele><time>2026-03-26T14:39:27.049Z</time></trkpt><trkpt lat="44.9843804" lon="8.340388"><ele>220.5</ele><time>2026-03-26T14:39:29.049Z</time></trkpt><trkpt lat="44.9843672" lon="8.3404854"><ele>220.33333333333331</ele><time>2026-03-26T14:39:31.049Z</time></trkpt><trkpt lat="44.9843495" lon="8.3405927"><ele>220.16666666666666</ele><time>2026-03-26T14:39:34.048Z</time></trkpt><trkpt lat="44.984325" lon="8.3406759"><ele>220.0</ele><time>2026-03-26T14:39:37.049Z</time></trkpt><trkpt lat="44.9842654" lon="8.3407307"><ele>219.83333333333331</ele><time>2026-03-26T14:42:45.05Z</time></trkpt><trkpt lat="44.9843166" lon="8.3408031"><ele>219.66666666666666</ele><time>2026-03-26T14:42:53.05Z</time></trkpt><trkpt lat="44.9842908" lon="8.3409478"><ele>219.5</ele><time>2026-03-26T14:42:55.05Z</time></trkpt><trkpt lat="44.9842786" lon="8.3410423"><ele>219.33333333333331</ele><time>2026-03-26T14:42:56.05Z</time></trkpt><trkpt lat="44.9842653" lon="8.3411507"><ele>219.16666666666666</ele><time>2026-03-26T14:42:57.049Z</time></trkpt><trkpt lat="44.9842528" lon="8.3412469"><ele>219.0</ele><time>2026-03-26T14:42:58.05Z</time></trkpt><trkpt lat="44.9842485" lon="8.341339"><ele>219.79999999999998</ele><time>2026-03-26T14:42:59.051Z</time></trkpt><trkpt lat="44.9842241" lon="8.3415104"><ele>220.59999999999997</ele><time>2026-03-26T14:43:01.049Z</time></trkpt><trkpt lat="44.9842002" lon="8.3416061"><ele>221.4</ele><time>2026-03-26T14:43:02.05Z</time></trkpt><trkpt lat="44.9841791" lon="8.3417185"><ele>222.2</ele><time>2026-03-26T14:43:03.05Z</time></trkpt><trkpt lat="44.9841615" lon="8.3418437"><ele>223.0</ele><time>2026-03-26T14:43:04.05Z</time></trkpt><trkpt lat="44.9841416" lon="8.3419782"><ele>222.99999999999997</ele><time>2026-03-26T14:43:05.051Z</time></trkpt><trkpt lat="44.9841236" lon="8.3421031"><ele>223.0</ele><time>2026-03-26T14:43:06.049Z</time></trkpt><trkpt lat="44.9841066" lon="8.3422259"><ele>223.0</ele><time>2026-03-26T14:43:07.05Z</time></trkpt><trkpt lat="44.9840976" lon="8.3423559"><ele>223.0</ele><time>2026-03-26T14:43:08.05Z</time></trkpt><trkpt lat="44.9840914" lon="8.3424744"><ele>222.99999999999997</ele><time>2026-03-26T14:43:09.05Z</time></trkpt><trkpt lat="44.9840846" lon="8.342578"><ele>223.0</ele><time>2026-03-26T14:43:10.05Z</time></trkpt><trkpt lat="44.9840458" lon="8.3427283"><ele>223.16666666666666</ele><time>2026-03-26T14:43:12.049Z</time></trkpt><trkpt lat="44.984022" lon="8.3428787"><ele>223.33333333333331</ele><time>2026-03-26T14:43:14.05Z</time></trkpt><trkpt lat="44.9840197" lon="8.3429772"><ele>223.5</ele><time>2026-03-26T14:43:15.05Z</time></trkpt><trkpt lat="44.9840166" lon="8.3430874"><ele>223.66666666666669</ele><time>2026-03-26T14:43:16.05Z</time></trkpt><trkpt lat="44.9840077" lon="8.3431986"><ele>223.83333333333334</ele><time>2026-03-26T14:43:17.05Z</time></trkpt><trkpt lat="44.9840011" lon="8.3433267"><ele>224.0</ele><time>2026-03-26T14:43:18.05Z</time></trkpt><trkpt lat="44.983987" lon="8.3434712"><ele>225.39999999999998</ele><time>2026-03-26T14:43:19.049Z</time></trkpt><trkpt lat="44.9839712" lon="8.3436251"><ele>226.79999999999998</ele><time>2026-03-26T14:43:20.05Z</time></trkpt><trkpt lat="44.9839531" lon="8.3437908"><ele>228.20000000000002</ele><time>2026-03-26T14:43:21.049Z</time></trkpt><trkpt lat="44.9839355" lon="8.3439416"><ele>229.60000000000002</ele><time>2026-03-26T14:43:22.05Z</time></trkpt><trkpt lat="44.9839218" lon="8.344085"><ele>231.0</ele><time>2026-03-26T14:43:23.05Z</time></trkpt><trkpt lat="44.9839102" lon="8.3442091"><ele>231.66666666666666</ele><time>2026-03-26T14:43:24.049Z</time></trkpt><trkpt lat="44.9838899" lon="8.3443434"><ele>232.33333333333331</ele><time>2026-03-26T14:43:25.05Z</time></trkpt><trkpt lat="44.9838671" lon="8.3444797"><ele>233.0</ele><time>2026-03-26T14:43:26.049Z</time></trkpt><trkpt lat="44.9838468" lon="8.3446038"><ele>233.66666666666666</ele><time>2026-03-26T14:43:27.05Z</time></trkpt><trkpt lat="44.9838283" lon="8.3447197"><ele>234.33333333333331</ele><time>2026-03-26T14:43:28.049Z</time></trkpt><trkpt lat="44.9838169" lon="8.3448112"><ele>235.0</ele><time>2026-03-26T14:43:29.05Z</time></trkpt><trkpt lat="44.9837974" lon="8.344907"><ele>235.83333333333331</ele><time>2026-03-26T14:43:30.05Z</time></trkpt><trkpt lat="44.983765" lon="8.3450886"><ele>236.66666666666666</ele><time>2026-03-26T14:43:32.049Z</time></trkpt><trkpt lat="44.9837426" lon="8.345186"><ele>237.5</ele><time>2026-03-26T14:43:33.05Z</time></trkpt><trkpt lat="44.9837214" lon="8.3452882"><ele>238.33333333333331</ele><time>2026-03-26T14:43:34.049Z</time></trkpt><trkpt lat="44.9837006" lon="8.3453938"><ele>239.16666666666666</ele><time>2026-03-26T14:43:35.05Z</time></trkpt><trkpt lat="44.9836765" lon="8.3454896"><ele>240.0</ele><time>2026-03-26T14:43:36.05Z</time></trkpt><trkpt lat="44.983649" lon="8.3455874"><ele>241.0</ele><time>2026-03-26T14:43:37.05Z</time></trkpt><trkpt lat="44.9836007" lon="8.3457277"><ele>242.0</ele><time>2026-03-26T14:43:39.05Z</time></trkpt><trkpt lat="44.9835663" lon="8.3458577"><ele>243.0</ele><time>2026-03-26T14:43:41.05Z</time></trkpt><trkpt lat="44.9835239" lon="8.3459496"><ele>244.0</ele><time>2026-03-26T14:43:43.05Z</time></trkpt><trkpt lat="44.983461" lon="8.3460329"><ele>245.0</ele><time>2026-03-26T14:43:46.05Z</time></trkpt><trkpt lat="44.9835352" lon="8.3459529"><ele>245.00000000000003</ele><time>2026-03-26T14:43:53.05Z</time></trkpt><trkpt lat="44.9835687" lon="8.3458527"><ele>245.0</ele><time>2026-03-26T14:43:55.05Z</time></trkpt><trkpt lat="44.9836022" lon="8.3457377"><ele>245.0</ele><time>2026-03-26T14:43:58.05Z</time></trkpt><trkpt lat="44.9836303" lon="8.3456488"><ele>245.0</ele><time>2026-03-26T14:44:00.05Z</time></trkpt><trkpt lat="44.9836615" lon="8.3455585"><ele>245.00000000000003</ele><time>2026-03-26T14:44:02.05Z</time></trkpt><trkpt lat="44.9836887" lon="8.3454513"><ele>245.0</ele><time>2026-03-26T14:44:04.05Z</time></trkpt><trkpt lat="44.9837162" lon="8.3453259"><ele>244.0</ele><time>2026-03-26T14:44:06.049Z</time></trkpt><trkpt lat="44.9837466" lon="8.3451933"><ele>243.0</ele><time>2026-03-26T14:44:08.05Z</time></trkpt><trkpt lat="44.9837757" lon="8.3450626"><ele>242.0</ele><time>2026-03-26T14:44:10.05Z</time></trkpt><trkpt lat="44.9837987" lon="8.3449329"><ele>241.0</ele><time>2026-03-26T14:44:12.05Z</time></trkpt><trkpt lat="44.9838269" lon="8.3447912"><ele>240.0</ele><time>2026-03-26T14:44:14.05Z</time></trkpt><trkpt lat="44.9838529" lon="8.3446419"><ele>238.75</ele><time>2026-03-26T14:44:16.051Z</time></trkpt><trkpt lat="44.9838774" lon="8.3444849"><ele>237.5</ele><time>2026-03-26T14:44:18.049Z</time></trkpt><trkpt lat="44.9839018" lon="8.3443268"><ele>236.25</ele><time>2026-03-26T14:44:20.05Z</time></trkpt><trkpt lat="44.9839219" lon="8.3441629"><ele>235.0</ele><time>2026-03-26T14:44:22.05Z</time></trkpt><trkpt lat="44.9839428" lon="8.3439926"><ele>234.99999999999997</ele><time>2026-03-26T14:44:24.05Z</time></trkpt><trkpt lat="44.9839547" lon="8.3439011"><ele>235.0</ele><time>2026-03-26T14:44:25.049Z</time></trkpt><trkpt lat="44.9839747" lon="8.343725"><ele>235.0</ele><time>2026-03-26T14:44:27.051Z</time></trkpt><trkpt lat="44.9839842" lon="8.343634"><ele>235.0</ele><time>2026-03-26T14:44:28.05Z</time></trkpt><trkpt lat="44.9839944" lon="8.3435295"><ele>234.99999999999997</ele><time>2026-03-26T14:44:29.05Z</time></trkpt><trkpt lat="44.9840029" lon="8.3434293"><ele>235.0</ele><time>2026-03-26T14:44:30.05Z</time></trkpt><trkpt lat="44.984014" lon="8.3433342"><ele>234.33333333333331</ele><time>2026-03-26T14:44:31.049Z</time></trkpt><trkpt lat="44.9840192" lon="8.3432329"><ele>233.66666666666666</ele><time>2026-03-26T14:44:32.05Z</time></trkpt><trkpt lat="44.9840197" lon="8.3431409"><ele>233.0</ele><time>2026-03-26T14:44:33.049Z</time></trkpt><trkpt lat="44.9840195" lon="8.3430517"><ele>232.33333333333331</ele><time>2026-03-26T14:44:34.05Z</time></trkpt><trkpt lat="44.9840231" lon="8.342916"><ele>231.66666666666666</ele><time>2026-03-26T14:44:36.05Z</time></trkpt><trkpt lat="44.9840301" lon="8.342809"><ele>231.0</ele><time>2026-03-26T14:44:38.05Z</time></trkpt><trkpt lat="44.9840574" lon="8.3426995"><ele>229.60000000000002</ele><time>2026-03-26T14:44:41.049Z</time></trkpt><trkpt lat="44.9841317" lon="8.3427102"><ele>228.20000000000002</ele><time>2026-03-26T14:44:45.049Z</time></trkpt><trkpt lat="44.9841818" lon="8.3428438"><ele>226.79999999999998</ele><time>2026-03-26T14:44:47.05Z</time></trkpt><trkpt lat="44.9842191" lon="8.3429179"><ele>225.39999999999998</ele><time>2026-03-26T14:44:48.049Z</time></trkpt><trkpt lat="44.9842731" lon="8.3430654"><ele>224.0</ele><time>2026-03-26T14:44:50.049Z</time></trkpt><trkpt lat="44.9842943" lon="8.3432602"><ele>221.66666666666669</ele><time>2026-03-26T14:44:52.05Z</time></trkpt><trkpt lat="44.9842993" lon="8.3433888"><ele>219.33333333333334</ele><time>2026-03-26T14:44:53.05Z</time></trkpt><trkpt lat="44.9843022" lon="8.3435182"><ele>217.0</ele><time>2026-03-26T14:44:54.05Z</time></trkpt><trkpt lat="44.9843047" lon="8.3436423"><ele>214.66666666666669</ele><time>2026-03-26T14:44:55.05Z</time></trkpt><trkpt lat="44.9843106" lon="8.3437626"><ele>212.33333333333334</ele><time>2026-03-26T14:44:56.05Z</time></trkpt><trkpt lat="44.9843263" lon="8.3438709"><ele>210.0</ele><time>2026-03-26T14:44:57.049Z</time></trkpt><trkpt lat="44.9843564" lon="8.3439917"><ele>210.0</ele><time>2026-03-26T14:44:58.05Z</time></trkpt><trkpt lat="44.9843938" lon="8.3441198"><ele>210.0</ele><time>2026-03-26T14:44:59.05Z</time></trkpt><trkpt lat="44.9844346" lon="8.3442558"><ele>210.0</ele><time>2026-03-26T14:45:00.05Z</time></trkpt><trkpt lat="44.9844848" lon="8.3443939"><ele>210.0</ele><time>2026-03-26T14:45:01.05Z</time></trkpt><trkpt lat="44.9845361" lon="8.3445296"><ele>210.0</ele><time>2026-03-26T14:45:02.049Z</time></trkpt><trkpt lat="44.9845889" lon="8.3446673"><ele>212.0</ele><time>2026-03-26T14:45:03.049Z</time></trkpt><trkpt lat="44.9846467" lon="8.3448015"><ele>214.0</ele><time>2026-03-26T14:45:04.05Z</time></trkpt><trkpt lat="44.9847092" lon="8.3449343"><ele>216.0</ele><time>2026-03-26T14:45:05.05Z</time></trkpt><trkpt lat="44.9847727" lon="8.3450564"><ele>218.0</ele><time>2026-03-26T14:45:06.049Z</time></trkpt><trkpt lat="44.9848446" lon="8.3451764"><ele>220.0</ele><time>2026-03-26T14:45:07.05Z</time></trkpt><trkpt lat="44.9849233" lon="8.3452867"><ele>219.99999999999997</ele><time>2026-03-26T14:45:08.05Z</time></trkpt><trkpt lat="44.9849948" lon="8.3453842"><ele>220.0</ele><time>2026-03-26T14:45:09.049Z</time></trkpt><trkpt lat="44.9850701" lon="8.3454852"><ele>220.0</ele><time>2026-03-26T14:45:10.05Z</time></trkpt><trkpt lat="44.9851349" lon="8.3455774"><ele>220.0</ele><time>2026-03-26T14:45:11.05Z</time></trkpt><trkpt lat="44.9851881" lon="8.3456661"><ele>219.99999999999997</ele><time>2026-03-26T14:45:12.05Z</time></trkpt><trkpt lat="44.9852252" lon="8.3457534"><ele>220.0</ele><time>2026-03-26T14:45:13.05Z</time></trkpt><trkpt lat="44.9852439" lon="8.3458489"><ele>219.33333333333331</ele><time>2026-03-26T14:45:14.05Z</time></trkpt><trkpt lat="44.9852359" lon="8.3459376"><ele>218.66666666666666</ele><time>2026-03-26T14:45:15.05Z</time></trkpt><trkpt lat="44.9852119" lon="8.3460415"><ele>218.0</ele><time>2026-03-26T14:45:16.049Z</time></trkpt><trkpt lat="44.9852003" lon="8.3461481"><ele>217.33333333333331</ele><time>2026-03-26T14:45:17.049Z</time></trkpt><trkpt lat="44.9852046" lon="8.3462656"><ele>216.66666666666666</ele><time>2026-03-26T14:45:18.05Z</time></trkpt><trkpt lat="44.9852095" lon="8.3463971"><ele>216.0</ele><time>2026-03-26T14:45:19.05Z</time></trkpt><trkpt lat="44.9852057" lon="8.3465318"><ele>216.0</ele><time>2026-03-26T14:45:20.05Z</time></trkpt><trkpt lat="44.9851941" lon="8.3466598"><ele>216.00000000000003</ele><time>2026-03-26T14:45:21.05Z</time></trkpt><trkpt lat="44.9851673" lon="8.3467896"><ele>216.00000000000003</ele><time>2026-03-26T14:45:22.05Z</time></trkpt><trkpt lat="44.9851266" lon="8.3469062"><ele>216.0</ele><time>2026-03-26T14:45:23.05Z</time></trkpt><trkpt lat="44.9850694" lon="8.3470217"><ele>216.0</ele><time>2026-03-26T14:45:24.05Z</time></trkpt><trkpt lat="44.985002" lon="8.3471365"><ele>217.4</ele><time>2026-03-26T14:45:25.05Z</time></trkpt><trkpt lat="44.9849289" lon="8.3472574"><ele>218.8</ele><time>2026-03-26T14:45:26.049Z</time></trkpt><trkpt lat="44.9848609" lon="8.3473793"><ele>220.20000000000002</ele><time>2026-03-26T14:45:27.05Z</time></trkpt><trkpt lat="44.9847971" lon="8.3475089"><ele>221.60000000000002</ele><time>2026-03-26T14:45:28.05Z</time></trkpt><trkpt lat="44.9847387" lon="8.3476436"><ele>223.0</ele><time>2026-03-26T14:45:29.05Z</time></trkpt><trkpt lat="44.9846846" lon="8.3477917"><ele>223.0</ele><time>2026-03-26T14:45:30.05Z</time></trkpt><trkpt lat="44.9846314" lon="8.3479314"><ele>223.0</ele><time>2026-03-26T14:45:31.05Z</time></trkpt><trkpt lat="44.9845784" lon="8.3480701"><ele>223.0</ele><time>2026-03-26T14:45:32.05Z</time></trkpt><trkpt lat="44.9845237" lon="8.3482136"><ele>223.0</ele><time>2026-03-26T14:45:33.049Z</time></trkpt><trkpt lat="44.9844648" lon="8.3483458"><ele>222.60000000000002</ele><time>2026-03-26T14:45:34.05Z</time></trkpt><trkpt lat="44.984404" lon="8.3484609"><ele>222.20000000000002</ele><time>2026-03-26T14:45:35.051Z</time></trkpt><trkpt lat="44.9843331" lon="8.3485559"><ele>221.8</ele><time>2026-03-26T14:45:36.05Z</time></trkpt><trkpt lat="44.9842567" lon="8.3486395"><ele>221.4</ele><time>2026-03-26T14:45:37.049Z</time></trkpt><trkpt lat="44.9841791" lon="8.3487129"><ele>221.0</ele><time>2026-03-26T14:45:38.051Z</time></trkpt><trkpt lat="44.9841069" lon="8.3487699"><ele>221.66666666666669</ele><time>2026-03-26T14:45:39.05Z</time></trkpt><trkpt lat="44.9840424" lon="8.3488174"><ele>222.33333333333334</ele><time>2026-03-26T14:45:40.05Z</time></trkpt><trkpt lat="44.9839456" lon="8.3488942"><ele>223.0</ele><time>2026-03-26T14:45:42.05Z</time></trkpt><trkpt lat="44.9838908" lon="8.3489854"><ele>223.66666666666669</ele><time>2026-03-26T14:45:44.05Z</time></trkpt><trkpt lat="44.9839212" lon="8.3490967"><ele>224.33333333333334</ele><time>2026-03-26T14:45:46.05Z</time></trkpt><trkpt lat="44.9839736" lon="8.3491505"><ele>225.0</ele><time>2026-03-26T14:45:47.05Z</time></trkpt><trkpt lat="44.9840415" lon="8.3492122"><ele>223.4</ele><time>2026-03-26T14:45:48.049Z</time></trkpt><trkpt lat="44.9841174" lon="8.3492913"><ele>221.8</ele><time>2026-03-26T14:45:49.05Z</time></trkpt><trkpt lat="44.9841991" lon="8.3493823"><ele>220.2</ele><time>2026-03-26T14:45:50.05Z</time></trkpt><trkpt lat="44.9842859" lon="8.3494829"><ele>218.6</ele><time>2026-03-26T14:45:51.05Z</time></trkpt><trkpt lat="44.9843665" lon="8.3495787"><ele>217.0</ele><time>2026-03-26T14:45:52.05Z</time></trkpt><trkpt lat="44.9844428" lon="8.3496773"><ele>215.39999999999998</ele><time>2026-03-26T14:45:53.05Z</time></trkpt><trkpt lat="44.9845166" lon="8.3497761"><ele>213.79999999999998</ele><time>2026-03-26T14:45:54.05Z</time></trkpt><trkpt lat="44.9845898" lon="8.3498886"><ele>212.2</ele><time>2026-03-26T14:45:55.05Z</time></trkpt><trkpt lat="44.9846607" lon="8.3500117"><ele>210.6</ele><time>2026-03-26T14:45:56.05Z</time></trkpt><trkpt lat="44.9847316" lon="8.3501507"><ele>209.0</ele><time>2026-03-26T14:45:57.049Z</time></trkpt><trkpt lat="44.9847976" lon="8.3502918"><ele>209.0</ele><time>2026-03-26T14:45:58.05Z</time></trkpt><trkpt lat="44.984852" lon="8.3504163"><ele>209.0</ele><time>2026-03-26T14:45:59.05Z</time></trkpt><trkpt lat="44.9849018" lon="8.3505263"><ele>209.0</ele><time>2026-03-26T14:46:00.049Z</time></trkpt><trkpt lat="44.9849443" lon="8.3506124"><ele>209.0</ele><time>2026-03-26T14:46:01.051Z</time></trkpt><trkpt lat="44.9849906" lon="8.3507561"><ele>209.0</ele><time>2026-03-26T14:46:03.049Z</time></trkpt><trkpt lat="44.9849773" lon="8.3509149"><ele>208.25</ele><time>2026-03-26T14:46:05.05Z</time></trkpt><trkpt lat="44.9848933" lon="8.3510645"><ele>207.5</ele><time>2026-03-26T14:46:07.049Z</time></trkpt><trkpt lat="44.9848277" lon="8.3511668"><ele>206.75</ele><time>2026-03-26T14:46:08.049Z</time></trkpt><trkpt lat="44.984739" lon="8.3513033"><ele>206.0</ele><time>2026-03-26T14:46:09.05Z</time></trkpt><trkpt lat="44.9846438" lon="8.3514494"><ele>206.0</ele><time>2026-03-26T14:46:10.05Z</time></trkpt><trkpt lat="44.9845643" lon="8.3515836"><ele>206.0</ele><time>2026-03-26T14:46:11.05Z</time></trkpt><trkpt lat="44.9844914" lon="8.3516953"><ele>206.0</ele><time>2026-03-26T14:46:12.049Z</time></trkpt><trkpt lat="44.9844285" lon="8.3517979"><ele>206.0</ele><time>2026-03-26T14:46:13.05Z</time></trkpt><trkpt lat="44.9843636" lon="8.3518991"><ele>206.0</ele><time>2026-03-26T14:46:14.049Z</time></trkpt><trkpt lat="44.9843078" lon="8.3519835"><ele>206.00000000000003</ele><time>2026-03-26T14:46:15.051Z</time></trkpt><trkpt lat="44.984263" lon="8.3520588"><ele>206.0</ele><time>2026-03-26T14:46:16.05Z</time></trkpt><trkpt lat="44.9842252" lon="8.3521354"><ele>206.0</ele><time>2026-03-26T14:46:17.05Z</time></trkpt><trkpt lat="44.9841948" lon="8.3522185"><ele>206.0</ele><time>2026-03-26T14:46:18.05Z</time></trkpt><trkpt lat="44.9841796" lon="8.3523633"><ele>206.00000000000003</ele><time>2026-03-26T14:46:20.049Z</time></trkpt><trkpt lat="44.984239" lon="8.3524829"><ele>206.0</ele><time>2026-03-26T14:46:22.05Z</time></trkpt><trkpt lat="44.9842806" lon="8.3525989"><ele>205.75</ele><time>2026-03-26T14:46:24.05Z</time></trkpt><trkpt lat="44.9842248" lon="8.3527829"><ele>205.5</ele><time>2026-03-26T14:46:26.05Z</time></trkpt><trkpt lat="44.9841553" lon="8.3529007"><ele>205.25</ele><time>2026-03-26T14:46:27.049Z</time></trkpt><trkpt lat="44.9840729" lon="8.353043"><ele>205.0</ele><time>2026-03-26T14:46:28.049Z</time></trkpt><trkpt lat="44.9839834" lon="8.353208"><ele>205.0</ele><time>2026-03-26T14:46:29.05Z</time></trkpt><trkpt lat="44.98389" lon="8.3533725"><ele>205.0</ele><time>2026-03-26T14:46:30.05Z</time></trkpt><trkpt lat="44.9838027" lon="8.3535299"><ele>205.0</ele><time>2026-03-26T14:46:31.05Z</time></trkpt><trkpt lat="44.9837191" lon="8.3536793"><ele>205.0</ele><time>2026-03-26T14:46:32.05Z</time></trkpt><trkpt lat="44.9836451" lon="8.353811"><ele>205.2</ele><time>2026-03-26T14:46:33.05Z</time></trkpt><trkpt lat="44.9835801" lon="8.3539257"><ele>205.4</ele><time>2026-03-26T14:46:34.05Z</time></trkpt><trkpt lat="44.9835238" lon="8.3540281"><ele>205.60000000000002</ele><time>2026-03-26T14:46:35.049Z</time></trkpt><trkpt lat="44.9834828" lon="8.3541039"><ele>205.8</ele><time>2026-03-26T14:46:36.05Z</time></trkpt><trkpt lat="44.9834227" lon="8.3541892"><ele>206.0</ele><time>2026-03-26T14:46:38.05Z</time></trkpt><trkpt lat="44.9833101" lon="8.3541303"><ele>206.0</ele><time>2026-03-26T14:46:41.05Z</time></trkpt><trkpt lat="44.9832468" lon="8.3540251"><ele>206.0</ele><time>2026-03-26T14:46:42.05Z</time></trkpt><trkpt lat="44.9831634" lon="8.3539006"><ele>206.0</ele><time>2026-03-26T14:46:43.05Z</time></trkpt><trkpt lat="44.9830645" lon="8.3537621"><ele>206.0</ele><time>2026-03-26T14:46:44.049Z</time></trkpt><trkpt lat="44.9829589" lon="8.3536131"><ele>205.25</ele><time>2026-03-26T14:46:45.049Z</time></trkpt><trkpt lat="44.9828605" lon="8.35346"><ele>204.5</ele><time>2026-03-26T14:46:46.05Z</time></trkpt><trkpt lat="44.9827665" lon="8.3533141"><ele>203.75</ele><time>2026-03-26T14:46:47.05Z</time></trkpt><trkpt lat="44.9826764" lon="8.3531795"><ele>203.0</ele><time>2026-03-26T14:46:48.05Z</time></trkpt><trkpt lat="44.9825888" lon="8.3530568"><ele>202.16666666666669</ele><time>2026-03-26T14:46:49.05Z</time></trkpt><trkpt lat="44.9825106" lon="8.3529407"><ele>201.33333333333334</ele><time>2026-03-26T14:46:50.05Z</time></trkpt><trkpt lat="44.9824458" lon="8.3528456"><ele>200.5</ele><time>2026-03-26T14:46:51.049Z</time></trkpt><trkpt lat="44.9823827" lon="8.3527853"><ele>199.66666666666669</ele><time>2026-03-26T14:46:52.05Z</time></trkpt><trkpt lat="44.9823113" lon="8.3527721"><ele>198.83333333333334</ele><time>2026-03-26T14:46:53.05Z</time></trkpt><trkpt lat="44.9822436" lon="8.3528079"><ele>198.0</ele><time>2026-03-26T14:46:54.049Z</time></trkpt><trkpt lat="44.9821826" lon="8.3528858"><ele>198.0</ele><time>2026-03-26T14:46:55.05Z</time></trkpt><trkpt lat="44.9821314" lon="8.3529934"><ele>198.0</ele><time>2026-03-26T14:46:56.05Z</time></trkpt><trkpt lat="44.9820716" lon="8.3531082"><ele>198.0</ele><time>2026-03-26T14:46:57.05Z</time></trkpt><trkpt lat="44.9820017" lon="8.3532224"><ele>198.0</ele><time>2026-03-26T14:46:58.049Z</time></trkpt><trkpt lat="44.9819261" lon="8.3533383"><ele>198.0</ele><time>2026-03-26T14:46:59.049Z</time></trkpt><trkpt lat="44.9818443" lon="8.3534591"><ele>198.25</ele><time>2026-03-26T14:47:00.051Z</time></trkpt><trkpt lat="44.9817572" lon="8.3535913"><ele>198.5</ele><time>2026-03-26T14:47:01.05Z</time></trkpt><trkpt lat="44.9816757" lon="8.3537361"><ele>198.75</ele><time>2026-03-26T14:47:02.049Z</time></trkpt><trkpt lat="44.9816079" lon="8.3538767"><ele>199.0</ele><time>2026-03-26T14:47:03.049Z</time></trkpt><trkpt lat="44.9815414" lon="8.3540184"><ele>198.2</ele><time>2026-03-26T14:47:04.049Z</time></trkpt><trkpt lat="44.9814794" lon="8.3541617"><ele>197.39999999999998</ele><time>2026-03-26T14:47:05.05Z</time></trkpt><trkpt lat="44.9814274" lon="8.354289"><ele>196.6</ele><time>2026-03-26T14:47:06.05Z</time></trkpt><trkpt lat="44.9813783" lon="8.3544069"><ele>195.8</ele><time>2026-03-26T14:47:07.049Z</time></trkpt><trkpt lat="44.9813332" lon="8.3545028"><ele>195.0</ele><time>2026-03-26T14:47:08.05Z</time></trkpt><trkpt lat="44.981254" lon="8.3545999"><ele>195.0</ele><time>2026-03-26T14:47:10.049Z</time></trkpt><trkpt lat="44.9812159" lon="8.3546741"><ele>195.0</ele><time>2026-03-26T14:47:12.049Z</time></trkpt><trkpt lat="44.9812908" lon="8.3546747"><ele>195.0</ele><time>2026-03-26T14:47:15.05Z</time></trkpt><trkpt lat="44.9813527" lon="8.3545189"><ele>195.0</ele><time>2026-03-26T14:47:17.05Z</time></trkpt><trkpt lat="44.9814158" lon="8.3543552"><ele>195.0</ele><time>2026-03-26T14:47:19.049Z</time></trkpt><trkpt lat="44.9814508" lon="8.3542597"><ele>195.0</ele><time>2026-03-26T14:47:20.05Z</time></trkpt><trkpt lat="44.9814958" lon="8.3541499"><ele>195.0</ele><time>2026-03-26T14:47:21.049Z</time></trkpt><trkpt lat="44.9815478" lon="8.3540339"><ele>195.0</ele><time>2026-03-26T14:47:22.049Z</time></trkpt><trkpt lat="44.9816068" lon="8.3539124"><ele>195.0</ele><time>2026-03-26T14:47:23.05Z</time></trkpt><trkpt lat="44.9816728" lon="8.3537882"><ele>195.0</ele><time>2026-03-26T14:47:24.05Z</time></trkpt><trkpt lat="44.9817497" lon="8.3536573"><ele>196.0</ele><time>2026-03-26T14:47:25.05Z</time></trkpt><trkpt lat="44.9818329" lon="8.3535256"><ele>197.0</ele><time>2026-03-26T14:47:26.05Z</time></trkpt><trkpt lat="44.9819158" lon="8.3533955"><ele>198.0</ele><time>2026-03-26T14:47:27.05Z</time></trkpt><trkpt lat="44.9819954" lon="8.3532685"><ele>199.0</ele><time>2026-03-26T14:47:28.05Z</time></trkpt><trkpt lat="44.9820664" lon="8.353147"><ele>198.83333333333331</ele><time>2026-03-26T14:47:29.05Z</time></trkpt><trkpt lat="44.9821276" lon="8.3530384"><ele>198.66666666666666</ele><time>2026-03-26T14:47:30.049Z</time></trkpt><trkpt lat="44.9821821" lon="8.3529421"><ele>198.5</ele><time>2026-03-26T14:47:31.05Z</time></trkpt><trkpt lat="44.982225" lon="8.3528714"><ele>198.33333333333331</ele><time>2026-03-26T14:47:32.05Z</time></trkpt><trkpt lat="44.9822836" lon="8.3528099"><ele>198.16666666666666</ele><time>2026-03-26T14:47:34.05Z</time></trkpt><trkpt lat="44.982277" lon="8.3526851"><ele>198.0</ele><time>2026-03-26T14:47:36.049Z</time></trkpt><trkpt lat="44.982248" lon="8.3525897"><ele>198.0</ele><time>2026-03-26T14:47:37.05Z</time></trkpt><trkpt lat="44.9822162" lon="8.3524838"><ele>198.0</ele><time>2026-03-26T14:47:38.05Z</time></trkpt><trkpt lat="44.9821811" lon="8.352364"><ele>198.0</ele><time>2026-03-26T14:47:39.05Z</time></trkpt><trkpt lat="44.9821446" lon="8.3522399"><ele>198.0</ele><time>2026-03-26T14:47:40.05Z</time></trkpt><trkpt lat="44.9821131" lon="8.3521194"><ele>198.0</ele><time>2026-03-26T14:47:41.05Z</time></trkpt><trkpt lat="44.9820926" lon="8.3520012"><ele>198.0</ele><time>2026-03-26T14:47:42.049Z</time></trkpt><trkpt lat="44.982075" lon="8.3518794"><ele>198.33333333333334</ele><time>2026-03-26T14:47:43.049Z</time></trkpt><trkpt lat="44.9820547" lon="8.3517552"><ele>198.66666666666669</ele><time>2026-03-26T14:47:44.05Z</time></trkpt><trkpt lat="44.9820375" lon="8.351653"><ele>199.0</ele><time>2026-03-26T14:47:45.05Z</time></trkpt><trkpt lat="44.9820201" lon="8.351565"><ele>199.33333333333334</ele><time>2026-03-26T14:47:46.05Z</time></trkpt><trkpt lat="44.9819944" lon="8.3514008"><ele>199.66666666666669</ele><time>2026-03-26T14:47:48.05Z</time></trkpt><trkpt lat="44.9819856" lon="8.35131"><ele>200.0</ele><time>2026-03-26T14:47:49.05Z</time></trkpt><trkpt lat="44.981979" lon="8.3512094"><ele>200.50000000000003</ele><time>2026-03-26T14:47:50.049Z</time></trkpt><trkpt lat="44.9819791" lon="8.3511009"><ele>201.0</ele><time>2026-03-26T14:47:51.05Z</time></trkpt><trkpt lat="44.9819834" lon="8.3509798"><ele>201.5</ele><time>2026-03-26T14:47:52.049Z</time></trkpt><trkpt lat="44.9819963" lon="8.3508533"><ele>202.0</ele><time>2026-03-26T14:47:53.05Z</time></trkpt><trkpt lat="44.9820109" lon="8.3507233"><ele>202.50000000000003</ele><time>2026-03-26T14:47:54.05Z</time></trkpt><trkpt lat="44.9820276" lon="8.3505933"><ele>203.0</ele><time>2026-03-26T14:47:55.05Z</time></trkpt><trkpt lat="44.9820375" lon="8.3504603"><ele>203.8</ele><time>2026-03-26T14:47:56.049Z</time></trkpt><trkpt lat="44.9820462" lon="8.3503287"><ele>204.60000000000002</ele><time>2026-03-26T14:47:57.05Z</time></trkpt><trkpt lat="44.9820526" lon="8.3501942"><ele>205.39999999999998</ele><time>2026-03-26T14:47:58.05Z</time></trkpt><trkpt lat="44.9820551" lon="8.3500545"><ele>206.2</ele><time>2026-03-26T14:47:59.049Z</time></trkpt><trkpt lat="44.9820559" lon="8.3499131"><ele>207.0</ele><time>2026-03-26T14:48:00.05Z</time></trkpt><trkpt lat="44.9820564" lon="8.3497721"><ele>208.66666666666666</ele><time>2026-03-26T14:48:01.05Z</time></trkpt><trkpt lat="44.9820543" lon="8.3496366"><ele>210.33333333333331</ele><time>2026-03-26T14:48:02.049Z</time></trkpt><trkpt lat="44.9820455" lon="8.3495161"><ele>212.0</ele><time>2026-03-26T14:48:03.05Z</time></trkpt><trkpt lat="44.9820299" lon="8.3493968"><ele>213.66666666666666</ele><time>2026-03-26T14:48:04.05Z</time></trkpt><trkpt lat="44.9820112" lon="8.3492766"><ele>215.33333333333331</ele><time>2026-03-26T14:48:05.05Z</time></trkpt><trkpt lat="44.9819919" lon="8.349176"><ele>217.0</ele><time>2026-03-26T14:48:06.05Z</time></trkpt><trkpt lat="44.9819454" lon="8.349005"><ele>217.0</ele><time>2026-03-26T14:48:08.05Z</time></trkpt><trkpt lat="44.9819116" lon="8.3489243"><ele>217.0</ele><time>2026-03-26T14:48:09.05Z</time></trkpt><trkpt lat="44.9818333" lon="8.3487899"><ele>217.0</ele><time>2026-03-26T14:48:11.049Z</time></trkpt><trkpt lat="44.9817572" lon="8.348719"><ele>217.0</ele><time>2026-03-26T14:48:12.05Z</time></trkpt><trkpt lat="44.9816903" lon="8.3486226"><ele>217.0</ele><time>2026-03-26T14:48:14.05Z</time></trkpt><trkpt lat="44.9815885" lon="8.3485135"><ele>217.49999999999997</ele><time>2026-03-26T14:48:16.05Z</time></trkpt><trkpt lat="44.981498" lon="8.3484025"><ele>218.0</ele><time>2026-03-26T14:48:18.05Z</time></trkpt><trkpt lat="44.981437" lon="8.3483251"><ele>218.5</ele><time>2026-03-26T14:48:20.05Z</time></trkpt><trkpt lat="44.9813813" lon="8.3482796"><ele>219.0</ele><time>2026-03-26T14:48:23.05Z</time></trkpt><trkpt lat="44.9813842" lon="8.3483761"><ele>219.49999999999997</ele><time>2026-03-26T14:48:27.051Z</time></trkpt><trkpt lat="44.9814582" lon="8.3483832"><ele>220.0</ele><time>2026-03-26T14:48:29.049Z</time></trkpt><trkpt lat="44.9815588" lon="8.3484698"><ele>220.0</ele><time>2026-03-26T14:48:31.05Z</time></trkpt><trkpt lat="44.9816112" lon="8.3485393"><ele>220.0</ele><time>2026-03-26T14:48:32.05Z</time></trkpt><trkpt lat="44.981703" lon="8.3486299"><ele>220.0</ele><time>2026-03-26T14:48:34.049Z</time></trkpt><trkpt lat="44.9818029" lon="8.3487377"><ele>220.0</ele><time>2026-03-26T14:48:36.05Z</time></trkpt><trkpt lat="44.981853" lon="8.3487978"><ele>220.0</ele><time>2026-03-26T14:48:37.05Z</time></trkpt><trkpt lat="44.9819095" lon="8.3488896"><ele>219.8</ele><time>2026-03-26T14:48:39.05Z</time></trkpt><trkpt lat="44.9818495" lon="8.348965"><ele>219.6</ele><time>2026-03-26T14:49:00.05Z</time></trkpt><trkpt lat="44.9817806" lon="8.3490805"><ele>219.39999999999998</ele><time>2026-03-26T14:49:02.05Z</time></trkpt><trkpt lat="44.9817113" lon="8.3491735"><ele>219.2</ele><time>2026-03-26T14:49:04.05Z</time></trkpt><trkpt lat="44.9816417" lon="8.3492721"><ele>219.0</ele><time>2026-03-26T14:49:06.05Z</time></trkpt><trkpt lat="44.9815595" lon="8.349377"><ele>219.0</ele><time>2026-03-26T14:49:08.05Z</time></trkpt><trkpt lat="44.9815121" lon="8.3494407"><ele>219.0</ele><time>2026-03-26T14:49:09.05Z</time></trkpt><trkpt lat="44.9814628" lon="8.3495027"><ele>219.0</ele><time>2026-03-26T14:49:10.05Z</time></trkpt><trkpt lat="44.9814061" lon="8.3495665"><ele>219.0</ele><time>2026-03-26T14:49:11.049Z</time></trkpt><trkpt lat="44.9813432" lon="8.3496307"><ele>219.0</ele><time>2026-03-26T14:49:12.05Z</time></trkpt><trkpt lat="44.9812727" lon="8.3496986"><ele>219.0</ele><time>2026-03-26T14:49:13.05Z</time></trkpt><trkpt lat="44.981198" lon="8.349769"><ele>218.83333333333334</ele><time>2026-03-26T14:49:14.05Z</time></trkpt><trkpt lat="44.9811279" lon="8.3498389"><ele>218.66666666666669</ele><time>2026-03-26T14:49:15.05Z</time></trkpt><trkpt lat="44.9810705" lon="8.3499033"><ele>218.5</ele><time>2026-03-26T14:49:16.05Z</time></trkpt><trkpt lat="44.981007" lon="8.3499851"><ele>218.33333333333334</ele><time>2026-03-26T14:49:17.05Z</time></trkpt><trkpt lat="44.9809468" lon="8.3500704"><ele>218.16666666666669</ele><time>2026-03-26T14:49:18.05Z</time></trkpt><trkpt lat="44.9808943" lon="8.3501502"><ele>218.0</ele><time>2026-03-26T14:49:19.05Z</time></trkpt><trkpt lat="44.980837" lon="8.3502433"><ele>218.00000000000003</ele><time>2026-03-26T14:49:20.049Z</time></trkpt><trkpt lat="44.9807819" lon="8.3503372"><ele>218.0</ele><time>2026-03-26T14:49:21.049Z</time></trkpt><trkpt lat="44.9807283" lon="8.350432"><ele>218.0</ele><time>2026-03-26T14:49:22.05Z</time></trkpt><trkpt lat="44.980674" lon="8.3505321"><ele>218.0</ele><time>2026-03-26T14:49:23.05Z</time></trkpt><trkpt lat="44.9806179" lon="8.350637"><ele>218.00000000000003</ele><time>2026-03-26T14:49:24.049Z</time></trkpt><trkpt lat="44.9805654" lon="8.3507447"><ele>218.0</ele><time>2026-03-26T14:49:25.05Z</time></trkpt><trkpt lat="44.9805108" lon="8.3508557"><ele>217.16666666666669</ele><time>2026-03-26T14:49:26.05Z</time></trkpt><trkpt lat="44.9804608" lon="8.3509563"><ele>216.33333333333334</ele><time>2026-03-26T14:49:27.049Z</time></trkpt><trkpt lat="44.9804149" lon="8.351052"><ele>215.5</ele><time>2026-03-26T14:49:28.05Z</time></trkpt><trkpt lat="44.9803617" lon="8.351152"><ele>214.66666666666669</ele><time>2026-03-26T14:49:29.05Z</time></trkpt><trkpt lat="44.9803091" lon="8.3512484"><ele>213.83333333333334</ele><time>2026-03-26T14:49:30.05Z</time></trkpt><trkpt lat="44.9802673" lon="8.3513281"><ele>213.0</ele><time>2026-03-26T14:49:31.05Z</time></trkpt><trkpt lat="44.9802192" lon="8.3513968"><ele>212.0</ele><time>2026-03-26T14:49:32.05Z</time></trkpt><trkpt lat="44.9801624" lon="8.3514762"><ele>211.0</ele><time>2026-03-26T14:49:33.05Z</time></trkpt><trkpt lat="44.9801009" lon="8.3515546"><ele>210.0</ele><time>2026-03-26T14:49:34.05Z</time></trkpt><trkpt lat="44.980046" lon="8.3516162"><ele>209.0</ele><time>2026-03-26T14:49:35.05Z</time></trkpt><trkpt lat="44.9799993" lon="8.3516759"><ele>208.0</ele><time>2026-03-26T14:49:36.05Z</time></trkpt><trkpt lat="44.9799161" lon="8.3517706"><ele>207.0</ele><time>2026-03-26T14:49:38.049Z</time></trkpt><trkpt lat="44.9798224" lon="8.3518952"><ele>208.0</ele><time>2026-03-26T14:49:40.05Z</time></trkpt><trkpt lat="44.9797595" lon="8.3519854"><ele>209.0</ele><time>2026-03-26T14:49:41.05Z</time></trkpt><trkpt lat="44.9796875" lon="8.3520749"><ele>210.0</ele><time>2026-03-26T14:49:42.05Z</time></trkpt><trkpt lat="44.9796162" lon="8.352168"><ele>211.0</ele><time>2026-03-26T14:49:43.05Z</time></trkpt><trkpt lat="44.9795434" lon="8.352259"><ele>212.0</ele><time>2026-03-26T14:49:44.05Z</time></trkpt><trkpt lat="44.9794713" lon="8.3523508"><ele>212.00000000000003</ele><time>2026-03-26T14:49:45.05Z</time></trkpt><trkpt lat="44.9794133" lon="8.3524279"><ele>212.0</ele><time>2026-03-26T14:49:46.05Z</time></trkpt><trkpt lat="44.9793553" lon="8.3525032"><ele>212.0</ele><time>2026-03-26T14:49:47.05Z</time></trkpt><trkpt lat="44.9793062" lon="8.3525756"><ele>212.0</ele><time>2026-03-26T14:49:48.05Z</time></trkpt><trkpt lat="44.9792415" lon="8.3526496"><ele>212.00000000000003</ele><time>2026-03-26T14:49:49.05Z</time></trkpt><trkpt lat="44.9791675" lon="8.352722"><ele>212.0</ele><time>2026-03-26T14:49:50.049Z</time></trkpt><trkpt lat="44.9790831" lon="8.3527849"><ele>212.8</ele><time>2026-03-26T14:49:51.05Z</time></trkpt><trkpt lat="44.9789904" lon="8.3528404"><ele>213.6</ele><time>2026-03-26T14:49:52.05Z</time></trkpt><trkpt lat="44.9789035" lon="8.3528901"><ele>214.40000000000003</ele><time>2026-03-26T14:49:53.05Z</time></trkpt><trkpt lat="44.9788082" lon="8.3529372"><ele>215.20000000000002</ele><time>2026-03-26T14:49:54.05Z</time></trkpt><trkpt lat="44.9786905" lon="8.3529904"><ele>216.0</ele><time>2026-03-26T14:49:55.05Z</time></trkpt><trkpt lat="44.9785658" lon="8.3530437"><ele>216.0</ele><time>2026-03-26T14:49:56.049Z</time></trkpt><trkpt lat="44.9784595" lon="8.3530858"><ele>216.00000000000003</ele><time>2026-03-26T14:49:57.05Z</time></trkpt><trkpt lat="44.9783647" lon="8.3531178"><ele>216.00000000000003</ele><time>2026-03-26T14:49:58.049Z</time></trkpt><trkpt lat="44.9782759" lon="8.3531429"><ele>216.0</ele><time>2026-03-26T14:49:59.05Z</time></trkpt><trkpt lat="44.9781822" lon="8.3531678"><ele>216.0</ele><time>2026-03-26T14:50:00.05Z</time></trkpt><trkpt lat="44.9780828" lon="8.3531928"><ele>217.8</ele><time>2026-03-26T14:50:01.051Z</time></trkpt><trkpt lat="44.9779829" lon="8.3532182"><ele>219.60000000000002</ele><time>2026-03-26T14:50:02.049Z</time></trkpt><trkpt lat="44.9778895" lon="8.3532397"><ele>221.4</ele><time>2026-03-26T14:50:03.05Z</time></trkpt><trkpt lat="44.9778033" lon="8.3532617"><ele>223.2</ele><time>2026-03-26T14:50:04.05Z</time></trkpt><trkpt lat="44.9777212" lon="8.3532938"><ele>225.0</ele><time>2026-03-26T14:50:05.05Z</time></trkpt><trkpt lat="44.9776392" lon="8.3533247"><ele>225.0</ele><time>2026-03-26T14:50:06.049Z</time></trkpt><trkpt lat="44.977568" lon="8.3533553"><ele>225.0</ele><time>2026-03-26T14:50:07.05Z</time></trkpt><trkpt lat="44.9774833" lon="8.3533875"><ele>225.0</ele><time>2026-03-26T14:50:08.05Z</time></trkpt><trkpt lat="44.9774026" lon="8.35341"><ele>225.0</ele><time>2026-03-26T14:50:09.05Z</time></trkpt><trkpt lat="44.9773252" lon="8.3534189"><ele>225.0</ele><time>2026-03-26T14:50:10.05Z</time></trkpt><trkpt lat="44.9772571" lon="8.3534316"><ele>225.0</ele><time>2026-03-26T14:50:11.049Z</time></trkpt><trkpt lat="44.9771874" lon="8.3534563"><ele>224.66666666666666</ele><time>2026-03-26T14:50:12.05Z</time></trkpt><trkpt lat="44.9771065" lon="8.3534773"><ele>224.33333333333331</ele><time>2026-03-26T14:50:13.05Z</time></trkpt><trkpt lat="44.9770188" lon="8.3534956"><ele>224.0</ele><time>2026-03-26T14:50:14.05Z</time></trkpt><trkpt lat="44.9769336" lon="8.3535038"><ele>223.66666666666666</ele><time>2026-03-26T14:50:15.05Z</time></trkpt><trkpt lat="44.9768624" lon="8.3535039"><ele>223.33333333333331</ele><time>2026-03-26T14:50:16.05Z</time></trkpt><trkpt lat="44.9767973" lon="8.3535196"><ele>223.0</ele><time>2026-03-26T14:50:17.05Z</time></trkpt><trkpt lat="44.9767202" lon="8.3535413"><ele>222.16666666666666</ele><time>2026-03-26T14:50:18.05Z</time></trkpt><trkpt lat="44.976636" lon="8.3535585"><ele>221.33333333333331</ele><time>2026-03-26T14:50:19.05Z</time></trkpt><trkpt lat="44.9765461" lon="8.3535699"><ele>220.5</ele><time>2026-03-26T14:50:20.05Z</time></trkpt><trkpt lat="44.9764585" lon="8.353582"><ele>219.66666666666669</ele><time>2026-03-26T14:50:21.049Z</time></trkpt><trkpt lat="44.9763642" lon="8.353593"><ele>218.83333333333334</ele><time>2026-03-26T14:50:22.049Z</time></trkpt><trkpt lat="44.9762755" lon="8.35359"><ele>218.0</ele><time>2026-03-26T14:50:23.049Z</time></trkpt><trkpt lat="44.9761958" lon="8.3535821"><ele>218.00000000000003</ele><time>2026-03-26T14:50:24.05Z</time></trkpt><trkpt lat="44.9761117" lon="8.3535848"><ele>218.0</ele><time>2026-03-26T14:50:25.05Z</time></trkpt><trkpt lat="44.9760229" lon="8.3535965"><ele>218.0</ele><time>2026-03-26T14:50:26.049Z</time></trkpt><trkpt lat="44.9759372" lon="8.3536098"><ele>218.0</ele><time>2026-03-26T14:50:27.05Z</time></trkpt><trkpt lat="44.9758567" lon="8.3536457"><ele>218.00000000000003</ele><time>2026-03-26T14:50:28.05Z</time></trkpt><trkpt lat="44.9757897" lon="8.3536817"><ele>218.0</ele><time>2026-03-26T14:50:29.05Z</time></trkpt><trkpt lat="44.9757246" lon="8.3537286"><ele>217.71428571428572</ele><time>2026-03-26T14:50:30.05Z</time></trkpt><trkpt lat="44.9756676" lon="8.3537803"><ele>217.42857142857144</ele><time>2026-03-26T14:50:31.049Z</time></trkpt><trkpt lat="44.9755875" lon="8.3538608"><ele>217.14285714285714</ele><time>2026-03-26T14:50:33.05Z</time></trkpt><trkpt lat="44.9755356" lon="8.3539191"><ele>216.85714285714286</ele><time>2026-03-26T14:50:37.05Z</time></trkpt><trkpt lat="44.9754796" lon="8.3539854"><ele>216.57142857142856</ele><time>2026-03-26T14:50:49.051Z</time></trkpt><trkpt lat="44.9754268" lon="8.3540416"><ele>216.28571428571428</ele><time>2026-03-26T14:50:55.05Z</time></trkpt><trkpt lat="44.9753921" lon="8.3541373"><ele>216.0</ele><time>2026-03-26T14:51:38.049Z</time></trkpt><trkpt lat="44.9753289" lon="8.3542532"><ele>216.20000000000002</ele><time>2026-03-26T14:51:40.05Z</time></trkpt><trkpt lat="44.9752605" lon="8.3543707"><ele>216.40000000000003</ele><time>2026-03-26T14:51:42.049Z</time></trkpt><trkpt lat="44.9751803" lon="8.3544628"><ele>216.6</ele><time>2026-03-26T14:51:44.05Z</time></trkpt><trkpt lat="44.9750731" lon="8.3545427"><ele>216.8</ele><time>2026-03-26T14:51:46.051Z</time></trkpt><trkpt lat="44.9749993" lon="8.3545771"><ele>217.0</ele><time>2026-03-26T14:51:47.05Z</time></trkpt><trkpt lat="44.9749179" lon="8.3546095"><ele>216.99999999999997</ele><time>2026-03-26T14:51:48.05Z</time></trkpt><trkpt lat="44.9748458" lon="8.3546304"><ele>217.0</ele><time>2026-03-26T14:51:49.05Z</time></trkpt><trkpt lat="44.974781" lon="8.354656"><ele>217.0</ele><time>2026-03-26T14:51:50.05Z</time></trkpt><trkpt lat="44.9747201" lon="8.3546844"><ele>217.0</ele><time>2026-03-26T14:51:51.051Z</time></trkpt><trkpt lat="44.9746498" lon="8.3547296"><ele>216.99999999999997</ele><time>2026-03-26T14:51:52.05Z</time></trkpt><trkpt lat="44.9745921" lon="8.3547805"><ele>217.0</ele><time>2026-03-26T14:51:53.05Z</time></trkpt><trkpt lat="44.9744868" lon="8.3548735"><ele>217.39999999999998</ele><time>2026-03-26T14:51:55.05Z</time></trkpt><trkpt lat="44.9744004" lon="8.3549532"><ele>217.79999999999998</ele><time>2026-03-26T14:51:56.05Z</time></trkpt><trkpt lat="44.9743126" lon="8.3550254"><ele>218.2</ele><time>2026-03-26T14:51:57.05Z</time></trkpt><trkpt lat="44.9742421" lon="8.355095"><ele>218.6</ele><time>2026-03-26T14:51:58.049Z</time></trkpt><trkpt lat="44.9741794" lon="8.3551663"><ele>219.0</ele><time>2026-03-26T14:51:59.051Z</time></trkpt><trkpt lat="44.974105" lon="8.3552421"><ele>219.0</ele><time>2026-03-26T14:52:00.051Z</time></trkpt><trkpt lat="44.9740332" lon="8.355321"><ele>219.0</ele><time>2026-03-26T14:52:01.05Z</time></trkpt><trkpt lat="44.9739607" lon="8.3553998"><ele>219.0</ele><time>2026-03-26T14:52:02.05Z</time></trkpt><trkpt lat="44.9738978" lon="8.3554657"><ele>219.0</ele><time>2026-03-26T14:52:03.05Z</time></trkpt><trkpt lat="44.9738281" lon="8.3555376"><ele>219.0</ele><time>2026-03-26T14:52:04.051Z</time></trkpt><trkpt lat="44.9737564" lon="8.3556079"><ele>219.0</ele><time>2026-03-26T14:52:05.05Z</time></trkpt><trkpt lat="44.9736786" lon="8.3556712"><ele>220.79999999999998</ele><time>2026-03-26T14:52:06.05Z</time></trkpt><trkpt lat="44.9736002" lon="8.3557311"><ele>222.59999999999997</ele><time>2026-03-26T14:52:07.05Z</time></trkpt><trkpt lat="44.9735149" lon="8.3557911"><ele>224.4</ele><time>2026-03-26T14:52:08.05Z</time></trkpt><trkpt lat="44.9734231" lon="8.3558401"><ele>226.2</ele><time>2026-03-26T14:52:09.05Z</time></trkpt><trkpt lat="44.973332" lon="8.3558841"><ele>228.0</ele><time>2026-03-26T14:52:10.05Z</time></trkpt><trkpt lat="44.9732542" lon="8.3559205"><ele>228.0</ele><time>2026-03-26T14:52:11.05Z</time></trkpt><trkpt lat="44.9731707" lon="8.3559541"><ele>228.0</ele><time>2026-03-26T14:52:12.049Z</time></trkpt><trkpt lat="44.9730856" lon="8.3559866"><ele>228.0</ele><time>2026-03-26T14:52:13.049Z</time></trkpt><trkpt lat="44.9730074" lon="8.3560222"><ele>228.0</ele><time>2026-03-26T14:52:14.05Z</time></trkpt><trkpt lat="44.9729334" lon="8.3560606"><ele>228.0</ele><time>2026-03-26T14:52:15.05Z</time></trkpt><trkpt lat="44.972857" lon="8.3561059"><ele>228.0</ele><time>2026-03-26T14:52:16.051Z</time></trkpt><trkpt lat="44.9727889" lon="8.3561592"><ele>228.0</ele><time>2026-03-26T14:52:17.05Z</time></trkpt><trkpt lat="44.9727317" lon="8.3562194"><ele>228.0</ele><time>2026-03-26T14:52:18.049Z</time></trkpt><trkpt lat="44.9726804" lon="8.3562902"><ele>228.0</ele><time>2026-03-26T14:52:19.05Z</time></trkpt><trkpt lat="44.9726339" lon="8.3563694"><ele>228.0</ele><time>2026-03-26T14:52:20.05Z</time></trkpt><trkpt lat="44.9725755" lon="8.3564651"><ele>228.0</ele><time>2026-03-26T14:52:22.05Z</time></trkpt><trkpt lat="44.9725184" lon="8.3565107"><ele>228.0</ele><time>2026-03-26T14:52:24.05Z</time></trkpt><trkpt lat="44.9724349" lon="8.3564337"><ele>227.83333333333334</ele><time>2026-03-26T14:52:27.05Z</time></trkpt><trkpt lat="44.9723843" lon="8.3563778"><ele>227.66666666666669</ele><time>2026-03-26T14:52:28.05Z</time></trkpt><trkpt lat="44.9723249" lon="8.3563232"><ele>227.5</ele><time>2026-03-26T14:52:29.051Z</time></trkpt><trkpt lat="44.9722275" lon="8.3562471"><ele>227.33333333333334</ele><time>2026-03-26T14:52:31.05Z</time></trkpt><trkpt lat="44.9721421" lon="8.3561781"><ele>227.16666666666669</ele><time>2026-03-26T14:52:33.049Z</time></trkpt><trkpt lat="44.9720856" lon="8.3561334"><ele>227.0</ele><time>2026-03-26T14:52:34.05Z</time></trkpt><trkpt lat="44.9720181" lon="8.3560788"><ele>227.00000000000003</ele><time>2026-03-26T14:52:35.05Z</time></trkpt><trkpt lat="44.9719476" lon="8.3560246"><ele>227.0</ele><time>2026-03-26T14:52:36.05Z</time></trkpt><trkpt lat="44.9718758" lon="8.3559707"><ele>227.0</ele><time>2026-03-26T14:52:37.05Z</time></trkpt><trkpt lat="44.9718071" lon="8.3559108"><ele>227.0</ele><time>2026-03-26T14:52:38.05Z</time></trkpt><trkpt lat="44.9717381" lon="8.3558491"><ele>227.00000000000003</ele><time>2026-03-26T14:52:39.05Z</time></trkpt><trkpt lat="44.9716741" lon="8.3557922"><ele>227.0</ele><time>2026-03-26T14:52:40.05Z</time></trkpt><trkpt lat="44.9716167" lon="8.3557351"><ele>227.66666666666669</ele><time>2026-03-26T14:52:41.05Z</time></trkpt><trkpt lat="44.9715626" lon="8.3556705"><ele>228.33333333333334</ele><time>2026-03-26T14:52:42.05Z</time></trkpt><trkpt lat="44.9715123" lon="8.3556033"><ele>229.0</ele><time>2026-03-26T14:52:43.05Z</time></trkpt><trkpt lat="44.9714546" lon="8.3554946"><ele>229.66666666666669</ele><time>2026-03-26T14:52:45.05Z</time></trkpt><trkpt lat="44.9714177" lon="8.3554057"><ele>230.33333333333334</ele><time>2026-03-26T14:52:48.05Z</time></trkpt><trkpt lat="44.9714388" lon="8.3554899"><ele>231.0</ele><time>2026-03-26T14:52:54.05Z</time></trkpt><trkpt lat="44.9715006" lon="8.3555974"><ele>231.0</ele><time>2026-03-26T14:52:56.049Z</time></trkpt><trkpt lat="44.9715523" lon="8.3556786"><ele>231.00000000000003</ele><time>2026-03-26T14:52:57.05Z</time></trkpt><trkpt lat="44.9716172" lon="8.3557526"><ele>231.00000000000003</ele><time>2026-03-26T14:52:58.05Z</time></trkpt><trkpt lat="44.9717128" lon="8.3558458"><ele>231.0</ele><time>2026-03-26T14:52:59.05Z</time></trkpt><trkpt lat="44.9718295" lon="8.3559478"><ele>231.0</ele><time>2026-03-26T14:53:00.05Z</time></trkpt><trkpt lat="44.9719254" lon="8.3560283"><ele>231.0</ele><time>2026-03-26T14:53:01.05Z</time></trkpt><trkpt lat="44.9720116" lon="8.356094"><ele>231.0</ele><time>2026-03-26T14:53:02.051Z</time></trkpt><trkpt lat="44.9720875" lon="8.3561505"><ele>231.0</ele><time>2026-03-26T14:53:03.05Z</time></trkpt><trkpt lat="44.9721592" lon="8.3562047"><ele>231.0</ele><time>2026-03-26T14:53:04.05Z</time></trkpt><trkpt lat="44.972226" lon="8.3562562"><ele>231.0</ele><time>2026-03-26T14:53:05.049Z</time></trkpt><trkpt lat="44.9722843" lon="8.3562975"><ele>231.0</ele><time>2026-03-26T14:53:06.05Z</time></trkpt><trkpt lat="44.9723824" lon="8.3563699"><ele>231.0</ele><time>2026-03-26T14:53:08.05Z</time></trkpt><trkpt lat="44.9724495" lon="8.3564338"><ele>231.0</ele><time>2026-03-26T14:53:10.05Z</time></trkpt><trkpt lat="44.9724602" lon="8.3565444"><ele>231.0</ele><time>2026-03-26T14:53:13.049Z</time></trkpt><trkpt lat="44.972388" lon="8.3565936"><ele>231.0</ele><time>2026-03-26T14:53:15.049Z</time></trkpt><trkpt lat="44.9723141" lon="8.3566298"><ele>231.0</ele><time>2026-03-26T14:53:16.05Z</time></trkpt><trkpt lat="44.9722381" lon="8.3566838"><ele>231.0</ele><time>2026-03-26T14:53:17.05Z</time></trkpt><trkpt lat="44.9721467" lon="8.3567414"><ele>231.0</ele><time>2026-03-26T14:53:18.05Z</time></trkpt><trkpt lat="44.9720532" lon="8.3568104"><ele>231.00000000000003</ele><time>2026-03-26T14:53:19.05Z</time></trkpt><trkpt lat="44.9719594" lon="8.3568837"><ele>231.00000000000003</ele><time>2026-03-26T14:53:20.05Z</time></trkpt><trkpt lat="44.9718637" lon="8.3569616"><ele>231.0</ele><time>2026-03-26T14:53:21.05Z</time></trkpt><trkpt lat="44.9717824" lon="8.357034"><ele>231.0</ele><time>2026-03-26T14:53:22.05Z</time></trkpt><trkpt lat="44.9717112" lon="8.3570981"><ele>230.5</ele><time>2026-03-26T14:53:23.05Z</time></trkpt><trkpt lat="44.9716448" lon="8.3571522"><ele>230.0</ele><time>2026-03-26T14:53:24.05Z</time></trkpt><trkpt lat="44.9715731" lon="8.3572141"><ele>229.5</ele><time>2026-03-26T14:53:25.049Z</time></trkpt><trkpt lat="44.9715048" lon="8.3572752"><ele>229.0</ele><time>2026-03-26T14:53:26.05Z</time></trkpt><trkpt lat="44.9714427" lon="8.3573293"><ele>228.5</ele><time>2026-03-26T14:53:27.05Z</time></trkpt><trkpt lat="44.9713752" lon="8.3573828"><ele>228.0</ele><time>2026-03-26T14:53:28.05Z</time></trkpt><trkpt lat="44.9713045" lon="8.3574292"><ele>228.0</ele><time>2026-03-26T14:53:29.05Z</time></trkpt><trkpt lat="44.9712388" lon="8.3574675"><ele>228.0</ele><time>2026-03-26T14:53:30.049Z</time></trkpt><trkpt lat="44.9711658" lon="8.3575078"><ele>228.0</ele><time>2026-03-26T14:53:31.049Z</time></trkpt><trkpt lat="44.9710821" lon="8.3575597"><ele>228.0</ele><time>2026-03-26T14:53:32.05Z</time></trkpt><trkpt lat="44.9710027" lon="8.3576048"><ele>228.0</ele><time>2026-03-26T14:53:33.05Z</time></trkpt><trkpt lat="44.9709273" lon="8.3576498"><ele>228.0</ele><time>2026-03-26T14:53:34.05Z</time></trkpt><trkpt lat="44.9708542" lon="8.3576988"><ele>228.0</ele><time>2026-03-26T14:53:35.05Z</time></trkpt><trkpt lat="44.9707847" lon="8.3577489"><ele>228.0</ele><time>2026-03-26T14:53:36.05Z</time></trkpt><trkpt lat="44.9707105" lon="8.3578014"><ele>228.0</ele><time>2026-03-26T14:53:37.05Z</time></trkpt><trkpt lat="44.9706385" lon="8.357855"><ele>228.0</ele><time>2026-03-26T14:53:38.049Z</time></trkpt><trkpt lat="44.9705623" lon="8.3579195"><ele>228.0</ele><time>2026-03-26T14:53:39.05Z</time></trkpt><trkpt lat="44.970485" lon="8.3579837"><ele>228.0</ele><time>2026-03-26T14:53:40.05Z</time></trkpt><trkpt lat="44.9704054" lon="8.3580424"><ele>229.2</ele><time>2026-03-26T14:53:41.049Z</time></trkpt><trkpt lat="44.9703234" lon="8.3581011"><ele>230.4</ele><time>2026-03-26T14:53:42.05Z</time></trkpt><trkpt lat="44.9702404" lon="8.3581631"><ele>231.59999999999997</ele><time>2026-03-26T14:53:43.051Z</time></trkpt><trkpt lat="44.9701532" lon="8.3582289"><ele>232.79999999999998</ele><time>2026-03-26T14:53:44.05Z</time></trkpt><trkpt lat="44.9700744" lon="8.358277"><ele>234.0</ele><time>2026-03-26T14:53:45.05Z</time></trkpt><trkpt lat="44.969991" lon="8.3583109"><ele>232.2857142857143</ele><time>2026-03-26T14:53:46.05Z</time></trkpt><trkpt lat="44.9699086" lon="8.3583299"><ele>230.5714285714286</ele><time>2026-03-26T14:53:47.05Z</time></trkpt><trkpt lat="44.9698326" lon="8.358337"><ele>228.85714285714286</ele><time>2026-03-26T14:53:48.05Z</time></trkpt><trkpt lat="44.9697599" lon="8.358338"><ele>227.14285714285717</ele><time>2026-03-26T14:53:49.05Z</time></trkpt><trkpt lat="44.9696873" lon="8.3583427"><ele>225.42857142857144</ele><time>2026-03-26T14:53:50.05Z</time></trkpt><trkpt lat="44.9696168" lon="8.3583536"><ele>223.71428571428572</ele><time>2026-03-26T14:53:51.05Z</time></trkpt><trkpt lat="44.9695495" lon="8.3583573"><ele>222.0</ele><time>2026-03-26T14:53:52.05Z</time></trkpt><trkpt lat="44.9694821" lon="8.3583428"><ele>222.0</ele><time>2026-03-26T14:53:53.05Z</time></trkpt><trkpt lat="44.9694034" lon="8.3583083"><ele>222.0</ele><time>2026-03-26T14:53:54.05Z</time></trkpt><trkpt lat="44.9693175" lon="8.3582642"><ele>222.0</ele><time>2026-03-26T14:53:55.05Z</time></trkpt><trkpt lat="44.9692205" lon="8.3582184"><ele>222.0</ele><time>2026-03-26T14:53:56.05Z</time></trkpt><trkpt lat="44.9691149" lon="8.3581736"><ele>222.0</ele><time>2026-03-26T14:53:57.05Z</time></trkpt><trkpt lat="44.9690123" lon="8.3581404"><ele>220.5</ele><time>2026-03-26T14:53:58.05Z</time></trkpt><trkpt lat="44.968902" lon="8.3581184"><ele>219.0</ele><time>2026-03-26T14:53:59.05Z</time></trkpt><trkpt lat="44.9687873" lon="8.358113"><ele>217.5</ele><time>2026-03-26T14:54:00.05Z</time></trkpt><trkpt lat="44.9686694" lon="8.3581238"><ele>216.0</ele><time>2026-03-26T14:54:01.051Z</time></trkpt><trkpt lat="44.9685535" lon="8.3581527"><ele>216.0</ele><time>2026-03-26T14:54:02.05Z</time></trkpt><trkpt lat="44.9684313" lon="8.3581887"><ele>216.0</ele><time>2026-03-26T14:54:03.05Z</time></trkpt><trkpt lat="44.9683085" lon="8.3582268"><ele>216.0</ele><time>2026-03-26T14:54:04.05Z</time></trkpt><trkpt lat="44.9681991" lon="8.3582701"><ele>216.0</ele><time>2026-03-26T14:54:05.05Z</time></trkpt><trkpt lat="44.9680963" lon="8.3583218"><ele>215.4</ele><time>2026-03-26T14:54:06.05Z</time></trkpt><trkpt lat="44.9679926" lon="8.3583803"><ele>214.8</ele><time>2026-03-26T14:54:07.05Z</time></trkpt><trkpt lat="44.96789" lon="8.358437"><ele>214.20000000000002</ele><time>2026-03-26T14:54:08.05Z</time></trkpt><trkpt lat="44.9677944" lon="8.358497"><ele>213.60000000000002</ele><time>2026-03-26T14:54:09.05Z</time></trkpt><trkpt lat="44.9677013" lon="8.3585677"><ele>213.0</ele><time>2026-03-26T14:54:10.05Z</time></trkpt><trkpt lat="44.9676131" lon="8.358647"><ele>213.0</ele><time>2026-03-26T14:54:11.05Z</time></trkpt><trkpt lat="44.9675273" lon="8.3587349"><ele>213.0</ele><time>2026-03-26T14:54:12.05Z</time></trkpt><trkpt lat="44.9674337" lon="8.3588347"><ele>213.0</ele><time>2026-03-26T14:54:13.05Z</time></trkpt><trkpt lat="44.9673177" lon="8.3589622"><ele>213.0</ele><time>2026-03-26T14:54:14.05Z</time></trkpt><trkpt lat="44.9671993" lon="8.3590999"><ele>213.2</ele><time>2026-03-26T14:54:15.05Z</time></trkpt><trkpt lat="44.9671019" lon="8.3592191"><ele>213.4</ele><time>2026-03-26T14:54:16.049Z</time></trkpt><trkpt lat="44.9670174" lon="8.3593262"><ele>213.59999999999997</ele><time>2026-03-26T14:54:17.05Z</time></trkpt><trkpt lat="44.966946" lon="8.3594205"><ele>213.79999999999998</ele><time>2026-03-26T14:54:18.05Z</time></trkpt><trkpt lat="44.9668814" lon="8.3595202"><ele>214.0</ele><time>2026-03-26T14:54:19.049Z</time></trkpt><trkpt lat="44.9668128" lon="8.3596345"><ele>214.0</ele><time>2026-03-26T14:54:20.05Z</time></trkpt><trkpt lat="44.9667412" lon="8.3597594"><ele>214.0</ele><time>2026-03-26T14:54:21.05Z</time></trkpt><trkpt lat="44.9666613" lon="8.3599043"><ele>214.0</ele><time>2026-03-26T14:54:22.05Z</time></trkpt><trkpt lat="44.9665803" lon="8.3600514"><ele>214.0</ele><time>2026-03-26T14:54:23.05Z</time></trkpt><trkpt lat="44.9665099" lon="8.360174"><ele>214.0</ele><time>2026-03-26T14:54:24.05Z</time></trkpt><trkpt lat="44.9664483" lon="8.3602852"><ele>213.99999999999997</ele><time>2026-03-26T14:54:25.05Z</time></trkpt><trkpt lat="44.9663893" lon="8.3604044"><ele>213.99999999999997</ele><time>2026-03-26T14:54:26.05Z</time></trkpt><trkpt lat="44.9663355" lon="8.3605282"><ele>214.0</ele><time>2026-03-26T14:54:27.05Z</time></trkpt><trkpt lat="44.9662948" lon="8.3606429"><ele>214.0</ele><time>2026-03-26T14:54:28.05Z</time></trkpt><trkpt lat="44.9662585" lon="8.3607592"><ele>212.79999999999998</ele><time>2026-03-26T14:54:29.049Z</time></trkpt><trkpt lat="44.966226" lon="8.3608819"><ele>211.59999999999997</ele><time>2026-03-26T14:54:30.05Z</time></trkpt><trkpt lat="44.9662022" lon="8.3610126"><ele>210.4</ele><time>2026-03-26T14:54:31.05Z</time></trkpt><trkpt lat="44.9661926" lon="8.3611286"><ele>209.2</ele><time>2026-03-26T14:54:32.05Z</time></trkpt><trkpt lat="44.9661787" lon="8.3612653"><ele>208.0</ele><time>2026-03-26T14:54:33.05Z</time></trkpt><trkpt lat="44.9661675" lon="8.3613854"><ele>207.8</ele><time>2026-03-26T14:54:34.05Z</time></trkpt><trkpt lat="44.9661587" lon="8.3614784"><ele>207.60000000000002</ele><time>2026-03-26T14:54:35.05Z</time></trkpt><trkpt lat="44.9661468" lon="8.3615905"><ele>207.39999999999998</ele><time>2026-03-26T14:54:37.051Z</time></trkpt><trkpt lat="44.9661355" lon="8.3617092"><ele>207.2</ele><time>2026-03-26T14:54:40.05Z</time></trkpt><trkpt lat="44.9661165" lon="8.3619088"><ele>207.0</ele><time>2026-03-26T14:54:42.049Z</time></trkpt><trkpt lat="44.9661068" lon="8.3620247"><ele>207.0</ele><time>2026-03-26T14:54:43.05Z</time></trkpt><trkpt lat="44.9660905" lon="8.3621492"><ele>207.0</ele><time>2026-03-26T14:54:44.05Z</time></trkpt><trkpt lat="44.966074" lon="8.362256"><ele>207.0</ele><time>2026-03-26T14:54:45.05Z</time></trkpt><trkpt lat="44.9660603" lon="8.3623431"><ele>207.0</ele><time>2026-03-26T14:54:46.05Z</time></trkpt><trkpt lat="44.966036" lon="8.3624908"><ele>207.0</ele><time>2026-03-26T14:54:48.049Z</time></trkpt><trkpt lat="44.9659953" lon="8.3626034"><ele>207.0</ele><time>2026-03-26T14:54:50.05Z</time></trkpt><trkpt lat="44.9659166" lon="8.3626894"><ele>209.0</ele><time>2026-03-26T14:54:52.05Z</time></trkpt><trkpt lat="44.9658566" lon="8.3627727"><ele>211.0</ele><time>2026-03-26T14:54:54.05Z</time></trkpt><trkpt lat="44.9658" lon="8.3628619"><ele>213.0</ele><time>2026-03-26T14:54:56.05Z</time></trkpt><trkpt lat="44.9657271" lon="8.3629246"><ele>215.0</ele><time>2026-03-26T14:54:58.049Z</time></trkpt><trkpt lat="44.9656416" lon="8.3629503"><ele>217.0</ele><time>2026-03-26T14:55:00.049Z</time></trkpt><trkpt lat="44.9655567" lon="8.3629454"><ele>219.0</ele><time>2026-03-26T14:55:02.05Z</time></trkpt><trkpt lat="44.9654781" lon="8.362936"><ele>219.0</ele><time>2026-03-26T14:55:04.05Z</time></trkpt><trkpt lat="44.9653948" lon="8.3629066"><ele>219.0</ele><time>2026-03-26T14:55:06.05Z</time></trkpt><trkpt lat="44.9652915" lon="8.3628657"><ele>219.0</ele><time>2026-03-26T14:55:08.05Z</time></trkpt><trkpt lat="44.9652217" lon="8.362838"><ele>219.0</ele><time>2026-03-26T14:55:09.05Z</time></trkpt><trkpt lat="44.9651446" lon="8.3628104"><ele>219.0</ele><time>2026-03-26T14:55:10.05Z</time></trkpt><trkpt lat="44.9650641" lon="8.3627861"><ele>219.0</ele><time>2026-03-26T14:55:11.05Z</time></trkpt><trkpt lat="44.9649784" lon="8.3627549"><ele>217.39999999999998</ele><time>2026-03-26T14:55:12.05Z</time></trkpt><trkpt lat="44.9648913" lon="8.3627334"><ele>215.79999999999998</ele><time>2026-03-26T14:55:13.05Z</time></trkpt><trkpt lat="44.9648027" lon="8.3627209"><ele>214.2</ele><time>2026-03-26T14:55:14.05Z</time></trkpt><trkpt lat="44.9647044" lon="8.3627156"><ele>212.60000000000002</ele><time>2026-03-26T14:55:15.05Z</time></trkpt><trkpt lat="44.964614" lon="8.3627021"><ele>211.0</ele><time>2026-03-26T14:55:16.05Z</time></trkpt><trkpt lat="44.9645086" lon="8.3626918"><ele>211.0</ele><time>2026-03-26T14:55:17.049Z</time></trkpt><trkpt lat="44.9644044" lon="8.3626829"><ele>211.0</ele><time>2026-03-26T14:55:18.049Z</time></trkpt><trkpt lat="44.9643118" lon="8.3626764"><ele>211.0</ele><time>2026-03-26T14:55:19.05Z</time></trkpt><trkpt lat="44.964232" lon="8.3626715"><ele>211.0</ele><time>2026-03-26T14:55:20.049Z</time></trkpt><trkpt lat="44.9641663" lon="8.3626686"><ele>211.0</ele><time>2026-03-26T14:55:21.05Z</time></trkpt><trkpt lat="44.9640482" lon="8.3626594"><ele>210.16666666666666</ele><time>2026-03-26T14:55:23.05Z</time></trkpt><trkpt lat="44.9639536" lon="8.362652"><ele>209.33333333333331</ele><time>2026-03-26T14:55:25.05Z</time></trkpt><trkpt lat="44.9638582" lon="8.3625956"><ele>208.5</ele><time>2026-03-26T14:55:27.049Z</time></trkpt><trkpt lat="44.9638009" lon="8.3625553"><ele>207.66666666666669</ele><time>2026-03-26T14:55:28.05Z</time></trkpt><trkpt lat="44.9637346" lon="8.3625161"><ele>206.83333333333334</ele><time>2026-03-26T14:55:29.05Z</time></trkpt><trkpt lat="44.9636684" lon="8.362481"><ele>206.0</ele><time>2026-03-26T14:55:30.049Z</time></trkpt><trkpt lat="44.9636079" lon="8.3624494"><ele>206.0</ele><time>2026-03-26T14:55:31.05Z</time></trkpt><trkpt lat="44.9635469" lon="8.3623981"><ele>206.0</ele><time>2026-03-26T14:55:33.05Z</time></trkpt><trkpt lat="44.9635729" lon="8.3623163"><ele>206.0</ele><time>2026-03-26T14:55:55.049Z</time></trkpt></trkseg></trk></gpx>